Provisional Data: Apalachin Creek near Apalachin, NY


Please select a monitoring station.
Please select start date.
Please select start date.

Toggle Unit: C/F Toggle Unit: C/F
Sample Time Temperature (C) Temperature (F) Specific Conductivity (mS/cm) pH   Turbidity (NTU+) DO (mg/L)
12/4/2020 12:00:00 AM 4.75 40.55 0.141 7.22 2.27 11.98
12/4/2020 12:15:00 AM 4.75 40.55 0.141 7.2 2.29 11.98
12/4/2020 12:30:00 AM 4.74 40.532 0.141 7.2 2.4 11.98
12/4/2020 12:45:00 AM 4.74 40.532 0.141 7.22 2.61 11.98
12/4/2020 1:00:00 AM 4.73 40.514 0.141 7.22 2.27 11.98
12/4/2020 1:15:00 AM 4.73 40.514 0.141 7.21 2.31 11.98
12/4/2020 1:30:00 AM 4.72 40.496 0.141 7.21 2.18 11.98
12/4/2020 1:45:00 AM 4.72 40.496 0.141 7.21 2.25 11.98
12/4/2020 2:00:00 AM 4.71 40.478 0.141 7.22 2.26 11.98
12/4/2020 2:15:00 AM 4.7 40.46 0.141 7.21 2.19 11.98
12/4/2020 2:30:00 AM 4.7 40.46 0.141 7.21 2.19 11.97
12/4/2020 2:45:00 AM 4.7 40.46 0.142 7.22 2.15 11.98
12/4/2020 3:00:00 AM 4.69 40.442 0.142 7.21 2.19 11.98
12/4/2020 3:15:00 AM 4.69 40.442 0.142 7.19 2.14 11.98
12/4/2020 3:30:00 AM 4.69 40.442 0.142 7.21 2.21 11.98
12/4/2020 3:45:00 AM 4.69 40.442 0.142 7.21 2.23 11.97
12/4/2020 4:00:00 AM 4.69 40.442 0.142 7.21 2.42 11.97
12/4/2020 4:15:00 AM 4.69 40.442 0.142 7.21 2.11 11.97
12/4/2020 4:30:00 AM 4.69 40.442 0.142 7.21 2.15 11.96
12/4/2020 4:45:00 AM 4.69 40.442 0.142 7.21 2.2 11.97
12/4/2020 5:00:00 AM 4.7 40.46 0.142 7.21 2.28 11.97
12/4/2020 5:15:00 AM 4.7 40.46 0.142 7.21 2.19 11.96
12/4/2020 5:30:00 AM 4.71 40.478 0.142 7.21 2.17 11.96
12/4/2020 5:45:00 AM 4.71 40.478 0.142 7.21 2.24 11.96
12/4/2020 6:00:00 AM 4.72 40.496 0.142 7.21 2.18 11.95
12/4/2020 6:15:00 AM 4.72 40.496 0.142 7.21 2.21 11.96
12/4/2020 6:30:00 AM 4.72 40.496 0.142 7.21 2.22 11.95
12/4/2020 6:45:00 AM 4.73 40.514 0.142 7.21 2.22 11.95
12/4/2020 7:00:00 AM 4.74 40.532 0.142 7.21 2.37 11.94
12/4/2020 7:15:00 AM 4.74 40.532 0.142 7.21 2.28 11.94
12/4/2020 7:30:00 AM 4.75 40.55 0.142 7.21 2.85 11.94
12/4/2020 7:45:00 AM 4.76 40.568 0.142 7.21 2.57 11.95
12/4/2020 8:00:00 AM 4.78 40.604 0.142 7.2 2.19 11.99
12/4/2020 8:15:00 AM 4.79 40.622 0.142 7.23 2.14 12.02
12/4/2020 8:30:00 AM 4.81 40.658 0.142 7.23 2.42 12.08
12/4/2020 8:45:00 AM 4.83 40.694 0.143 7.24 2.16 12.14
12/4/2020 9:00:00 AM 4.85 40.73 0.142 7.26 2.24 12.25
12/4/2020 9:15:00 AM 4.88 40.784 0.142 7.28 2.12 12.34
12/4/2020 9:30:00 AM 4.92 40.856 0.142 7.3 2.1 12.46
12/4/2020 9:45:00 AM 4.96 40.928 0.142 7.34 2.07 12.58
12/4/2020 10:00:00 AM 5.01 41.018 0.142 7.36 2.21 12.7
12/4/2020 10:15:00 AM 5.06 41.108 0.142 7.38 2.24 12.8
12/4/2020 10:30:00 AM 5.12 41.216 0.142 7.41 2.1 12.89
12/4/2020 10:45:00 AM 5.19 41.342 0.142 7.45 2.07 12.95
12/4/2020 11:00:00 AM 5.24 41.432 0.142 7.47 2.25 12.98
12/4/2020 11:15:00 AM 5.3 41.54 0.142 7.49 2.03 13.02
12/4/2020 11:30:00 AM 5.34 41.612 0.142 7.51 2 13.02
12/4/2020 11:45:00 AM 5.38 41.684 0.142 7.51 2.05 13.02
12/4/2020 12:00:00 PM 5.42 41.756 0.142 7.53 2.03 13.03
12/4/2020 12:15:00 PM 5.47 41.846 0.141 7.54 1.94 13.03
12/4/2020 12:30:00 PM 5.52 41.936 0.141 7.55 2.08 13.03
12/4/2020 12:45:00 PM 5.58 42.044 0.141 7.57 2.01 13.03
12/4/2020 1:00:00 PM 5.64 42.152 0.141 7.57 2.07 13.03
12/4/2020 1:15:00 PM 5.73 42.314 0.141 7.59 2.03 13.06
12/4/2020 1:30:00 PM 5.91 42.638 0.141 7.58 1.96 13.08
12/4/2020 1:45:00 PM 6.06 42.908 0.141 7.64 1.97 13.08
12/4/2020 2:00:00 PM 6.21 43.178 0.141 7.64 2.21 13.04
12/4/2020 2:15:00 PM 6.32 43.376 0.141 7.65 2.07 13.03
12/4/2020 2:30:00 PM 6.42 43.556 0.141 7.69 2.22 12.99
12/4/2020 2:45:00 PM 6.48 43.664 0.141 7.68 2.01 12.92
12/4/2020 3:00:00 PM 6.49 43.682 0.141 7.66 2.04 12.8
12/4/2020 3:15:00 PM 6.47 43.646 0.141 7.62 2.07 12.69
12/4/2020 3:30:00 PM 6.44 43.592 0.141 7.58 2.12 12.56
12/4/2020 3:45:00 PM 6.39 43.502 0.141 7.53 1.94 12.4
12/4/2020 4:00:00 PM 6.34 43.412 0.142 7.48 2.02 12.25
12/4/2020 4:15:00 PM 6.28 43.304 0.142 7.43 1.97 12.11
12/4/2020 4:30:00 PM 6.25 43.25 0.142 7.37 1.96 11.99
12/4/2020 4:45:00 PM 6.21 43.178 0.142 7.36 2.1 11.87
12/4/2020 5:00:00 PM 6.17 43.106 0.142 7.33 2.03 11.78
12/4/2020 5:15:00 PM 6.15 43.07 0.143 7.3 2.09 11.7
12/4/2020 5:30:00 PM 6.13 43.034 0.143 7.28 2.06 11.65
12/4/2020 5:45:00 PM 6.1 42.98 0.143 7.27 2.04 11.6
12/4/2020 6:00:00 PM 6.08 42.944 0.143 7.26 2.08 11.57
12/4/2020 6:15:00 PM 6.05 42.89 0.143 7.25 1.98 11.55
12/4/2020 6:30:00 PM 6.01 42.818 0.143 7.25 1.93 11.53
12/4/2020 6:45:00 PM 5.97 42.746 0.143 7.24 1.94 11.53
12/4/2020 7:00:00 PM 5.94 42.692 0.143 7.23 2.02 11.53
12/4/2020 7:15:00 PM 5.92 42.656 0.143 7.22 2.08 11.52
12/4/2020 7:30:00 PM 5.9 42.62 0.143 7.22 1.98 11.52
12/4/2020 7:45:00 PM 5.88 42.584 0.143 7.21 3.07 11.51
12/4/2020 8:00:00 PM 5.87 42.566 0.143 7.21 2.04 11.51
12/4/2020 8:15:00 PM 5.86 42.548 0.143 7.21 2.03 11.52
12/4/2020 8:30:00 PM 5.85 42.53 0.143 7.2 2 11.53
12/4/2020 8:45:00 PM 5.84 42.512 0.143 7.21 1.97 11.52
12/4/2020 9:00:00 PM 5.82 42.476 0.144 7.2 2.03 11.52
12/4/2020 9:15:00 PM 5.81 42.458 0.144 7.2 1.98 11.53
12/4/2020 9:30:00 PM 5.79 42.422 0.144 7.2 1.96 11.53
12/4/2020 9:45:00 PM 5.78 42.404 0.144 7.21 2.04 11.53
12/4/2020 10:00:00 PM 5.77 42.386 0.144 7.2 2.03 11.54
12/4/2020 10:15:00 PM 5.75 42.35 0.144 7.18 1.97 11.54
12/4/2020 10:30:00 PM 5.73 42.314 0.144 7.19 2.13 11.54
12/4/2020 10:45:00 PM 5.71 42.278 0.144 7.2 2 11.55
12/4/2020 11:00:00 PM 5.69 42.242 0.144 7.2 1.99 11.54
12/4/2020 11:15:00 PM 5.67 42.206 0.144 7.19 2.01 11.55
12/4/2020 11:30:00 PM 5.65 42.17 0.144 7.19 1.97 11.56
12/4/2020 11:45:00 PM 5.63 42.134 0.144 7.19 1.9 11.55
12/5/2020 12:00:00 AM 5.61 42.098 0.144 7.19 1.99 11.56
12/5/2020 12:15:00 AM 5.59 42.062 0.144 7.19 1.99 11.56
12/5/2020 12:30:00 AM 5.57 42.026 0.144 7.19 1.97 11.56
12/5/2020 12:45:00 AM 5.55 41.99 0.144 7.19 2.01 11.57
12/5/2020 1:00:00 AM 5.54 41.972 0.144 7.19 2.04 11.57
12/5/2020 1:15:00 AM 5.52 41.936 0.144 7.2 2.19 11.57
12/5/2020 1:30:00 AM 5.51 41.918 0.144 7.18 2.34 11.57
12/5/2020 1:45:00 AM 5.5 41.9 0.145 7.2 2.29 11.58
12/5/2020 2:00:00 AM 5.49 41.882 0.145 7.19 2.24 11.58
12/5/2020 2:15:00 AM 5.48 41.864 0.145 7.2 2.3 11.58
12/5/2020 2:30:00 AM 5.48 41.864 0.145 7.19 2.3 11.58
12/5/2020 2:45:00 AM 5.47 41.846 0.145 7.2 2.37 11.59
12/5/2020 3:00:00 AM 5.45 41.81 0.145 7.2 2.18 11.59
12/5/2020 3:15:00 AM 5.44 41.792 0.145 7.19 2.17 11.59
12/5/2020 3:30:00 AM 5.43 41.774 0.145 7.19 2.29 11.59
12/5/2020 3:45:00 AM 5.42 41.756 0.145 7.19 2.12 11.59
12/5/2020 4:00:00 AM 5.4 41.72 0.145 7.19 2.15 11.6
12/5/2020 4:15:00 AM 5.39 41.702 0.145 7.19 2.12 11.61
12/5/2020 4:30:00 AM 5.37 41.666 0.145 7.19 2.04 11.6
12/5/2020 4:45:00 AM 5.36 41.648 0.145 7.19 2.2 11.6
12/5/2020 5:00:00 AM 5.35 41.63 0.145 7.19 1.98 11.61
12/5/2020 5:15:00 AM 5.34 41.612 0.145 7.2 2.1 11.61
12/5/2020 5:30:00 AM 5.34 41.612 0.145 7.2 2.11 11.61
12/5/2020 5:45:00 AM 5.34 41.612 0.145 7.19 2.22 11.62
12/5/2020 6:00:00 AM 5.34 41.612 0.145 7.19 1.97 11.61
12/5/2020 6:15:00 AM 5.35 41.63 0.145 7.2 1.97 11.62
12/5/2020 6:30:00 AM 5.35 41.63 0.145 7.19 2.05 11.61
12/5/2020 6:45:00 AM 5.34 41.612 0.145 7.2 1.91 11.62
12/5/2020 7:00:00 AM 5.34 41.612 0.145 7.2 1.99 11.61
12/5/2020 7:15:00 AM 5.34 41.612 0.145 7.2 2.01 11.61
12/5/2020 7:30:00 AM 5.34 41.612 0.145 7.21 1.97 11.62
12/5/2020 7:45:00 AM 5.34 41.612 0.145 7.21 2.2 11.64
12/5/2020 8:00:00 AM 5.34 41.612 0.145 7.22 2.02 11.7
12/5/2020 8:15:00 AM 5.35 41.63 0.145 7.23 1.9 11.78
12/5/2020 8:30:00 AM 5.35 41.63 0.145 7.24 2.11 11.83
12/5/2020 8:45:00 AM 5.36 41.648 0.145 7.26 1.96 11.96
12/5/2020 9:00:00 AM 5.37 41.666 0.145 7.26 1.93 12.02
12/5/2020 9:15:00 AM 5.38 41.684 0.145 7.29 1.87 12.07
12/5/2020 9:30:00 AM 5.38 41.684 0.145 7.3 1.87 12.08
12/5/2020 9:45:00 AM 5.38 41.684 0.145 7.29 1.94 12.08
12/5/2020 10:00:00 AM 5.38 41.684 0.145 7.29 1.88 12.08
12/5/2020 10:15:00 AM 5.39 41.702 0.145 7.31 1.84 12.13
12/5/2020 10:30:00 AM 5.41 41.738 0.145 7.32 1.82 12.24
12/5/2020 10:45:00 AM 5.45 41.81 0.145 7.34 1.89 12.37
12/5/2020 11:00:00 AM 5.48 41.864 0.145 7.37 1.96 12.48
12/5/2020 11:15:00 AM 5.52 41.936 0.145 7.4 1.91 12.61
12/5/2020 11:30:00 AM 5.56 42.008 0.145 7.43 1.79 12.72
12/5/2020 11:45:00 AM 5.58 42.044 0.145 7.45 1.89 12.72
12/5/2020 12:00:00 PM 5.58 42.044 0.145 7.44 1.83 12.65
12/5/2020 12:15:00 PM 5.58 42.044 0.145 7.45 1.92 12.65
12/5/2020 12:30:00 PM 5.59 42.062 0.145 7.46 1.81 12.68
12/5/2020 12:45:00 PM 5.61 42.098 0.145 7.46 1.83 12.71
12/5/2020 1:00:00 PM 5.64 42.152 0.145 7.48 1.76 12.73
12/5/2020 1:15:00 PM 5.67 42.206 0.145 7.49 1.81 12.79
12/5/2020 1:30:00 PM 5.69 42.242 0.145 7.51 1.82 12.85
12/5/2020 1:45:00 PM 5.71 42.278 0.145 7.53 1.83 12.87
12/5/2020 2:00:00 PM 5.73 42.314 0.145 7.55 1.85 12.88
12/5/2020 2:15:00 PM 5.73 42.314 0.144 7.55 1.84 12.88
12/5/2020 2:30:00 PM 5.73 42.314 0.144 7.56 1.77 12.87
12/5/2020 2:45:00 PM 5.72 42.296 0.145 7.55 1.83 12.79
12/5/2020 3:00:00 PM 5.7 42.26 0.145 7.53 1.83 12.73
12/5/2020 3:15:00 PM 5.67 42.206 0.145 7.52 2.28 12.7
12/5/2020 3:30:00 PM 5.64 42.152 0.145 7.5 3.16 12.61
12/5/2020 3:45:00 PM 5.59 42.062 0.145 7.46 2.16 12.49
12/5/2020 4:00:00 PM 5.55 41.99 0.145 7.43 2.2 12.4
12/5/2020 4:15:00 PM 5.51 41.918 0.145 7.42 4.26 12.32
12/5/2020 4:30:00 PM 5.46 41.828 0.146 7.36 1.89 12.19
12/5/2020 4:45:00 PM 5.43 41.774 0.146 7.35 2 12.1
12/5/2020 5:00:00 PM 5.4 41.72 0.146 7.33 1.85 12.01
12/5/2020 5:15:00 PM 5.37 41.666 0.146 7.31 1.89 11.94
12/5/2020 5:30:00 PM 5.33 41.594 0.146 7.29 1.9 11.87
12/5/2020 5:45:00 PM 5.3 41.54 0.146 7.27 1.88 11.82
12/5/2020 6:00:00 PM 5.27 41.486 0.146 7.26 1.83 11.79
12/5/2020 6:15:00 PM 5.24 41.432 0.146 7.25 1.84 11.77
12/5/2020 6:30:00 PM 5.21 41.378 0.146 7.24 1.81 11.77
12/5/2020 6:45:00 PM 5.18 41.324 0.147 7.24 1.8 11.75
12/5/2020 7:00:00 PM 5.16 41.288 0.147 7.23 1.92 11.75
12/5/2020 7:15:00 PM 5.14 41.252 0.147 7.24 1.86 11.76
12/5/2020 7:30:00 PM 5.11 41.198 0.147 7.2 1.93 11.76
12/5/2020 7:45:00 PM 5.08 41.144 0.147 7.23 1.83 11.75
12/5/2020 8:00:00 PM 5.06 41.108 0.147 7.23 1.92 11.76
12/5/2020 8:15:00 PM 5.03 41.054 0.147 7.23 1.8 11.76
12/5/2020 8:30:00 PM 5.02 41.036 0.147 7.22 1.94 11.77
12/5/2020 8:45:00 PM 5.01 41.018 0.147 7.22 1.87 11.76
12/5/2020 9:00:00 PM 4.99 40.982 0.147 7.22 1.93 11.78
12/5/2020 9:15:00 PM 4.97 40.946 0.147 7.22 1.88 11.78
12/5/2020 9:30:00 PM 4.95 40.91 0.147 7.21 1.82 11.78
12/5/2020 9:45:00 PM 4.94 40.892 0.147 7.22 1.87 11.78
12/5/2020 10:00:00 PM 4.91 40.838 0.147 7.22 2.01 11.78
12/5/2020 10:15:00 PM 4.88 40.784 0.147 7.22 1.96 11.78
12/5/2020 10:30:00 PM 4.87 40.766 0.147 7.22 1.89 11.78
12/5/2020 10:45:00 PM 4.85 40.73 0.147 7.22 1.94 11.8
12/5/2020 11:00:00 PM 4.84 40.712 0.147 7.22 1.9 11.8
12/5/2020 11:15:00 PM 4.82 40.676 0.147 7.22 1.86 11.81
12/5/2020 11:30:00 PM 4.8 40.64 0.147 7.22 1.87 11.79
12/5/2020 11:45:00 PM 4.78 40.604 0.147 7.21 1.88 11.82
12/6/2020 12:00:00 AM 4.77 40.586 0.147 7.22 2.01 11.82
12/6/2020 12:15:00 AM 4.75 40.55 0.147 7.21 1.86 11.83
12/6/2020 12:30:00 AM 4.73 40.514 0.147 7.22 1.87 11.83
12/6/2020 12:45:00 AM 4.71 40.478 0.147 7.22 1.9 11.83
12/6/2020 1:00:00 AM 4.7 40.46 0.147 7.22 1.84 11.84
12/6/2020 1:15:00 AM 4.67 40.406 0.147 7.22 1.84 11.84
12/6/2020 1:30:00 AM 4.65 40.37 0.148 7.22 1.91 11.85
12/6/2020 1:45:00 AM 4.63 40.334 0.148 7.22 1.85 11.86
12/6/2020 2:00:00 AM 4.59 40.262 0.148 7.22 1.84 11.87
12/6/2020 2:15:00 AM 4.56 40.208 0.148 7.22 1.82 11.87
12/6/2020 2:30:00 AM 4.52 40.136 0.148 7.22 1.83 11.89
12/6/2020 2:45:00 AM 4.5 40.1 0.148 7.22 1.87 11.89
12/6/2020 3:00:00 AM 4.48 40.064 0.148 7.21 1.89 11.91
12/6/2020 3:15:00 AM 4.47 40.046 0.148 7.21 2 11.91
12/6/2020 3:30:00 AM 4.45 40.01 0.148 7.21 2.01 11.92
12/6/2020 3:45:00 AM 4.41 39.938 0.148 7.22 1.97 11.93
12/6/2020 4:00:00 AM 4.38 39.884 0.148 7.22 1.86 11.95
12/6/2020 4:15:00 AM 4.36 39.848 0.148 7.21 1.84 11.95
12/6/2020 4:30:00 AM 4.32 39.776 0.148 7.22 1.89 11.95
12/6/2020 4:45:00 AM 4.28 39.704 0.148 7.22 1.88 11.97
12/6/2020 5:00:00 AM 4.25 39.65 0.148 7.21 1.89 11.98
12/6/2020 5:15:00 AM 4.22 39.596 0.148 7.21 1.8 11.99
12/6/2020 5:30:00 AM 4.19 39.542 0.148 7.22 1.87 12.01
12/6/2020 5:45:00 AM 4.17 39.506 0.148 7.21 1.88 12.02
12/6/2020 6:00:00 AM 4.13 39.434 0.148 7.21 1.81 12.03
12/6/2020 6:15:00 AM 4.1 39.38 0.148 7.22 1.85 12.03
12/6/2020 6:30:00 AM 4.07 39.326 0.148 7.22 1.93 12.04
12/6/2020 6:45:00 AM 4.04 39.272 0.148 7.21 1.93 12.05
12/6/2020 7:00:00 AM 4.01 39.218 0.148 7.21 1.98 12.07
12/6/2020 7:15:00 AM 3.97 39.146 0.148 7.21 1.82 12.09
12/6/2020 7:30:00 AM 3.95 39.11 0.148 7.22 1.83 12.1
12/6/2020 7:45:00 AM 3.93 39.074 0.148 7.22 1.81 12.13
12/6/2020 8:00:00 AM 3.92 39.056 0.148 7.23 1.95 12.17
12/6/2020 8:15:00 AM 3.91 39.038 0.148 7.23 1.85 12.24
12/6/2020 8:30:00 AM 3.91 39.038 0.148 7.24 1.87 12.32
12/6/2020 8:45:00 AM 3.92 39.056 0.148 7.26 1.82 12.42
12/6/2020 9:00:00 AM 3.92 39.056 0.148 7.28 1.8 12.6
12/6/2020 9:15:00 AM 3.94 39.092 0.148 7.31 1.85 12.73
12/6/2020 9:30:00 AM 3.96 39.128 0.148 7.33 1.77 12.85
12/6/2020 9:45:00 AM 3.97 39.146 0.148 7.36 1.81 12.97
12/6/2020 10:00:00 AM 3.98 39.164 0.148 7.39 1.75 13.05
12/6/2020 10:15:00 AM 4 39.2 0.147 7.4 1.78 13.11
12/6/2020 10:30:00 AM 4.03 39.254 0.147 7.42 1.85 13.17
12/6/2020 10:45:00 AM 4.05 39.29 0.147 7.44 1.72 13.23
12/6/2020 11:00:00 AM 4.06 39.308 0.147 7.44 1.77 13.25
12/6/2020 11:15:00 AM 4.1 39.38 0.147 7.47 1.75 13.29
12/6/2020 11:30:00 AM 4.12 39.416 0.147 7.46 1.78 13.33
12/6/2020 11:45:00 AM 4.14 39.452 0.147 7.49 1.83 13.35
12/6/2020 12:00:00 PM 4.17 39.506 0.147 7.5 1.76 13.38
12/6/2020 12:15:00 PM 4.2 39.56 0.147 7.52 1.74 13.4
12/6/2020 12:30:00 PM 4.22 39.596 0.147 7.53 1.9 13.4
12/6/2020 12:45:00 PM 4.24 39.632 0.147 7.53 1.78 13.41
12/6/2020 1:00:00 PM 4.26 39.668 0.147 7.55 1.74 13.41
12/6/2020 1:15:00 PM 4.28 39.704 0.147 7.55 1.66 13.4
12/6/2020 1:30:00 PM 4.28 39.704 0.147 7.55 1.79 13.39
12/6/2020 1:45:00 PM 4.29 39.722 0.147 7.56 1.72 13.39
12/6/2020 2:00:00 PM 4.31 39.758 0.147 7.56 1.75 13.4
12/6/2020 2:15:00 PM 4.34 39.812 0.147 7.57 1.79 13.42
12/6/2020 2:30:00 PM 4.36 39.848 0.147 7.58 1.68 13.43
12/6/2020 2:45:00 PM 4.39 39.902 0.147 7.58 1.73 13.42
12/6/2020 3:00:00 PM 4.4 39.92 0.147 7.57 1.76 13.37
12/6/2020 3:15:00 PM 4.4 39.92 0.147 7.57 1.76 13.34
12/6/2020 3:30:00 PM 4.4 39.92 0.147 7.56 1.78 13.3
12/6/2020 3:45:00 PM 4.39 39.902 0.147 7.55 2.02 13.26
12/6/2020 4:00:00 PM 4.36 39.848 0.147 7.53 1.97 13.17
12/6/2020 4:15:00 PM 4.35 39.83 0.147 7.49 1.9 13.08
12/6/2020 4:30:00 PM 4.32 39.776 0.147 7.48 1.86 12.96
12/6/2020 4:45:00 PM 4.27 39.686 0.148 7.44 1.98 12.83
12/6/2020 5:00:00 PM 4.23 39.614 0.148 7.4 2.09 12.7
12/6/2020 5:15:00 PM 4.17 39.506 0.148 7.37 2.2 12.59
12/6/2020 5:30:00 PM 4.1 39.38 0.148 7.35 1.95 12.49
12/6/2020 5:45:00 PM 4.05 39.29 0.148 7.32 1.89 12.41
12/6/2020 6:00:00 PM 4.01 39.218 0.149 7.29 1.98 12.35
12/6/2020 6:15:00 PM 3.98 39.164 0.149 7.28 1.85 12.3
12/6/2020 6:30:00 PM 3.96 39.128 0.149 7.27 1.86 12.27
12/6/2020 6:45:00 PM 3.94 39.092 0.149 7.23 1.77 12.25
12/6/2020 7:00:00 PM 3.92 39.056 0.149 7.25 1.83 12.24
12/6/2020 7:15:00 PM 3.9 39.02 0.149 7.25 1.82 12.22
12/6/2020 7:30:00 PM 3.86 38.948 0.149 7.24 1.77 12.22
12/6/2020 7:45:00 PM 3.83 38.894 0.149 7.24 1.77 12.22
12/6/2020 8:00:00 PM 3.8 38.84 0.149 7.23 1.75 12.23
12/6/2020 8:15:00 PM 3.76 38.768 0.149 7.23 1.72 12.23
12/6/2020 8:30:00 PM 3.74 38.732 0.149 7.23 1.79 12.23
12/6/2020 8:45:00 PM 3.72 38.696 0.149 7.23 1.79 12.22
12/6/2020 9:00:00 PM 3.7 38.66 0.149 7.21 1.79 12.23
12/6/2020 9:15:00 PM 3.68 38.624 0.149 7.22 1.78 12.24
12/6/2020 9:30:00 PM 3.67 38.606 0.149 7.22 1.78 12.26
12/6/2020 9:45:00 PM 3.65 38.57 0.149 7.21 1.78 12.26
12/6/2020 10:00:00 PM 3.64 38.552 0.15 7.22 1.78 12.27
12/6/2020 10:15:00 PM 3.63 38.534 0.15 7.22 1.86 12.25
12/6/2020 10:30:00 PM 3.62 38.516 0.15 7.23 1.79 12.27
12/6/2020 10:45:00 PM 3.6 38.48 0.15 7.22 1.81 12.27
12/6/2020 11:00:00 PM 3.6 38.48 0.15 7.22 1.79 12.26
12/6/2020 11:15:00 PM 3.59 38.462 0.15 7.22 1.84 12.25
12/6/2020 11:30:00 PM 3.59 38.462 0.15 7.22 1.78 12.26
12/6/2020 11:45:00 PM 3.59 38.462 0.15 7.22 1.85 12.26
12/7/2020 12:00:00 AM 3.58 38.444 0.15 7.21 1.85 12.25
12/7/2020 12:15:00 AM 3.57 38.426 0.15 7.22 1.9 12.25
12/7/2020 12:30:00 AM 3.57 38.426 0.15 7.22 2.02 12.27
12/7/2020 12:45:00 AM 3.57 38.426 0.15 7.22 2 12.26
12/7/2020 1:00:00 AM 3.57 38.426 0.15 7.21 2.02 12.26
12/7/2020 1:15:00 AM 3.57 38.426 0.15 7.22 1.92 12.25
12/7/2020 1:30:00 AM 3.56 38.408 0.15 7.22 1.9 12.25
12/7/2020 1:45:00 AM 3.56 38.408 0.15 7.21 1.89 12.25
12/7/2020 2:00:00 AM 3.55 38.39 0.15 7.22 1.87 12.26
12/7/2020 2:15:00 AM 3.54 38.372 0.15 7.22 1.83 12.27
12/7/2020 2:30:00 AM 3.52 38.336 0.15 7.21 1.85 12.25
12/7/2020 2:45:00 AM 3.51 38.318 0.15 7.21 1.83 12.25
12/7/2020 3:00:00 AM 3.51 38.318 0.15 7.22 1.84 12.26
12/7/2020 3:15:00 AM 3.5 38.3 0.15 7.22 1.8 12.25
12/7/2020 3:30:00 AM 3.49 38.282 0.151 7.22 1.93 12.27
12/7/2020 3:45:00 AM 3.48 38.264 0.151 7.22 1.76 12.27
12/7/2020 4:00:00 AM 3.48 38.264 0.151 7.22 1.77 12.27
12/7/2020 4:15:00 AM 3.47 38.246 0.151 7.21 1.77 12.27
12/7/2020 4:30:00 AM 3.45 38.21 0.151 7.21 1.8 12.27
12/7/2020 4:45:00 AM 3.44 38.192 0.151 7.21 1.8 12.29
12/7/2020 5:00:00 AM 3.43 38.174 0.151 7.21 1.76 12.27
12/7/2020 5:15:00 AM 3.42 38.156 0.151 7.22 1.77 12.28
12/7/2020 5:30:00 AM 3.41 38.138 0.151 7.21 1.76 12.28
12/7/2020 5:45:00 AM 3.39 38.102 0.151 7.2 1.76 12.28
12/7/2020 6:00:00 AM 3.38 38.084 0.151 7.22 1.79 12.29
12/7/2020 6:15:00 AM 3.35 38.03 0.151 7.21 1.8 12.3
12/7/2020 6:30:00 AM 3.33 37.994 0.151 7.21 1.96 12.3
12/7/2020 6:45:00 AM 3.32 37.976 0.151 7.22 1.76 12.3
12/7/2020 7:00:00 AM 3.3 37.94 0.151 7.21 1.74 12.31
12/7/2020 7:15:00 AM 3.28 37.904 0.151 7.21 1.73 12.31
12/7/2020 7:30:00 AM 3.27 37.886 0.151 7.21 1.85 12.32
12/7/2020 7:45:00 AM 3.27 37.886 0.151 7.21 8.26 12.35
12/7/2020 8:00:00 AM 3.27 37.886 0.151 7.22 1.73 12.41
12/7/2020 8:15:00 AM 3.27 37.886 0.151 7.23 2.79 12.49
12/7/2020 8:30:00 AM 3.28 37.904 0.151 7.25 2.7 12.64
12/7/2020 8:45:00 AM 3.29 37.922 0.151 7.27 1.73 12.79
12/7/2020 9:00:00 AM 3.31 37.958 0.151 7.29 1.74 12.94
12/7/2020 9:15:00 AM 3.35 38.03 0.151 7.31 1.7 13.08
12/7/2020 9:30:00 AM 3.39 38.102 0.151 7.35 1.69 13.21
12/7/2020 9:45:00 AM 3.44 38.192 0.15 7.37 1.75 13.33
12/7/2020 10:00:00 AM 3.49 38.282 0.15 7.39 1.72 13.42
12/7/2020 10:15:00 AM 3.56 38.408 0.15 7.42 1.78 13.5
12/7/2020 10:30:00 AM 3.64 38.552 0.15 7.44 1.73 13.52
12/7/2020 10:45:00 AM 3.71 38.678 0.15 7.46 1.71 13.57
12/7/2020 11:00:00 AM 3.77 38.786 0.15 7.48 1.67 13.58
12/7/2020 11:15:00 AM 3.84 38.912 0.15 7.49 1.69 13.6
12/7/2020 11:30:00 AM 3.9 39.02 0.15 7.51 1.68 13.58
12/7/2020 11:45:00 AM 3.91 39.038 0.15 7.51 1.69 13.56
12/7/2020 12:00:00 PM 3.92 39.056 0.15 7.51 1.65 13.53
12/7/2020 12:15:00 PM 3.94 39.092 0.15 7.51 1.67 13.53
12/7/2020 12:30:00 PM 3.97 39.146 0.15 7.53 1.75 13.55
12/7/2020 12:45:00 PM 4.01 39.218 0.15 7.53 1.61 13.54
12/7/2020 1:00:00 PM 4.04 39.272 0.15 7.54 1.66 13.53
12/7/2020 1:15:00 PM 4.07 39.326 0.15 7.54 1.68 13.53
12/7/2020 1:30:00 PM 4.12 39.416 0.15 7.55 1.69 13.55
12/7/2020 1:45:00 PM 4.17 39.506 0.15 7.56 1.62 13.54
12/7/2020 2:00:00 PM 4.18 39.524 0.149 7.55 1.7 13.51
12/7/2020 2:15:00 PM 4.21 39.578 0.15 7.56 1.68 13.49
12/7/2020 2:30:00 PM 4.21 39.578 0.15 7.54 1.69 13.47
12/7/2020 2:45:00 PM 4.2 39.56 0.15 7.55 1.67 13.41
12/7/2020 3:00:00 PM 4.19 39.542 0.15 7.54 1.62 13.36
12/7/2020 3:15:00 PM 4.18 39.524 0.15 7.52 1.66 13.3
12/7/2020 3:30:00 PM 4.16 39.488 0.15 7.51 1.62 13.25
12/7/2020 3:45:00 PM 4.14 39.452 0.15 7.5 1.73 13.17
12/7/2020 4:00:00 PM 4.1 39.38 0.15 7.45 1.8 12.97
12/7/2020 4:15:00 PM 4.07 39.326 0.15 7.44 1.88 12.95
12/7/2020 4:30:00 PM 4.03 39.254 0.151 7.41 1.65 12.86
12/7/2020 4:45:00 PM 3.98 39.164 0.151 7.39 1.66 12.74
12/7/2020 5:00:00 PM 3.94 39.092 0.151 7.36 1.73 12.64
12/7/2020 5:15:00 PM 3.89 39.002 0.151 7.34 1.94 12.55
12/7/2020 5:30:00 PM 3.86 38.948 0.151 7.31 1.67 12.47
12/7/2020 5:45:00 PM 3.82 38.876 0.152 7.3 1.65 12.41
12/7/2020 6:00:00 PM 3.79 38.822 0.152 7.27 1.7 12.34
12/7/2020 6:15:00 PM 3.75 38.75 0.152 7.26 1.61 12.31
12/7/2020 6:30:00 PM 3.72 38.696 0.152 7.26 1.7 12.3
12/7/2020 6:45:00 PM 3.69 38.642 0.152 7.25 1.77 12.27
12/7/2020 7:00:00 PM 3.67 38.606 0.152 7.24 1.67 12.25
12/7/2020 7:15:00 PM 3.64 38.552 0.152 7.23 1.78 12.26
12/7/2020 7:30:00 PM 3.6 38.48 0.152 7.24 1.61 12.25
12/7/2020 7:45:00 PM 3.57 38.426 0.152 7.22 1.71 12.26
12/7/2020 8:00:00 PM 3.55 38.39 0.152 7.22 1.68 12.26
12/7/2020 8:15:00 PM 3.53 38.354 0.153 7.23 1.73 12.26
12/7/2020 8:30:00 PM 3.5 38.3 0.153 7.22 1.77 12.27
12/7/2020 8:45:00 PM 3.48 38.264 0.153 7.22 1.81 12.27
12/7/2020 9:00:00 PM 3.45 38.21 0.153 7.21 2.46 12.28
12/7/2020 9:15:00 PM 3.43 38.174 0.153 7.22 1.92 12.28
12/7/2020 9:30:00 PM 3.41 38.138 0.153 7.22 1.79 12.28
12/7/2020 9:45:00 PM 3.4 38.12 0.153 7.22 1.65 12.29
12/7/2020 10:00:00 PM 3.39 38.102 0.153 7.21 1.67 12.29
12/7/2020 10:15:00 PM 3.37 38.066 0.153 7.21 1.6 12.3
12/7/2020 10:30:00 PM 3.36 38.048 0.153 7.22 1.68 12.3
12/7/2020 10:45:00 PM 3.35 38.03 0.153 7.21 1.69 12.29
12/7/2020 11:00:00 PM 3.34 38.012 0.153 7.21 1.67 12.29
12/7/2020 11:15:00 PM 3.33 37.994 0.153 7.21 1.69 12.3
12/7/2020 11:30:00 PM 3.31 37.958 0.153 7.21 1.68 12.31
12/7/2020 11:45:00 PM 3.29 37.922 0.153 7.21 1.66 12.3
12/8/2020 12:00:00 AM 3.27 37.886 0.153 7.21 1.62 12.31
12/8/2020 12:15:00 AM 3.26 37.868 0.153 7.21 1.67 12.31
12/8/2020 12:30:00 AM 3.24 37.832 0.153 7.21 1.74 12.31
12/8/2020 12:45:00 AM 3.23 37.814 0.153 7.21 1.64 12.32
12/8/2020 1:00:00 AM 3.22 37.796 0.153 7.21 1.7 12.32
12/8/2020 1:15:00 AM 3.21 37.778 0.153 7.21 1.69 12.32
12/8/2020 1:30:00 AM 3.21 37.778 0.153 7.21 1.71 12.32
12/8/2020 1:45:00 AM 3.21 37.778 0.153 7.21 1.7 12.33
12/8/2020 2:00:00 AM 3.2 37.76 0.153 7.21 1.74 12.31
12/8/2020 2:15:00 AM 3.19 37.742 0.153 7.21 1.75 12.32
12/8/2020 2:30:00 AM 3.19 37.742 0.153 7.21 1.73 12.33
12/8/2020 2:45:00 AM 3.19 37.742 0.153 7.2 1.82 12.32
12/8/2020 3:00:00 AM 3.17 37.706 0.153 7.2 1.72 12.33
12/8/2020 3:15:00 AM 3.16 37.688 0.153 7.21 1.68 12.33
12/8/2020 3:30:00 AM 3.14 37.652 0.153 7.2 1.79 12.34
12/8/2020 3:45:00 AM 3.12 37.616 0.154 7.21 1.63 12.35
12/8/2020 4:00:00 AM 3.11 37.598 0.154 7.21 1.67 12.34
12/8/2020 4:15:00 AM 3.09 37.562 0.154 7.2 1.71 12.36
12/8/2020 4:30:00 AM 3.07 37.526 0.154 7.21 1.62 12.36
12/8/2020 4:45:00 AM 3.07 37.526 0.154 7.2 1.68 12.37
12/8/2020 5:00:00 AM 3.07 37.526 0.154 7.21 1.71 12.37
12/8/2020 5:15:00 AM 3.06 37.508 0.154 7.21 1.72 12.37
12/8/2020 5:30:00 AM 3.06 37.508 0.154 7.21 1.71 12.38
12/8/2020 5:45:00 AM 3.06 37.508 0.154 7.21 1.65 12.38
12/8/2020 6:00:00 AM 3.05 37.49 0.154 7.2 1.64 12.37
12/8/2020 6:15:00 AM 3.04 37.472 0.154 7.21 1.65 12.38
12/8/2020 6:30:00 AM 3.04 37.472 0.154 7.21 1.65 12.38
12/8/2020 6:45:00 AM 3.03 37.454 0.154 7.2 1.68 12.38
12/8/2020 7:00:00 AM 3.02 37.436 0.154 7.21 1.66 12.39
12/8/2020 7:15:00 AM 3.01 37.418 0.154 7.2 1.67 12.39
12/8/2020 7:30:00 AM 3.01 37.418 0.154 7.2 1.7 12.4
12/8/2020 7:45:00 AM 3 37.4 0.154 7.2 1.69 12.4
12/8/2020 8:00:00 AM 2.98 37.364 0.154 7.21 1.66 12.43
12/8/2020 8:15:00 AM 2.97 37.346 0.154 7.21 1.81 12.48
12/8/2020 8:30:00 AM 2.96 37.328 0.155 7.22 1.67 12.55
12/8/2020 8:45:00 AM 2.96 37.328 0.155 7.23 1.76 12.61
12/8/2020 9:00:00 AM 2.96 37.328 0.154 7.25 1.65 12.75
12/8/2020 9:15:00 AM 2.97 37.346 0.154 7.26 1.64 12.89
12/8/2020 9:30:00 AM 2.98 37.364 0.154 7.28 1.64 12.98
12/8/2020 9:45:00 AM 2.97 37.346 0.154 7.3 1.7 13.05
12/8/2020 10:00:00 AM 2.99 37.382 0.154 7.31 1.62 13.15
12/8/2020 10:15:00 AM 3.01 37.418 0.154 7.33 1.7 13.26
12/8/2020 10:30:00 AM 3.03 37.454 0.154 7.35 1.67 13.35
12/8/2020 10:45:00 AM 3.07 37.526 0.154 7.36 1.61 13.44
12/8/2020 11:00:00 AM 3.11 37.598 0.153 7.38 1.68 13.52
12/8/2020 11:15:00 AM 3.16 37.688 0.153 7.4 1.65 13.58
12/8/2020 11:30:00 AM 3.21 37.778 0.153 7.41 1.76 13.6
12/8/2020 11:45:00 AM 3.26 37.868 0.153 7.43 1.66 13.67
12/8/2020 12:00:00 PM 3.34 38.012 0.153 7.44 5.37 13.7
12/8/2020 12:15:00 PM 3.4 38.12 0.153 7.46 1.64 13.74
12/8/2020 12:30:00 PM 3.51 38.318 0.153 7.48 1.64 13.74
12/8/2020 12:45:00 PM 3.65 38.57 0.153 7.51 1.54 13.76
12/8/2020 1:00:00 PM 3.78 38.804 0.153 7.51 1.58 13.73
12/8/2020 1:15:00 PM 3.84 38.912 0.153 7.5 1.58 13.68
12/8/2020 1:30:00 PM 3.94 39.092 0.153 7.52 1.63 13.62
12/8/2020 1:45:00 PM 4.05 39.29 0.152 7.52 1.7 13.57
12/8/2020 2:00:00 PM 4.1 39.38 0.153 7.52 1.56 13.52
12/8/2020 2:15:00 PM 4.12 39.416 0.153 7.52 1.63 13.49
12/8/2020 2:30:00 PM 4.13 39.434 0.153 7.52 1.57 13.46
12/8/2020 2:45:00 PM 4.12 39.416 0.153 7.51 1.57 13.42
12/8/2020 3:00:00 PM 4.1 39.38 0.153 7.51 1.66 13.38
12/8/2020 3:15:00 PM 4.05 39.29 0.153 7.5 1.62 13.34
12/8/2020 3:30:00 PM 3.99 39.182 0.153 7.48 1.58 13.3
12/8/2020 3:45:00 PM 3.93 39.074 0.153 7.47 1.55 13.23
12/8/2020 4:00:00 PM 3.86 38.948 0.153 7.45 1.65 13.19
12/8/2020 4:15:00 PM 3.78 38.804 0.153 7.43 1.57 13.1
12/8/2020 4:30:00 PM 3.71 38.678 0.154 7.41 1.6 13.04
12/8/2020 4:45:00 PM 3.63 38.534 0.154 7.39 1.63 12.96
12/8/2020 5:00:00 PM 3.54 38.372 0.154 7.36 1.79 12.83
12/8/2020 5:15:00 PM 3.45 38.21 0.154 7.32 1.66 12.72
12/8/2020 5:30:00 PM 3.37 38.066 0.154 7.31 1.62 12.71
12/8/2020 5:45:00 PM 3.3 37.94 0.155 7.29 1.59 12.65
12/8/2020 6:00:00 PM 3.23 37.814 0.155 7.27 1.55 12.6
12/8/2020 6:15:00 PM 3.17 37.706 0.155 7.23 1.58 12.56
12/8/2020 6:30:00 PM 3.1 37.58 0.155 7.25 1.56 12.54
12/8/2020 6:45:00 PM 3.05 37.49 0.155 7.23 1.62 12.51
12/8/2020 7:00:00 PM 3.01 37.418 0.155 7.22 1.69 12.5
12/8/2020 7:15:00 PM 2.96 37.328 0.155 7.22 1.57 12.5
12/8/2020 7:30:00 PM 2.93 37.274 0.155 7.22 1.66 12.49
12/8/2020 7:45:00 PM 2.89 37.202 0.155 7.19 1.65 12.5
12/8/2020 8:00:00 PM 2.85 37.13 0.156 7.21 1.61 12.51
12/8/2020 8:15:00 PM 2.8 37.04 0.156 7.2 1.63 12.5
12/8/2020 8:30:00 PM 2.75 36.95 0.156 7.21 1.57 12.53
12/8/2020 8:45:00 PM 2.71 36.878 0.156 7.21 1.67 12.54
12/8/2020 9:00:00 PM 2.67 36.806 0.156 7.2 1.63 12.55
12/8/2020 9:15:00 PM 2.62 36.716 0.156 7.2 1.65 12.57
12/8/2020 9:30:00 PM 2.58 36.644 0.156 7.2 1.59 12.57
12/8/2020 9:45:00 PM 2.56 36.608 0.156 7.2 1.66 12.6
12/8/2020 10:00:00 PM 2.54 36.572 0.156 7.2 1.62 12.6
12/8/2020 10:15:00 PM 2.55 36.59 0.156 7.2 1.58 12.6
12/8/2020 10:30:00 PM 2.55 36.59 0.156 7.2 1.65 12.61
12/8/2020 10:45:00 PM 2.55 36.59 0.156 7.2 1.68 12.61
12/8/2020 11:00:00 PM 2.56 36.608 0.156 7.2 1.62 12.6
12/8/2020 11:15:00 PM 2.57 36.626 0.156 7.2 1.63 12.6
12/8/2020 11:30:00 PM 2.58 36.644 0.156 7.21 1.63 12.6
12/8/2020 11:45:00 PM 2.59 36.662 0.156 7.21 1.68 12.6
12/9/2020 12:00:00 AM 2.6 36.68 0.156 7.2 1.63 12.58
12/9/2020 12:15:00 AM 2.61 36.698 0.156 7.2 1.59 12.59
12/9/2020 12:30:00 AM 2.61 36.698 0.156 7.21 1.65 12.59
12/9/2020 12:45:00 AM 2.62 36.716 0.156 7.21 1.59 12.58
12/9/2020 1:00:00 AM 2.63 36.734 0.156 7.21 1.58 12.57
12/9/2020 1:15:00 AM 2.64 36.752 0.156 7.2 1.64 12.57
12/9/2020 1:30:00 AM 2.64 36.752 0.156 7.21 1.56 12.57
12/9/2020 1:45:00 AM 2.65 36.77 0.156 7.2 1.65 12.56
12/9/2020 2:00:00 AM 2.66 36.788 0.156 7.21 1.68 12.56
12/9/2020 2:15:00 AM 2.67 36.806 0.156 7.2 1.65 12.55
12/9/2020 2:30:00 AM 2.68 36.824 0.156 7.2 1.55 12.54
12/9/2020 2:45:00 AM 2.68 36.824 0.156 7.2 1.74 12.54
12/9/2020 3:00:00 AM 2.7 36.86 0.156 7.2 1.63 12.52
12/9/2020 3:15:00 AM 2.72 36.896 0.157 7.2 1.66 12.52
12/9/2020 3:30:00 AM 2.73 36.914 0.157 7.2 1.65 12.5
12/9/2020 3:45:00 AM 2.74 36.932 0.157 7.2 1.63 12.5
12/9/2020 4:00:00 AM 2.76 36.968 0.157 7.2 1.67 12.49
12/9/2020 4:15:00 AM 2.77 36.986 0.157 7.2 1.66 12.48
12/9/2020 4:30:00 AM 2.78 37.004 0.157 7.2 1.64 12.48
12/9/2020 4:45:00 AM 2.8 37.04 0.157 7.2 1.62 12.48
12/9/2020 5:00:00 AM 2.81 37.058 0.157 7.2 1.64 12.47
12/9/2020 5:15:00 AM 2.82 37.076 0.157 7.19 1.65 12.45
12/9/2020 5:30:00 AM 2.84 37.112 0.157 7.19 1.6 12.45
12/9/2020 5:45:00 AM 2.86 37.148 0.157 7.2 1.65 12.44
12/9/2020 6:00:00 AM 2.87 37.166 0.157 7.2 1.65 12.44
12/9/2020 6:15:00 AM 2.88 37.184 0.157 7.2 1.61 12.42
12/9/2020 6:30:00 AM 2.9 37.22 0.157 7.19 1.76 12.43
12/9/2020 6:45:00 AM 2.91 37.238 0.157 7.2 1.6 12.42
12/9/2020 7:00:00 AM 2.92 37.256 0.157 7.17 1.67 12.42
12/9/2020 7:15:00 AM 2.93 37.274 0.157 7.21 1.64 12.41
12/9/2020 7:30:00 AM 2.92 37.256 0.157 7.2 1.63 12.4
12/9/2020 7:45:00 AM 2.89 37.202 0.157 7.2 1.61 12.41
12/9/2020 8:00:00 AM 2.82 37.076 0.157 7.21 1.67 12.43
12/9/2020 8:15:00 AM 2.78 37.004 0.157 7.2 1.65 12.46
12/9/2020 8:30:00 AM 2.75 36.95 0.157 7.21 1.64 12.5
12/9/2020 8:45:00 AM 2.7 36.86 0.157 7.21 1.63 12.55
12/9/2020 9:00:00 AM 2.66 36.788 0.157 7.22 1.77 12.62
12/9/2020 9:15:00 AM 2.66 36.788 0.157 7.23 2.08 12.74
12/9/2020 9:30:00 AM 2.66 36.788 0.157 7.24 1.72 12.85
12/9/2020 9:45:00 AM 2.66 36.788 0.156 7.25 1.65 12.94
12/9/2020 10:00:00 AM 2.67 36.806 0.156 7.26 1.61 13.08
12/9/2020 10:15:00 AM 2.7 36.86 0.156 7.29 1.62 13.22
12/9/2020 10:30:00 AM 2.73 36.914 0.156 7.32 1.67 13.33
12/9/2020 10:45:00 AM 2.76 36.968 0.155 7.32 1.64 13.41
12/9/2020 11:00:00 AM 2.8 37.04 0.155 7.33 1.65 13.49
12/9/2020 11:15:00 AM 2.83 37.094 0.155 7.36 1.69 13.54
12/9/2020 11:30:00 AM 2.87 37.166 0.155 7.38 1.65 13.61
12/9/2020 11:45:00 AM 2.9 37.22 0.155 7.4 1.75 13.65
12/9/2020 12:00:00 PM 2.94 37.292 0.154 7.42 1.66 13.7
12/9/2020 12:15:00 PM 2.99 37.382 0.154 7.43 1.57 13.69
12/9/2020 12:30:00 PM 3.01 37.418 0.154 7.43 1.57 13.69
12/9/2020 12:45:00 PM 3.05 37.49 0.154 7.44 1.61 13.69
12/9/2020 1:00:00 PM 3.1 37.58 0.154 7.45 1.61 13.7
12/9/2020 1:15:00 PM 3.13 37.634 0.154 7.45 1.58 13.69
12/9/2020 1:30:00 PM 3.16 37.688 0.154 7.46 1.55 13.69
12/9/2020 1:45:00 PM 3.19 37.742 0.154 7.46 1.71 13.67
12/9/2020 2:00:00 PM 3.21 37.778 0.154 7.46 1.66 13.64
12/9/2020 2:15:00 PM 3.23 37.814 0.154 7.46 1.61 13.59
12/9/2020 2:30:00 PM 3.24 37.832 0.154 7.45 1.62 13.53
12/9/2020 2:45:00 PM 3.25 37.85 0.154 7.41 1.6 13.47
12/9/2020 3:00:00 PM 3.26 37.868 0.154 7.43 1.52 13.37
12/9/2020 3:15:00 PM 3.27 37.886 0.154 7.42 1.55 13.28
12/9/2020 3:30:00 PM 3.27 37.886 0.154 7.39 1.65 13.2
12/9/2020 3:45:00 PM 3.28 37.904 0.154 7.38 1.61 13.12
12/9/2020 4:00:00 PM 3.28 37.904 0.155 7.37 1.6 13.04
12/9/2020 4:15:00 PM 3.29 37.922 0.155 7.35 1.58 12.95
12/9/2020 4:30:00 PM 3.29 37.922 0.155 7.33 1.61 12.86
12/9/2020 4:45:00 PM 3.29 37.922 0.155 7.31 1.67 12.79
12/9/2020 5:00:00 PM 3.29 37.922 0.155 7.26 1.6 12.69
12/9/2020 5:15:00 PM 3.3 37.94 0.155 7.28 1.6 12.63
12/9/2020 5:30:00 PM 3.3 37.94 0.155 7.27 1.61 12.58
12/9/2020 5:45:00 PM 3.31 37.958 0.155 7.26 1.63 12.53
12/9/2020 6:00:00 PM 3.31 37.958 0.156 7.25 1.69 12.48
12/9/2020 6:15:00 PM 3.32 37.976 0.156 7.25 1.61 12.45
12/9/2020 6:30:00 PM 3.33 37.994 0.156 7.24 1.53 12.4
12/9/2020 6:45:00 PM 3.34 38.012 0.156 7.22 1.59 12.38
12/9/2020 7:00:00 PM 3.35 38.03 0.156 7.22 1.65 12.36
12/9/2020 7:15:00 PM 3.35 38.03 0.156 7.22 1.6 12.35
12/9/2020 7:30:00 PM 3.37 38.066 0.156 7.22 1.63 12.33
12/9/2020 7:45:00 PM 3.37 38.066 0.156 7.2 1.61 12.32
12/9/2020 8:00:00 PM 3.38 38.084 0.156 7.22 1.55 12.31
12/9/2020 8:15:00 PM 3.39 38.102 0.156 7.21 1.6 12.3
12/9/2020 8:30:00 PM 3.41 38.138 0.156 7.19 1.72 12.29
12/9/2020 8:45:00 PM 3.41 38.138 0.156 7.21 1.6 12.29
12/9/2020 9:00:00 PM 3.42 38.156 0.156 7.21 1.64 12.29
12/9/2020 9:15:00 PM 3.42 38.156 0.156 7.21 1.6 12.28
12/9/2020 9:30:00 PM 3.43 38.174 0.157 7.21 1.66 12.28
12/9/2020 9:45:00 PM 3.44 38.192 0.157 7.21 1.65 12.27
12/9/2020 10:00:00 PM 3.45 38.21 0.157 7.21 1.67 12.27
12/9/2020 10:15:00 PM 3.45 38.21 0.157 7.2 1.6 12.27
12/9/2020 10:30:00 PM 3.45 38.21 0.156 7.2 1.65 12.27
12/9/2020 10:45:00 PM 3.46 38.228 0.156 7.2 1.6 12.28
12/9/2020 11:00:00 PM 3.46 38.228 0.156 7.19 1.66 12.27
12/9/2020 11:15:00 PM 3.47 38.246 0.156 7.21 1.64 12.25
12/9/2020 11:30:00 PM 3.48 38.264 0.156 7.2 1.61 12.25
12/9/2020 11:45:00 PM 3.48 38.264 0.156 7.21 1.56 12.26
12/10/2020 12:00:00 AM 3.48 38.264 0.156 7.21 1.57 12.25
12/10/2020 12:15:00 AM 3.49 38.282 0.156 7.21 1.57 12.25
12/10/2020 12:30:00 AM 3.5 38.3 0.156 7.2 1.65 12.24
12/10/2020 12:45:00 AM 3.5 38.3 0.156 7.2 1.66 12.25
12/10/2020 1:00:00 AM 3.51 38.318 0.156 7.21 1.81 12.25
12/10/2020 1:15:00 AM 3.51 38.318 0.156 7.19 1.6 12.24
12/10/2020 1:30:00 AM 3.52 38.336 0.156 7.2 1.63 12.24
12/10/2020 1:45:00 AM 3.52 38.336 0.156 7.2 1.62 12.23
12/10/2020 2:00:00 AM 3.53 38.354 0.156 7.19 1.56 12.24
12/10/2020 2:15:00 AM 3.54 38.372 0.156 7.2 1.53 12.22
12/10/2020 2:30:00 AM 3.54 38.372 0.156 7.2 1.58 12.23
12/10/2020 2:45:00 AM 3.55 38.39 0.156 7.2 1.57 12.22
12/10/2020 3:00:00 AM 3.56 38.408 0.156 7.19 1.61 12.22
12/10/2020 3:15:00 AM 3.56 38.408 0.156 7.19 1.66 12.23
12/10/2020 3:30:00 AM 3.57 38.426 0.156 7.19 1.54 12.22
12/10/2020 3:45:00 AM 3.58 38.444 0.156 7.19 1.59 12.22
12/10/2020 4:00:00 AM 3.59 38.462 0.156 7.17 1.69 12.23
12/10/2020 4:15:00 AM 3.59 38.462 0.156 7.2 1.58 12.22
12/10/2020 4:30:00 AM 3.6 38.48 0.156 7.19 1.55 12.21
12/10/2020 4:45:00 AM 3.61 38.498 0.156 7.2 1.61 12.2
12/10/2020 5:00:00 AM 3.61 38.498 0.156 7.19 1.72 12.21
12/10/2020 5:15:00 AM 3.62 38.516 0.156 7.19 1.61 12.22
12/10/2020 5:30:00 AM 3.63 38.534 0.156 7.19 1.63 12.21
12/10/2020 5:45:00 AM 3.63 38.534 0.156 7.19 1.63 12.2
12/10/2020 6:00:00 AM 3.64 38.552 0.156 7.18 1.6 12.21
12/10/2020 6:15:00 AM 3.64 38.552 0.156 7.19 1.65 12.21
12/10/2020 6:30:00 AM 3.64 38.552 0.156 7.19 1.56 12.22
12/10/2020 6:45:00 AM 3.65 38.57 0.156 7.19 1.59 12.2
12/10/2020 7:00:00 AM 3.65 38.57 0.156 7.19 1.66 12.2
12/10/2020 7:15:00 AM 3.63 38.534 0.157 7.19 1.6 12.21
12/10/2020 7:30:00 AM 3.62 38.516 0.157 7.19 1.55 12.23
12/10/2020 7:45:00 AM 3.63 38.534 0.157 7.19 1.56 12.26
12/10/2020 8:00:00 AM 3.63 38.534 0.157 7.2 1.59 12.3
12/10/2020 8:15:00 AM 3.63 38.534 0.157 7.21 1.6 12.38
12/10/2020 8:30:00 AM 3.64 38.552 0.156 7.22 1.62 12.49
12/10/2020 8:45:00 AM 3.67 38.606 0.156 7.24 1.73 12.62
12/10/2020 9:00:00 AM 3.7 38.66 0.156 7.24 1.59 12.79
12/10/2020 9:15:00 AM 3.74 38.732 0.156 7.28 1.65 12.92
12/10/2020 9:30:00 AM 3.79 38.822 0.156 7.3 1.59 13.04
12/10/2020 9:45:00 AM 3.84 38.912 0.156 7.32 1.6 13.17
12/10/2020 10:00:00 AM 3.9 39.02 0.156 7.35 1.61 13.3
12/10/2020 10:15:00 AM 3.99 39.182 0.155 7.37 1.56 13.38
12/10/2020 10:30:00 AM 4.07 39.326 0.155 7.4 1.79 13.41
12/10/2020 10:45:00 AM 4.16 39.488 0.155 7.41 1.6 13.52
12/10/2020 11:00:00 AM 4.23 39.614 0.155 7.45 1.56 13.54
12/10/2020 11:15:00 AM 4.31 39.758 0.155 7.46 1.58 13.57
12/10/2020 11:30:00 AM 4.39 39.902 0.155 7.48 1.57 13.57
12/10/2020 11:45:00 AM 4.47 40.046 0.155 7.49 1.62 13.56
12/10/2020 12:00:00 PM 4.51 40.118 0.155 7.5 1.51 13.53
12/10/2020 12:15:00 PM 4.54 40.172 0.155 7.51 1.51 13.52
12/10/2020 12:30:00 PM 4.59 40.262 0.154 7.51 1.53 13.51
12/10/2020 12:45:00 PM 4.63 40.334 0.154 7.52 1.53 13.5
12/10/2020 1:00:00 PM 4.67 40.406 0.154 7.52 1.55 13.49
12/10/2020 1:15:00 PM 4.7 40.46 0.154 7.53 1.54 13.49
12/10/2020 1:30:00 PM 4.73 40.514 0.154 7.54 1.47 13.47
12/10/2020 1:45:00 PM 4.77 40.586 0.154 7.52 1.54 13.47
12/10/2020 2:00:00 PM 4.82 40.676 0.154 7.55 1.5 13.47
12/10/2020 2:15:00 PM 4.86 40.748 0.154 7.56 1.57 13.47
12/10/2020 2:30:00 PM 4.89 40.802 0.154 7.57 1.51 13.46
12/10/2020 2:45:00 PM 4.92 40.856 0.154 7.56 1.62 13.43
12/10/2020 3:00:00 PM 4.94 40.892 0.154 7.57 1.77 13.42
12/10/2020 3:15:00 PM 4.96 40.928 0.154 7.56 1.58 13.39
12/10/2020 3:30:00 PM 4.95 40.91 0.154 7.56 1.54 13.34
12/10/2020 3:45:00 PM 4.95 40.91 0.154 7.55 1.59 13.26
12/10/2020 4:00:00 PM 4.94 40.892 0.154 7.53 1.57 13.2
12/10/2020 4:15:00 PM 4.91 40.838 0.154 7.51 1.56 13.11
12/10/2020 4:30:00 PM 4.87 40.766 0.154 7.49 1.64 12.98
12/10/2020 4:45:00 PM 4.81 40.658 0.154 7.44 1.58 12.85
12/10/2020 5:00:00 PM 4.76 40.568 0.154 7.42 1.67 12.72
12/10/2020 5:15:00 PM 4.67 40.406 0.154 7.39 1.58 12.59
12/10/2020 5:30:00 PM 4.59 40.262 0.155 7.36 1.69 12.47
12/10/2020 5:45:00 PM 4.51 40.118 0.155 7.32 1.67 12.4
12/10/2020 6:00:00 PM 4.43 39.974 0.155 7.31 1.69 12.34
12/10/2020 6:15:00 PM 4.35 39.83 0.155 7.29 1.74 12.28
12/10/2020 6:30:00 PM 4.27 39.686 0.155 7.27 1.7 12.25
12/10/2020 6:45:00 PM 4.19 39.542 0.155 7.26 1.58 12.23
12/10/2020 7:00:00 PM 4.14 39.452 0.155 7.24 1.6 12.23
12/10/2020 7:15:00 PM 4.08 39.344 0.155 7.24 1.63 12.23
12/10/2020 7:30:00 PM 4.03 39.254 0.155 7.22 1.71 12.21
12/10/2020 7:45:00 PM 3.98 39.164 0.156 7.22 1.68 12.21
12/10/2020 8:00:00 PM 3.94 39.092 0.155 7.21 1.61 12.21
12/10/2020 8:15:00 PM 3.9 39.02 0.155 7.22 1.61 12.24
12/10/2020 8:30:00 PM 3.86 38.948 0.155 7.22 1.62 12.25
12/10/2020 8:45:00 PM 3.82 38.876 0.155 7.22 1.68 12.26
12/10/2020 9:00:00 PM 3.77 38.786 0.155 7.22 1.72 12.26
12/10/2020 9:15:00 PM 3.72 38.696 0.155 7.21 1.67 12.28
12/10/2020 9:30:00 PM 3.68 38.624 0.155 7.22 1.75 12.29
12/10/2020 9:45:00 PM 3.62 38.516 0.155 7.2 1.7 12.31
12/10/2020 10:00:00 PM 3.57 38.426 0.155 7.21 1.8 12.33
12/10/2020 10:15:00 PM 3.51 38.318 0.155 7.21 1.74 12.35
12/10/2020 10:30:00 PM 3.46 38.228 0.155 7.21 1.74 12.37
12/10/2020 10:45:00 PM 3.41 38.138 0.155 7.21 1.85 12.39
12/10/2020 11:00:00 PM 3.35 38.03 0.155 7.21 1.79 12.42
12/10/2020 11:15:00 PM 3.3 37.94 0.155 7.21 1.73 12.43
12/10/2020 11:30:00 PM 3.26 37.868 0.155 7.2 1.75 12.45
12/10/2020 11:45:00 PM 3.21 37.778 0.155 7.21 1.73 12.47
12/11/2020 12:00:00 AM 3.17 37.706 0.155 7.21 1.72 12.47
12/11/2020 12:15:00 AM 3.13 37.634 0.155 7.2 1.8 12.5
12/11/2020 12:30:00 AM 3.09 37.562 0.155 7.21 1.78 12.5
12/11/2020 12:45:00 AM 3.05 37.49 0.155 7.21 1.88 12.52
12/11/2020 1:00:00 AM 3.03 37.454 0.155 7.21 1.82 12.53
12/11/2020 1:15:00 AM 3 37.4 0.155 7.19 1.9 12.55
12/11/2020 1:30:00 AM 2.97 37.346 0.155 7.22 1.89 12.56
12/11/2020 1:45:00 AM 2.95 37.31 0.155 7.21 1.89 12.56
12/11/2020 2:00:00 AM 2.93 37.274 0.155 7.22 2.06 12.57
12/11/2020 2:15:00 AM 2.91 37.238 0.155 7.21 2 12.58
12/11/2020 2:30:00 AM 2.89 37.202 0.155 7.21 2.04 12.59
12/11/2020 2:45:00 AM 2.86 37.148 0.155 7.21 1.99 12.59
12/11/2020 3:00:00 AM 2.83 37.094 0.155 7.21 1.96 12.6
12/11/2020 3:15:00 AM 2.8 37.04 0.155 7.22 2.13 12.62
12/11/2020 3:30:00 AM 2.78 37.004 0.155 7.21 2.02 12.62
12/11/2020 3:45:00 AM 2.75 36.95 0.155 7.22 2.03 12.63
12/11/2020 4:00:00 AM 2.72 36.896 0.155 7.2 2.03 12.64
12/11/2020 4:15:00 AM 2.7 36.86 0.155 7.22 2.02 12.65
12/11/2020 4:30:00 AM 2.67 36.806 0.155 7.21 2 12.66
12/11/2020 4:45:00 AM 2.64 36.752 0.155 7.21 2.11 12.67
12/11/2020 5:00:00 AM 2.62 36.716 0.155 7.21 2.05 12.67
12/11/2020 5:15:00 AM 2.6 36.68 0.156 7.21 2.02 12.67
12/11/2020 5:30:00 AM 2.57 36.626 0.156 7.21 1.99 12.69
12/11/2020 5:45:00 AM 2.55 36.59 0.156 7.21 1.98 12.71
12/11/2020 6:00:00 AM 2.53 36.554 0.156 7.21 1.95 12.72
12/11/2020 6:15:00 AM 2.5 36.5 0.156 7.21 1.99 12.73
12/11/2020 6:30:00 AM 2.48 36.464 0.156 7.21 2.01 12.74
12/11/2020 6:45:00 AM 2.46 36.428 0.156 7.21 1.98 12.74
12/11/2020 7:00:00 AM 2.45 36.41 0.156 7.21 1.98 12.74
12/11/2020 7:15:00 AM 2.43 36.374 0.156 7.21 1.89 12.75
12/11/2020 7:30:00 AM 2.41 36.338 0.156 7.21 1.93 12.75
12/11/2020 7:45:00 AM 2.4 36.32 0.156 7.21 1.9 12.81
12/11/2020 8:00:00 AM 2.39 36.302 0.156 7.22 2.04 12.87
12/11/2020 8:15:00 AM 2.4 36.32 0.156 7.23 1.92 13
12/11/2020 8:30:00 AM 2.42 36.356 0.156 7.25 1.87 13.16
12/11/2020 8:45:00 AM 2.46 36.428 0.156 7.27 1.89 13.28
12/11/2020 9:00:00 AM 2.51 36.518 0.155 7.3 1.88 13.42
12/11/2020 9:15:00 AM 2.57 36.626 0.155 7.31 1.83 13.55
12/11/2020 9:30:00 AM 2.65 36.77 0.155 7.34 1.85 13.66
12/11/2020 9:45:00 AM 2.74 36.932 0.155 7.37 1.83 13.74
12/11/2020 10:00:00 AM 2.85 37.13 0.155 7.38 1.8 13.84
12/11/2020 10:15:00 AM 2.97 37.346 0.154 7.41 1.8 13.88
12/11/2020 10:30:00 AM 3.1 37.58 0.154 7.43 1.78 13.91
12/11/2020 10:45:00 AM 3.26 37.868 0.154 7.45 1.82 13.95
12/11/2020 11:00:00 AM 3.4 38.12 0.154 7.43 1.75 13.94
12/11/2020 11:15:00 AM 3.54 38.372 0.154 7.48 1.76 13.94
12/11/2020 11:30:00 AM 3.64 38.552 0.154 7.5 1.86 13.9
12/11/2020 11:45:00 AM 3.79 38.822 0.154 7.51 1.81 13.89
12/11/2020 12:00:00 PM 3.91 39.038 0.153 7.52 1.83 13.85
12/11/2020 12:15:00 PM 4.05 39.29 0.153 7.53 1.81 13.83
12/11/2020 12:30:00 PM 4.18 39.524 0.153 7.54 1.85 13.79
12/11/2020 12:45:00 PM 4.33 39.794 0.153 7.55 1.72 13.76
12/11/2020 1:00:00 PM 4.48 40.064 0.153 7.55 2.08 13.67
12/11/2020 1:15:00 PM 4.6 40.28 0.153 7.55 1.85 13.62
12/11/2020 1:30:00 PM 4.73 40.514 0.153 7.57 1.79 13.6
12/11/2020 1:45:00 PM 4.88 40.784 0.153 7.57 1.71 13.56
12/11/2020 2:00:00 PM 4.96 40.928 0.153 7.56 1.76 13.5
12/11/2020 2:15:00 PM 5.05 41.09 0.153 7.58 1.8 13.44
12/11/2020 2:30:00 PM 5.13 41.234 0.153 7.57 1.78 13.41
12/11/2020 2:45:00 PM 5.21 41.378 0.153 7.55 2.33 13.26
12/11/2020 3:00:00 PM 5.27 41.486 0.153 7.58 1.82 13.32
12/11/2020 3:15:00 PM 5.3 41.54 0.153 7.57 2.45 13.26
12/11/2020 3:30:00 PM 5.31 41.558 0.153 7.55 2.17 13.2
12/11/2020 3:45:00 PM 5.31 41.558 0.153 7.56 2 13.13
12/11/2020 4:00:00 PM 5.28 41.504 0.153 7.54 2.42 13.04
12/11/2020 4:15:00 PM 5.26 41.468 0.153 7.51 2.63 12.94
12/11/2020 4:30:00 PM 5.21 41.378 0.154 7.48 2.52 12.81
12/11/2020 4:45:00 PM 5.15 41.27 0.154 7.43 2.14 12.68
12/11/2020 5:00:00 PM 5.07 41.126 0.154 7.41 2.08 12.54
12/11/2020 5:15:00 PM 4.99 40.982 0.154 7.38 2.16 12.43
12/11/2020 5:30:00 PM 4.92 40.856 0.155 7.35 1.99 12.33
12/11/2020 5:45:00 PM 4.86 40.748 0.155 7.32 2.05 12.24
12/11/2020 6:00:00 PM 4.8 40.64 0.155 7.3 2.01 12.18
12/11/2020 6:15:00 PM 4.73 40.514 0.155 7.28 1.96 12.11
12/11/2020 6:30:00 PM 4.67 40.406 0.155 7.27 1.93 12.09
12/11/2020 6:45:00 PM 4.61 40.298 0.155 7.25 1.97 12.07
12/11/2020 7:00:00 PM 4.55 40.19 0.156 7.24 1.98 12.05
12/11/2020 7:15:00 PM 4.49 40.082 0.156 7.24 2.12 12.05
12/11/2020 7:30:00 PM 4.43 39.974 0.156 7.23 1.93 12.05
12/11/2020 7:45:00 PM 4.38 39.884 0.156 7.21 1.98 12.06
12/11/2020 8:00:00 PM 4.33 39.794 0.156 7.21 1.85 12.07
12/11/2020 8:15:00 PM 4.28 39.704 0.156 7.21 2 12.08
12/11/2020 8:30:00 PM 4.24 39.632 0.156 7.2 1.86 12.09
12/11/2020 8:45:00 PM 4.2 39.56 0.156 7.2 1.83 12.1
12/11/2020 9:00:00 PM 4.16 39.488 0.156 7.19 1.75 12.11
12/11/2020 9:15:00 PM 4.13 39.434 0.156 7.2 1.73 12.11
12/11/2020 9:30:00 PM 4.09 39.362 0.156 7.2 1.8 12.12
12/11/2020 9:45:00 PM 4.07 39.326 0.156 7.2 1.88 12.14
12/11/2020 10:00:00 PM 4.04 39.272 0.156 7.19 1.77 12.14
12/11/2020 10:15:00 PM 4.01 39.218 0.156 7.18 1.75 12.16
12/11/2020 10:30:00 PM 4 39.2 0.156 7.19 1.76 12.16
12/11/2020 10:45:00 PM 3.98 39.164 0.156 7.19 1.76 12.16
12/11/2020 11:00:00 PM 3.96 39.128 0.156 7.2 1.73 12.18
12/11/2020 11:15:00 PM 3.94 39.092 0.156 7.19 1.74 12.18
12/11/2020 11:30:00 PM 3.92 39.056 0.156 7.19 1.85 12.19
12/11/2020 11:45:00 PM 3.9 39.02 0.156 7.19 1.81 12.19
12/12/2020 12:00:00 AM 3.89 39.002 0.156 7.2 1.92 12.19
12/12/2020 12:15:00 AM 3.87 38.966 0.156 7.19 1.83 12.2
12/12/2020 12:30:00 AM 3.85 38.93 0.156 7.18 1.85 12.2
12/12/2020 12:45:00 AM 3.83 38.894 0.156 7.18 1.82 12.21
12/12/2020 1:00:00 AM 3.81 38.858 0.156 7.2 1.82 12.22
12/12/2020 1:15:00 AM 3.78 38.804 0.156 7.19 1.88 12.22
12/12/2020 1:30:00 AM 3.76 38.768 0.156 7.2 1.85 12.23
12/12/2020 1:45:00 AM 3.74 38.732 0.156 7.18 1.89 12.23
12/12/2020 2:00:00 AM 3.72 38.696 0.156 7.19 1.87 12.24
12/12/2020 2:15:00 AM 3.7 38.66 0.156 7.19 2.01 12.24
12/12/2020 2:30:00 AM 3.68 38.624 0.156 7.2 1.91 12.25
12/12/2020 2:45:00 AM 3.66 38.588 0.156 7.19 1.96 12.25
12/12/2020 3:00:00 AM 3.66 38.588 0.156 7.19 1.91 12.26
12/12/2020 3:15:00 AM 3.64 38.552 0.156 7.2 1.88 12.28
12/12/2020 3:30:00 AM 3.63 38.534 0.156 7.2 1.88 12.27
12/12/2020 3:45:00 AM 3.61 38.498 0.156 7.19 1.92 12.28
12/12/2020 4:00:00 AM 3.59 38.462 0.156 7.19 1.89 12.28
12/12/2020 4:15:00 AM 3.56 38.408 0.156 7.2 1.85 12.29
12/12/2020 4:30:00 AM 3.54 38.372 0.156 7.2 1.89 12.29
12/12/2020 4:45:00 AM 3.53 38.354 0.156 7.19 1.89 12.3
12/12/2020 5:00:00 AM 3.51 38.318 0.156 7.19 1.9 12.3
12/12/2020 5:15:00 AM 3.48 38.264 0.156 7.2 1.85 12.32
12/12/2020 5:30:00 AM 3.47 38.246 0.157 7.17 1.87 12.32
12/12/2020 5:45:00 AM 3.45 38.21 0.156 7.2 1.98 12.33
12/12/2020 6:00:00 AM 3.44 38.192 0.157 7.19 1.93 12.33
12/12/2020 6:15:00 AM 3.41 38.138 0.157 7.19 1.8 12.34
12/12/2020 6:30:00 AM 3.39 38.102 0.157 7.19 1.87 12.35
12/12/2020 6:45:00 AM 3.38 38.084 0.157 7.2 1.79 12.36
12/12/2020 7:00:00 AM 3.38 38.084 0.157 7.19 1.84 12.36
12/12/2020 7:15:00 AM 3.37 38.066 0.157 7.19 1.8 12.36
12/12/2020 7:30:00 AM 3.38 38.084 0.157 7.2 1.92 12.36
12/12/2020 7:45:00 AM 3.38 38.084 0.157 7.2 1.86 12.37
12/12/2020 8:00:00 AM 3.4 38.12 0.157 7.19 1.89 12.4
12/12/2020 8:15:00 AM 3.41 38.138 0.157 7.2 1.82 12.4
12/12/2020 8:30:00 AM 3.43 38.174 0.157 7.21 2 12.46
12/12/2020 8:45:00 AM 3.45 38.21 0.156 7.21 6.86 12.54
12/12/2020 9:00:00 AM 3.49 38.282 0.156 7.23 4.16 12.63
12/12/2020 9:15:00 AM 3.53 38.354 0.156 7.25 3.98 12.8
12/12/2020 9:30:00 AM 3.58 38.444 0.156 7.28 1.99 12.96
12/12/2020 9:45:00 AM 3.64 38.552 0.156 7.29 2.54 13.05
12/12/2020 10:00:00 AM 3.72 38.696 0.155 7.34 1.77 13.21
12/12/2020 10:15:00 AM 3.79 38.822 0.155 7.34 1.97 13.31
12/12/2020 10:30:00 AM 3.86 38.948 0.155 7.37 3.16 13.38
12/12/2020 10:45:00 AM 3.94 39.092 0.155 7.4 2.39 13.44
12/12/2020 11:00:00 AM 4 39.2 0.155 7.41 2.4 13.47
12/12/2020 11:15:00 AM 4.05 39.29 0.154 7.42 2.82 13.47
12/12/2020 11:30:00 AM 4.11 39.398 0.154 7.44 2.66 13.47
12/12/2020 11:45:00 AM 4.18 39.524 0.154 7.45 2.43 13.51
12/12/2020 12:00:00 PM 4.23 39.614 0.154 7.46 2.34 13.47
12/12/2020 12:15:00 PM 4.29 39.722 0.154 7.47 1.86 13.49
12/12/2020 12:30:00 PM 4.34 39.812 0.154 7.48 3.47 13.49
12/12/2020 12:45:00 PM 4.4 39.92 0.154 7.49 1.75 13.46
12/12/2020 1:00:00 PM 4.45 40.01 0.154 7.49 2.34 13.45
12/12/2020 1:15:00 PM 4.5 40.1 0.154 7.5 1.84 13.45
12/12/2020 1:30:00 PM 4.57 40.226 0.154 7.51 1.87 13.46
12/12/2020 1:45:00 PM 4.63 40.334 0.154 7.51 1.75 13.44
12/12/2020 2:00:00 PM 4.72 40.496 0.154 7.52 1.83 13.45
12/12/2020 2:15:00 PM 4.8 40.64 0.154 7.53 1.83 13.43
12/12/2020 2:30:00 PM 4.89 40.802 0.154 7.54 1.83 13.43
12/12/2020 2:45:00 PM 4.95 40.91 0.154 7.55 1.82 13.38
12/12/2020 3:00:00 PM 5.01 41.018 0.153 7.55 2.24 13.33
12/12/2020 3:15:00 PM 5.07 41.126 0.153 7.56 2.68 13.29
12/12/2020 3:30:00 PM 5.11 41.198 0.153 7.55 2.01 13.22
12/12/2020 3:45:00 PM 5.14 41.252 0.154 7.53 2.28 13.12
12/12/2020 4:00:00 PM 5.16 41.288 0.154 7.52 2.28 13
12/12/2020 4:15:00 PM 5.18 41.324 0.154 7.48 2.57 12.85
12/12/2020 4:30:00 PM 5.19 41.342 0.154 7.47 2 12.74
12/12/2020 4:45:00 PM 5.19 41.342 0.154 7.44 1.87 12.6
12/12/2020 5:00:00 PM 5.19 41.342 0.154 7.39 1.69 12.47
12/12/2020 5:15:00 PM 5.18 41.324 0.155 7.38 1.66 12.34
12/12/2020 5:30:00 PM 5.17 41.306 0.155 7.35 1.58 12.22
12/12/2020 5:45:00 PM 5.17 41.306 0.155 7.33 1.57 12.12
12/12/2020 6:00:00 PM 5.16 41.288 0.155 7.31 1.58 12.03
12/12/2020 6:15:00 PM 5.14 41.252 0.155 7.28 1.54 11.96
12/12/2020 6:30:00 PM 5.13 41.234 0.155 7.28 1.52 11.91
12/12/2020 6:45:00 PM 5.14 41.252 0.156 7.25 1.54 11.87
12/12/2020 7:00:00 PM 5.15 41.27 0.156 7.25 1.54 11.83
12/12/2020 7:15:00 PM 5.15 41.27 0.156 7.24 1.49 11.81
12/12/2020 7:30:00 PM 5.16 41.288 0.156 7.24 1.54 11.78
12/12/2020 7:45:00 PM 5.16 41.288 0.156 7.24 1.66 11.75
12/12/2020 8:00:00 PM 5.17 41.306 0.156 7.23 1.6 11.75
12/12/2020 8:15:00 PM 5.17 41.306 0.156 7.23 1.49 11.73
12/12/2020 8:30:00 PM 5.18 41.324 0.156 7.22 1.52 11.73
12/12/2020 8:45:00 PM 5.19 41.342 0.156 7.22 1.53 11.71
12/12/2020 9:00:00 PM 5.2 41.36 0.156 7.22 1.55 11.7
12/12/2020 9:15:00 PM 5.21 41.378 0.156 7.22 1.55 11.69
12/12/2020 9:30:00 PM 5.21 41.378 0.156 7.21 1.47 11.68
12/12/2020 9:45:00 PM 5.21 41.378 0.156 7.21 1.48 11.67
12/12/2020 10:00:00 PM 5.22 41.396 0.156 7.19 1.68 11.66
12/12/2020 10:15:00 PM 5.23 41.414 0.156 7.21 1.5 11.66
12/12/2020 10:30:00 PM 5.24 41.432 0.156 7.21 1.47 11.66
12/12/2020 10:45:00 PM 5.24 41.432 0.156 7.2 1.5 11.65
12/12/2020 11:00:00 PM 5.25 41.45 0.156 7.21 1.57 11.64
12/12/2020 11:15:00 PM 5.25 41.45 0.156 7.21 1.53 11.63
12/12/2020 11:30:00 PM 5.24 41.432 0.156 7.2 1.53 11.63
12/12/2020 11:45:00 PM 5.21 41.378 0.156 7.2 1.6 11.63
12/13/2020 12:00:00 AM 5.18 41.324 0.156 7.2 1.6 11.63
12/13/2020 12:15:00 AM 5.15 41.27 0.156 7.2 1.52 11.64
12/13/2020 12:30:00 AM 5.12 41.216 0.156 7.2 1.47 11.64
12/13/2020 12:45:00 AM 5.08 41.144 0.156 7.19 1.53 11.65
12/13/2020 1:00:00 AM 5.06 41.108 0.156 7.19 1.49 11.65
12/13/2020 1:15:00 AM 5.05 41.09 0.156 7.2 1.52 11.67
12/13/2020 1:30:00 AM 5.04 41.072 0.156 7.19 1.48 11.66
12/13/2020 1:45:00 AM 5.03 41.054 0.156 7.18 1.57 11.66
12/13/2020 2:00:00 AM 5.02 41.036 0.156 7.2 1.54 11.68
12/13/2020 2:15:00 AM 5.01 41.018 0.156 7.19 1.55 11.67
12/13/2020 2:30:00 AM 4.99 40.982 0.156 7.19 1.55 11.67
12/13/2020 2:45:00 AM 4.98 40.964 0.156 7.2 1.54 11.66
12/13/2020 3:00:00 AM 4.98 40.964 0.156 7.19 1.57 11.68
12/13/2020 3:15:00 AM 5.01 41.018 0.156 7.2 1.61 11.66
12/13/2020 3:30:00 AM 5.04 41.072 0.156 7.2 1.55 11.66
12/13/2020 3:45:00 AM 5.08 41.144 0.156 7.19 1.52 11.65
12/13/2020 4:00:00 AM 5.12 41.216 0.156 7.2 1.58 11.65
12/13/2020 4:15:00 AM 5.15 41.27 0.156 7.19 1.6 11.63
12/13/2020 4:30:00 AM 5.18 41.324 0.156 7.19 1.56 11.62
12/13/2020 4:45:00 AM 5.2 41.36 0.156 7.19 1.57 11.62
12/13/2020 5:00:00 AM 5.21 41.378 0.156 7.19 1.63 11.61
12/13/2020 5:15:00 AM 5.21 41.378 0.156 7.19 1.61 11.6
12/13/2020 5:30:00 AM 5.18 41.324 0.156 7.2 1.58 11.6
12/13/2020 5:45:00 AM 5.16 41.288 0.156 7.2 1.56 11.6
12/13/2020 6:00:00 AM 5.14 41.252 0.156 7.19 1.54 11.6
12/13/2020 6:15:00 AM 5.11 41.198 0.156 7.19 1.58 11.61
12/13/2020 6:30:00 AM 5.08 41.144 0.156 7.19 1.66 11.62
12/13/2020 6:45:00 AM 5.06 41.108 0.156 7.19 1.59 11.62
12/13/2020 7:00:00 AM 5.04 41.072 0.156 7.19 1.57 11.61
12/13/2020 7:15:00 AM 5.03 41.054 0.156 7.17 1.72 11.65
12/13/2020 7:30:00 AM 5.03 41.054 0.156 7.2 1.56 11.63
12/13/2020 7:45:00 AM 5.02 41.036 0.156 7.19 1.6 11.65
12/13/2020 8:00:00 AM 5 41 0.156 7.2 1.6 11.73
12/13/2020 8:15:00 AM 5.01 41.018 0.156 7.2 1.64 11.79
12/13/2020 8:30:00 AM 5.04 41.072 0.156 7.19 1.59 11.92
12/13/2020 8:45:00 AM 5.06 41.108 0.156 7.24 1.53 12.03
12/13/2020 9:00:00 AM 5.09 41.162 0.156 7.27 2.28 12.19
12/13/2020 9:15:00 AM 5.13 41.234 0.156 7.29 1.59 12.29
12/13/2020 9:30:00 AM 5.16 41.288 0.156 7.3 1.56 12.31
12/13/2020 9:45:00 AM 5.2 41.36 0.156 7.3 1.54 12.39
12/13/2020 10:00:00 AM 5.24 41.432 0.155 7.33 1.49 12.48
12/13/2020 10:15:00 AM 5.29 41.522 0.155 7.36 1.48 12.62
12/13/2020 10:30:00 AM 5.37 41.666 0.155 7.38 1.56 12.71
12/13/2020 10:45:00 AM 5.46 41.828 0.155 7.4 1.49 12.82
12/13/2020 11:00:00 AM 5.58 42.044 0.155 7.42 3.76 12.89
12/13/2020 11:15:00 AM 5.66 42.188 0.155 7.47 1.62 12.99
12/13/2020 11:30:00 AM 5.75 42.35 0.154 7.48 1.46 13
12/13/2020 11:45:00 AM 5.81 42.458 0.154 7.5 1.48 12.96
12/13/2020 12:00:00 PM 5.85 42.53 0.154 7.51 1.44 12.97
12/13/2020 12:15:00 PM 5.88 42.584 0.154 7.52 1.46 12.94
12/13/2020 12:30:00 PM 5.89 42.602 0.154 7.51 1.42 12.86
12/13/2020 12:45:00 PM 5.88 42.584 0.154 7.5 2.67 12.76
12/13/2020 1:00:00 PM 5.89 42.602 0.154 7.49 1.54 12.72
12/13/2020 1:15:00 PM 5.92 42.656 0.154 7.5 1.45 12.81
12/13/2020 1:30:00 PM 5.98 42.764 0.154 7.52 1.53 12.87
12/13/2020 1:45:00 PM 6.02 42.836 0.154 7.52 1.51 12.84
12/13/2020 2:00:00 PM 6.03 42.854 0.154 7.52 1.43 12.88
12/13/2020 2:15:00 PM 6.07 42.926 0.154 7.53 1.48 12.88
12/13/2020 2:30:00 PM 6.09 42.962 0.154 7.51 1.46 12.87
12/13/2020 2:45:00 PM 6.08 42.944 0.154 7.53 1.46 12.77
12/13/2020 3:00:00 PM 6.07 42.926 0.154 7.51 1.41 12.69
12/13/2020 3:15:00 PM 6.06 42.908 0.154 7.5 1.43 12.64
12/13/2020 3:30:00 PM 6.04 42.872 0.154 7.49 1.41 12.63
12/13/2020 3:45:00 PM 6.01 42.818 0.154 7.48 1.44 12.54
12/13/2020 4:00:00 PM 5.98 42.764 0.154 7.45 1.41 12.46
12/13/2020 4:15:00 PM 5.95 42.71 0.155 7.44 1.54 12.36
12/13/2020 4:30:00 PM 5.91 42.638 0.155 7.41 1.42 12.3
12/13/2020 4:45:00 PM 5.86 42.548 0.155 7.4 1.48 12.22
12/13/2020 5:00:00 PM 5.79 42.422 0.155 7.37 1.43 12.11
12/13/2020 5:15:00 PM 5.72 42.296 0.155 7.34 1.5 12
12/13/2020 5:30:00 PM 5.66 42.188 0.156 7.32 1.54 11.92
12/13/2020 5:45:00 PM 5.6 42.08 0.156 7.3 1.46 11.86
12/13/2020 6:00:00 PM 5.54 41.972 0.156 7.29 1.46 11.81
12/13/2020 6:15:00 PM 5.5 41.9 0.156 7.26 1.47 11.77
12/13/2020 6:30:00 PM 5.47 41.846 0.156 7.26 1.5 11.73
12/13/2020 6:45:00 PM 5.43 41.774 0.156 7.24 1.52 11.72
12/13/2020 7:00:00 PM 5.4 41.72 0.157 7.24 1.46 11.69
12/13/2020 7:15:00 PM 5.38 41.684 0.157 7.23 1.47 11.68
12/13/2020 7:30:00 PM 5.37 41.666 0.157 7.23 1.51 11.67
12/13/2020 7:45:00 PM 5.35 41.63 0.157 7.22 1.44 11.68
12/13/2020 8:00:00 PM 5.33 41.594 0.157 7.21 1.46 11.66
12/13/2020 8:15:00 PM 5.31 41.558 0.157 7.23 1.45 11.67
12/13/2020 8:30:00 PM 5.3 41.54 0.157 7.21 1.49 11.67
12/13/2020 8:45:00 PM 5.29 41.522 0.157 7.21 1.49 11.66
12/13/2020 9:00:00 PM 5.27 41.486 0.157 7.21 1.48 11.66
12/13/2020 9:15:00 PM 5.26 41.468 0.157 7.2 1.47 11.66
12/13/2020 9:30:00 PM 5.24 41.432 0.157 7.21 1.53 11.67
12/13/2020 9:45:00 PM 5.22 41.396 0.157 7.2 1.49 11.67
12/13/2020 10:00:00 PM 5.21 41.378 0.157 7.21 1.56 11.67
12/13/2020 10:15:00 PM 5.19 41.342 0.158 7.22 1.49 11.67
12/13/2020 10:30:00 PM 5.17 41.306 0.158 7.21 1.5 11.67
12/13/2020 10:45:00 PM 5.16 41.288 0.158 7.2 1.57 11.67
12/13/2020 11:00:00 PM 5.14 41.252 0.158 7.21 1.47 11.68
12/13/2020 11:15:00 PM 5.12 41.216 0.158 7.21 1.45 11.69
12/13/2020 11:30:00 PM 5.1 41.18 0.158 7.2 1.44 11.69
12/13/2020 11:45:00 PM 5.08 41.144 0.158 7.2 1.47 11.68
12/14/2020 12:00:00 AM 5.06 41.108 0.158 7.21 1.53 11.69
12/14/2020 12:15:00 AM 5.05 41.09 0.158 7.21 1.52 11.69
12/14/2020 12:30:00 AM 5.04 41.072 0.158 7.2 1.46 11.69
12/14/2020 12:45:00 AM 5.02 41.036 0.158 7.2 1.49 11.68
12/14/2020 1:00:00 AM 5 41 0.158 7.21 1.42 11.7
12/14/2020 1:15:00 AM 4.99 40.982 0.158 7.2 1.47 11.7
12/14/2020 1:30:00 AM 4.97 40.946 0.158 7.21 1.56 11.71
12/14/2020 1:45:00 AM 4.95 40.91 0.158 7.2 1.59 11.71
12/14/2020 2:00:00 AM 4.94 40.892 0.158 7.2 1.44 11.7
12/14/2020 2:15:00 AM 4.93 40.874 0.158 7.2 1.53 11.71
12/14/2020 2:30:00 AM 4.91 40.838 0.158 7.2 1.53 11.71
12/14/2020 2:45:00 AM 4.9 40.82 0.158 7.18 1.53 11.72
12/14/2020 3:00:00 AM 4.89 40.802 0.158 7.2 1.5 11.72
12/14/2020 3:15:00 AM 4.88 40.784 0.158 7.2 1.47 11.7
12/14/2020 3:30:00 AM 4.87 40.766 0.158 7.2 1.48 11.72
12/14/2020 3:45:00 AM 4.85 40.73 0.158 7.2 1.46 11.72
12/14/2020 4:00:00 AM 4.85 40.73 0.158 7.2 1.47 11.72
12/14/2020 4:15:00 AM 4.84 40.712 0.158 7.2 1.46 11.71
12/14/2020 4:30:00 AM 4.83 40.694 0.159 7.2 1.8 11.7
12/14/2020 4:45:00 AM 4.83 40.694 0.159 7.2 1.64 11.72
12/14/2020 5:00:00 AM 4.82 40.676 0.159 7.2 1.6 11.71
12/14/2020 5:15:00 AM 4.81 40.658 0.159 7.2 1.47 11.73
12/14/2020 5:30:00 AM 4.8 40.64 0.159 7.2 1.55 11.72
12/14/2020 5:45:00 AM 4.79 40.622 0.159 7.2 1.45 11.71
12/14/2020 6:00:00 AM 4.78 40.604 0.159 7.2 1.47 11.72
12/14/2020 6:15:00 AM 4.78 40.604 0.159 7.2 1.49 11.72
12/14/2020 6:30:00 AM 4.77 40.586 0.159 7.2 1.43 11.73
12/14/2020 6:45:00 AM 4.77 40.586 0.159 7.2 1.49 11.73
12/14/2020 7:00:00 AM 4.76 40.568 0.159 7.2 1.49 11.73
12/14/2020 7:15:00 AM 4.75 40.55 0.159 7.2 1.5 11.73
12/14/2020 7:30:00 AM 4.73 40.514 0.159 7.2 1.51 11.73
12/14/2020 7:45:00 AM 4.71 40.478 0.159 7.2 1.55 11.74
12/14/2020 8:00:00 AM 4.69 40.442 0.159 7.2 1.57 11.76
12/14/2020 8:15:00 AM 4.69 40.442 0.159 7.2 1.53 11.79
12/14/2020 8:30:00 AM 4.68 40.424 0.159 7.21 1.73 11.83
12/14/2020 8:45:00 AM 4.66 40.388 0.159 7.22 1.52 11.9
12/14/2020 9:00:00 AM 4.63 40.334 0.159 7.24 1.47 11.96
12/14/2020 9:15:00 AM 4.6 40.28 0.159 7.24 1.51 12.05
12/14/2020 9:30:00 AM 4.58 40.244 0.159 7.26 1.47 12.23
12/14/2020 9:45:00 AM 4.58 40.244 0.159 7.26 1.47 12.38
12/14/2020 10:00:00 AM 4.59 40.262 0.159 7.3 1.47 12.46
12/14/2020 10:15:00 AM 4.59 40.262 0.158 7.31 1.44 12.58
12/14/2020 10:30:00 AM 4.61 40.298 0.158 7.33 1.47 12.71
12/14/2020 10:45:00 AM 4.64 40.352 0.158 7.35 1.45 12.84
12/14/2020 11:00:00 AM 4.69 40.442 0.158 7.38 1.4 12.91
12/14/2020 11:15:00 AM 4.71 40.478 0.158 7.4 1.42 12.96
12/14/2020 11:30:00 AM 4.74 40.532 0.157 7.4 1.43 12.96
12/14/2020 11:45:00 AM 4.76 40.568 0.157 7.41 1.49 12.98
12/14/2020 12:00:00 PM 4.78 40.604 0.157 7.42 1.48 12.97
12/14/2020 12:15:00 PM 4.81 40.658 0.157 7.43 1.42 12.98
12/14/2020 12:30:00 PM 4.83 40.694 0.157 7.44 1.44 12.99
12/14/2020 12:45:00 PM 4.85 40.73 0.157 7.44 1.51 12.93
12/14/2020 1:00:00 PM 4.86 40.748 0.157 7.44 1.44 12.89
12/14/2020 1:15:00 PM 4.88 40.784 0.157 7.44 1.43 12.91
12/14/2020 1:30:00 PM 4.91 40.838 0.157 7.46 1.43 12.97
12/14/2020 1:45:00 PM 4.93 40.874 0.157 7.46 1.44 12.99
12/14/2020 2:00:00 PM 4.95 40.91 0.157 7.46 1.4 12.98
12/14/2020 2:15:00 PM 4.96 40.928 0.157 7.47 1.44 12.98
12/14/2020 2:30:00 PM 4.98 40.964 0.157 7.46 2.33 12.97
12/14/2020 2:45:00 PM 4.99 40.982 0.157 7.47 1.49 12.95
12/14/2020 3:00:00 PM 5 41 0.157 7.48 1.49 12.94
12/14/2020 3:15:00 PM 5.01 41.018 0.157 7.48 1.42 12.95
12/14/2020 3:30:00 PM 5.01 41.018 0.157 7.48 1.49 12.94
12/14/2020 3:45:00 PM 5.01 41.018 0.157 7.47 1.47 12.85
12/14/2020 4:00:00 PM 5.01 41.018 0.157 7.46 1.47 12.81
12/14/2020 4:15:00 PM 5 41 0.157 7.45 1.44 12.77
12/14/2020 4:30:00 PM 4.99 40.982 0.157 7.44 1.41 12.68
12/14/2020 4:45:00 PM 4.96 40.928 0.157 7.41 1.48 12.53
12/14/2020 5:00:00 PM 4.92 40.856 0.158 7.37 1.45 12.38
12/14/2020 5:15:00 PM 4.73 40.514 0.157 7.35 1.47 12.26
12/14/2020 5:30:00 PM 4.64 40.352 0.157 7.33 1.57 12.16
12/14/2020 5:45:00 PM 4.59 40.262 0.158 7.31 1.47 12.14
12/14/2020 6:00:00 PM 4.58 40.244 0.158 7.3 1.51 12.08
12/14/2020 6:15:00 PM 4.56 40.208 0.158 7.29 1.44 12.03
12/14/2020 6:30:00 PM 4.53 40.154 0.158 7.24 1.49 11.99
12/14/2020 6:45:00 PM 4.48 40.064 0.158 7.26 1.43 11.97
12/14/2020 7:00:00 PM 4.42 39.956 0.158 7.25 1.45 11.96
12/14/2020 7:15:00 PM 4.38 39.884 0.158 7.24 1.47 11.96
12/14/2020 7:30:00 PM 4.33 39.794 0.158 7.23 1.49 11.96
12/14/2020 7:45:00 PM 4.27 39.686 0.158 7.24 1.52 11.98
12/14/2020 8:00:00 PM 4.25 39.65 0.159 7.23 1.45 11.98
12/14/2020 8:15:00 PM 4.19 39.542 0.159 7.23 1.56 11.99
12/14/2020 8:30:00 PM 4.13 39.434 0.159 7.23 1.51 12
12/14/2020 8:45:00 PM 4.08 39.344 0.159 7.23 1.49 12.02
12/14/2020 9:00:00 PM 4.05 39.29 0.159 7.23 1.5 12.02
12/14/2020 9:15:00 PM 4.02 39.236 0.159 7.23 1.52 12.04
12/14/2020 9:30:00 PM 3.98 39.164 0.159 7.22 1.5 12.05
12/14/2020 9:45:00 PM 3.93 39.074 0.159 7.22 1.54 12.08
12/14/2020 10:00:00 PM 3.87 38.966 0.159 7.22 1.51 12.1
12/14/2020 10:15:00 PM 3.8 38.84 0.159 7.23 1.45 12.11
12/14/2020 10:30:00 PM 3.76 38.768 0.159 7.22 1.51 12.12
12/14/2020 10:45:00 PM 3.71 38.678 0.159 7.2 1.67 12.13
12/14/2020 11:00:00 PM 3.64 38.552 0.159 7.22 1.43 12.17
12/14/2020 11:15:00 PM 3.59 38.462 0.16 7.23 1.47 12.19
12/14/2020 11:30:00 PM 3.54 38.372 0.16 7.21 1.55 12.22
12/14/2020 11:45:00 PM 3.5 38.3 0.16 7.21 1.5 12.22
12/15/2020 12:00:00 AM 3.46 38.228 0.16 7.22 1.53 12.25
12/15/2020 12:15:00 AM 3.42 38.156 0.16 7.21 1.56 12.25
12/15/2020 12:30:00 AM 3.4 38.12 0.16 7.22 1.52 12.27
12/15/2020 12:45:00 AM 3.35 38.03 0.16 7.22 1.66 12.28
12/15/2020 1:00:00 AM 3.31 37.958 0.16 7.22 1.63 12.3
12/15/2020 1:15:00 AM 3.27 37.886 0.16 7.21 1.64 12.32
12/15/2020 1:30:00 AM 3.23 37.814 0.16 7.22 1.63 12.33
12/15/2020 1:45:00 AM 3.19 37.742 0.16 7.22 1.61 12.34
12/15/2020 2:00:00 AM 3.14 37.652 0.16 7.21 1.58 12.36
12/15/2020 2:15:00 AM 3.09 37.562 0.16 7.22 1.66 12.38
12/15/2020 2:30:00 AM 3.04 37.472 0.16 7.22 1.57 12.4
12/15/2020 2:45:00 AM 3.01 37.418 0.16 7.22 1.52 12.42
12/15/2020 3:00:00 AM 2.99 37.382 0.16 7.22 1.5 12.44
12/15/2020 3:15:00 AM 2.96 37.328 0.16 7.22 1.67 12.45
12/15/2020 3:30:00 AM 2.96 37.328 0.16 7.22 1.59 12.45
12/15/2020 3:45:00 AM 2.94 37.292 0.16 7.22 1.55 12.46
12/15/2020 4:00:00 AM 2.92 37.256 0.16 7.21 1.55 12.48
12/15/2020 4:15:00 AM 2.9 37.22 0.16 7.22 1.55 12.47
12/15/2020 4:30:00 AM 2.9 37.22 0.16 7.22 1.54 12.48
12/15/2020 4:45:00 AM 2.91 37.238 0.16 7.21 1.54 12.49
12/15/2020 5:00:00 AM 2.92 37.256 0.16 7.22 1.59 12.49
12/15/2020 5:15:00 AM 2.92 37.256 0.161 7.22 1.54 12.49
12/15/2020 5:30:00 AM 2.92 37.256 0.161 7.22 1.52 12.49
12/15/2020 5:45:00 AM 2.92 37.256 0.161 7.22 1.55 12.5
12/15/2020 6:00:00 AM 2.94 37.292 0.161 7.22 1.47 12.5
12/15/2020 6:15:00 AM 2.94 37.292 0.161 7.22 1.56 12.5
12/15/2020 6:30:00 AM 2.93 37.274 0.161 7.22 1.6 12.49
12/15/2020 6:45:00 AM 2.92 37.256 0.161 7.22 1.57 12.51
12/15/2020 7:00:00 AM 2.91 37.238 0.161 7.22 1.73 12.5
12/15/2020 7:15:00 AM 2.92 37.256 0.161 7.22 1.56 12.51
12/15/2020 7:30:00 AM 2.92 37.256 0.161 7.23 1.59 12.52
12/15/2020 7:45:00 AM 2.92 37.256 0.161 7.22 1.57 12.51
12/15/2020 8:00:00 AM 2.93 37.274 0.161 7.23 1.45 12.54
12/15/2020 8:15:00 AM 2.93 37.274 0.161 7.23 1.48 12.65
12/15/2020 8:30:00 AM 2.94 37.292 0.161 7.24 1.52 12.71
12/15/2020 8:45:00 AM 2.96 37.328 0.161 7.26 1.54 12.84
12/15/2020 9:00:00 AM 2.98 37.364 0.161 7.28 1.46 12.95
12/15/2020 9:15:00 AM 3 37.4 0.161 7.3 1.55 13.04
12/15/2020 9:30:00 AM 3.03 37.454 0.161 7.31 1.51 13.15
12/15/2020 9:45:00 AM 3.06 37.508 0.161 7.33 1.49 13.27
12/15/2020 10:00:00 AM 3.11 37.598 0.161 7.35 1.53 13.42
12/15/2020 10:15:00 AM 3.17 37.706 0.161 7.37 1.53 13.53
12/15/2020 10:30:00 AM 3.2 37.76 0.16 7.39 1.47 13.6
12/15/2020 10:45:00 AM 3.26 37.868 0.16 7.41 1.5 13.68
12/15/2020 11:00:00 AM 3.33 37.994 0.16 7.43 1.49 13.7
12/15/2020 11:15:00 AM 3.4 38.12 0.16 7.43 3.37 13.72
12/15/2020 11:30:00 AM 3.44 38.192 0.16 7.45 1.51 13.71
12/15/2020 11:45:00 AM 3.5 38.3 0.16 7.45 1.45 13.73
12/15/2020 12:00:00 PM 3.58 38.444 0.16 7.48 1.58 13.76
12/15/2020 12:15:00 PM 3.66 38.588 0.16 7.49 1.45 13.77
12/15/2020 12:30:00 PM 3.69 38.642 0.16 7.5 1.42 13.77
12/15/2020 12:45:00 PM 3.71 38.678 0.16 7.5 1.45 13.75
12/15/2020 1:00:00 PM 3.73 38.714 0.16 7.51 1.48 13.76
12/15/2020 1:15:00 PM 3.74 38.732 0.16 7.51 1.45 13.76
12/15/2020 1:30:00 PM 3.78 38.804 0.16 7.52 1.49 13.76
12/15/2020 1:45:00 PM 3.81 38.858 0.16 7.52 1.46 13.75
12/15/2020 2:00:00 PM 3.82 38.876 0.16 7.52 1.51 13.71
12/15/2020 2:15:00 PM 3.81 38.858 0.159 7.52 1.45 13.67
12/15/2020 2:30:00 PM 3.83 38.894 0.159 7.53 1.69 13.72
12/15/2020 2:45:00 PM 3.83 38.894 0.159 7.53 1.49 13.76
12/15/2020 3:00:00 PM 3.82 38.876 0.159 7.53 1.5 13.68
12/15/2020 3:15:00 PM 3.8 38.84 0.159 7.52 1.47 13.7
12/15/2020 3:30:00 PM 3.75 38.75 0.159 7.51 1.5 13.65
12/15/2020 3:45:00 PM 3.7 38.66 0.16 7.51 1.4 13.6
12/15/2020 4:00:00 PM 3.64 38.552 0.16 7.49 1.51 13.53
12/15/2020 4:15:00 PM 3.59 38.462 0.16 7.47 1.46 13.45
12/15/2020 4:30:00 PM 3.55 38.39 0.16 7.44 2 13.36
12/15/2020 4:45:00 PM 3.48 38.264 0.16 7.43 1.45 13.26
12/15/2020 5:00:00 PM 3.42 38.156 0.16 7.4 1.45 13.16
12/15/2020 5:15:00 PM 3.36 38.048 0.161 7.37 1.4 13.07
12/15/2020 5:30:00 PM 3.3 37.94 0.161 7.35 1.54 12.96
12/15/2020 5:45:00 PM 3.26 37.868 0.161 7.33 1.58 12.9
12/15/2020 6:00:00 PM 3.2 37.76 0.161 7.31 1.48 12.84
12/15/2020 6:15:00 PM 3.13 37.634 0.162 7.3 1.52 12.79
12/15/2020 6:30:00 PM 3.08 37.544 0.162 7.28 1.49 12.74
12/15/2020 6:45:00 PM 3.03 37.454 0.162 7.27 1.44 12.72
12/15/2020 7:00:00 PM 2.99 37.382 0.162 7.26 1.51 12.7
12/15/2020 7:15:00 PM 2.94 37.292 0.162 7.26 1.46 12.69
12/15/2020 7:30:00 PM 2.89 37.202 0.162 7.24 1.51 12.68
12/15/2020 7:45:00 PM 2.85 37.13 0.162 7.24 1.46 12.67
12/15/2020 8:00:00 PM 2.8 37.04 0.162 7.24 1.5 12.68
12/15/2020 8:15:00 PM 2.77 36.986 0.162 7.23 1.49 12.66
12/15/2020 8:30:00 PM 2.73 36.914 0.163 7.23 1.49 12.69
12/15/2020 8:45:00 PM 2.69 36.842 0.163 7.23 1.55 12.7
12/15/2020 9:00:00 PM 2.66 36.788 0.163 7.22 1.46 12.7
12/15/2020 9:15:00 PM 2.61 36.698 0.163 7.22 1.5 12.7
12/15/2020 9:30:00 PM 2.58 36.644 0.163 7.23 1.47 12.72
12/15/2020 9:45:00 PM 2.54 36.572 0.163 7.22 1.5 12.73
12/15/2020 10:00:00 PM 2.5 36.5 0.163 7.23 1.48 12.74
12/15/2020 10:15:00 PM 2.48 36.464 0.163 7.21 1.47 12.73
12/15/2020 10:30:00 PM 2.44 36.392 0.163 7.22 1.5 12.77
12/15/2020 10:45:00 PM 2.41 36.338 0.163 7.22 1.48 12.78
12/15/2020 11:00:00 PM 2.39 36.302 0.163 7.21 1.46 12.77
12/15/2020 11:15:00 PM 2.36 36.248 0.164 7.22 1.51 12.8
12/15/2020 11:30:00 PM 2.34 36.212 0.164 7.22 1.47 12.78
12/15/2020 11:45:00 PM 2.31 36.158 0.164 7.22 1.52 12.81
12/16/2020 12:00:00 AM 2.29 36.122 0.164 7.22 1.5 12.8
12/16/2020 12:15:00 AM 2.27 36.086 0.164 7.21 1.5 12.81
12/16/2020 12:30:00 AM 2.25 36.05 0.164 7.22 1.6 12.82
12/16/2020 12:45:00 AM 2.23 36.014 0.164 7.21 1.7 12.84
12/16/2020 1:00:00 AM 2.2 35.96 0.164 7.21 1.44 12.85
12/16/2020 1:15:00 AM 2.18 35.924 0.164 7.21 1.53 12.86
12/16/2020 1:30:00 AM 2.15 35.87 0.164 7.2 1.44 12.86
12/16/2020 1:45:00 AM 2.14 35.852 0.164 7.21 1.51 12.87
12/16/2020 2:00:00 AM 2.11 35.798 0.164 7.21 1.48 12.88
12/16/2020 2:15:00 AM 2.09 35.762 0.164 7.21 1.43 12.88
12/16/2020 2:30:00 AM 2.06 35.708 0.164 7.21 1.53 12.89
12/16/2020 2:45:00 AM 2.03 35.654 0.164 7.21 1.47 12.89
12/16/2020 3:00:00 AM 2 35.6 0.164 7.21 1.52 12.92
12/16/2020 3:15:00 AM 1.97 35.546 0.164 7.21 1.47 12.93
12/16/2020 3:30:00 AM 1.95 35.51 0.164 7.21 1.74 12.94
12/16/2020 3:45:00 AM 1.92 35.456 0.164 7.21 1.51 12.95
12/16/2020 4:00:00 AM 1.91 35.438 0.164 7.2 1.46 12.94
12/16/2020 4:15:00 AM 1.91 35.438 0.164 7.2 1.54 12.93
12/16/2020 4:30:00 AM 1.89 35.402 0.165 7.21 1.54 12.96
12/16/2020 4:45:00 AM 1.87 35.366 0.165 7.21 1.48 12.96
12/16/2020 5:00:00 AM 1.85 35.33 0.165 7.2 1.48 12.97
12/16/2020 5:15:00 AM 1.82 35.276 0.165 7.21 1.51 12.97
12/16/2020 5:30:00 AM 1.8 35.24 0.165 7.19 1.5 12.98
12/16/2020 5:45:00 AM 1.78 35.204 0.165 7.21 1.52 12.98
12/16/2020 6:00:00 AM 1.76 35.168 0.165 7.2 1.56 12.99
12/16/2020 6:15:00 AM 1.75 35.15 0.165 7.2 1.6 13
12/16/2020 6:30:00 AM 1.74 35.132 0.165 7.21 1.55 12.99
12/16/2020 6:45:00 AM 1.74 35.132 0.165 7.2 1.55 13
12/16/2020 7:00:00 AM 1.73 35.114 0.165 7.21 1.58 13
12/16/2020 7:15:00 AM 1.74 35.132 0.165 7.21 1.54 13
12/16/2020 7:30:00 AM 1.74 35.132 0.165 7.21 1.5 13
12/16/2020 7:45:00 AM 1.73 35.114 0.165 7.21 1.55 12.99
12/16/2020 8:00:00 AM 1.73 35.114 0.165 7.21 1.51 13.04
12/16/2020 8:15:00 AM 1.73 35.114 0.166 7.21 1.5 13.08
12/16/2020 8:30:00 AM 1.75 35.15 0.166 7.23 1.47 13.13
12/16/2020 8:45:00 AM 1.75 35.15 0.166 7.23 1.54 13.22
12/16/2020 9:00:00 AM 1.77 35.186 0.166 7.24 1.47 13.32
12/16/2020 9:15:00 AM 1.79 35.222 0.165 7.26 1.41 13.42
12/16/2020 9:30:00 AM 1.8 35.24 0.165 7.26 1.53 13.51
12/16/2020 9:45:00 AM 1.81 35.258 0.165 7.28 1.47 13.61
12/16/2020 10:00:00 AM 1.85 35.33 0.165 7.29 1.47 13.71
12/16/2020 10:15:00 AM 1.9 35.42 0.165 7.3 1.46 13.85
12/16/2020 10:30:00 AM 1.97 35.546 0.165 7.33 1.42 13.93
12/16/2020 10:45:00 AM 2.04 35.672 0.165 7.35 1.52 14.05
12/16/2020 11:00:00 AM 2.09 35.762 0.165 7.35 1.5 14.05
12/16/2020 11:15:00 AM 2.15 35.87 0.165 7.37 1.49 14.08
12/16/2020 11:30:00 AM 2.2 35.96 0.165 7.38 1.52 14.1
12/16/2020 11:45:00 AM 2.24 36.032 0.165 7.38 1.41 14.08
12/16/2020 12:00:00 PM 2.28 36.104 0.165 7.39 1.46 14.05
12/16/2020 12:15:00 PM 2.32 36.176 0.165 7.4 1.42 14
12/16/2020 12:30:00 PM 2.34 36.212 0.165 7.39 1.51 13.95
12/16/2020 12:45:00 PM 2.34 36.212 0.165 7.39 1.41 13.9
12/16/2020 1:00:00 PM 2.35 36.23 0.165 7.39 1.43 13.86
12/16/2020 1:15:00 PM 2.36 36.248 0.165 7.38 1.5 13.84
12/16/2020 1:30:00 PM 2.37 36.266 0.165 7.38 1.48 13.8
12/16/2020 1:45:00 PM 2.36 36.248 0.165 7.38 1.54 13.81
12/16/2020 2:00:00 PM 2.36 36.248 0.165 7.39 1.44 13.79
12/16/2020 2:15:00 PM 2.35 36.23 0.165 7.38 1.47 13.76
12/16/2020 2:30:00 PM 2.33 36.194 0.165 7.37 1.48 13.72
12/16/2020 2:45:00 PM 2.31 36.158 0.165 7.36 1.38 13.67
12/16/2020 3:00:00 PM 2.24 36.032 0.165 7.36 1.4 13.64
12/16/2020 3:15:00 PM 2.16 35.888 0.165 7.36 1.44 13.6
12/16/2020 3:30:00 PM 2.1 35.78 0.165 7.35 1.46 13.55
12/16/2020 3:45:00 PM 2.03 35.654 0.165 7.34 1.5 13.52
12/16/2020 4:00:00 PM 1.96 35.528 0.165 7.33 1.48 13.47
12/16/2020 4:15:00 PM 1.88 35.384 0.165 7.32 1.43 13.44
12/16/2020 4:30:00 PM 1.79 35.222 0.165 7.31 1.52 13.38
12/16/2020 4:45:00 PM 1.7 35.06 0.165 7.29 1.54 13.3
12/16/2020 5:00:00 PM 1.61 34.898 0.165 7.28 1.54 13.29
12/16/2020 5:15:00 PM 1.47 34.646 0.165 7.27 1.47 13.27
12/16/2020 5:30:00 PM 1.33 34.394 0.165 7.25 1.76 13.28
12/16/2020 5:45:00 PM 1.21 34.178 0.165 7.25 1.48 13.23
12/16/2020 6:00:00 PM 1.14 34.052 0.165 7.24 1.48 13.22
12/16/2020 6:15:00 PM 1.07 33.926 0.165 7.23 1.49 13.22
12/16/2020 6:30:00 PM 0.98 33.764 0.165 7.23 1.46 13.2
12/16/2020 6:45:00 PM 0.92 33.656 0.164 7.22 1.49 13.2
12/16/2020 7:00:00 PM 0.88 33.584 0.164 7.21 1.5 13.19
12/16/2020 7:15:00 PM 0.82 33.476 0.164 7.22 1.49 13.24
12/16/2020 7:30:00 PM 0.79 33.422 0.164 7.21 1.45 13.22
12/16/2020 7:45:00 PM 0.71 33.278 0.164 7.21 1.55 13.26
12/16/2020 8:00:00 PM 0.6 33.08 0.163 7.21 1.58 13.23
12/16/2020 8:15:00 PM 0.53 32.954 0.163 7.2 1.53 13.25
12/16/2020 8:30:00 PM 0.43 32.774 0.163 7.19 1.59 13.22
12/16/2020 8:45:00 PM 0.36 32.648 0.164 7.19 1.57 13.25
12/16/2020 9:00:00 PM 0.4 32.72 0.164 7.18 1.53 13.25
12/16/2020 9:15:00 PM 0.44 32.792 0.165 7.18 1.65 13.2
12/16/2020 9:30:00 PM 0.48 32.864 0.165 7.18 1.59 13.19
12/16/2020 9:45:00 PM 0.51 32.918 0.165 7.18 1.6 13.16
12/16/2020 10:00:00 PM 0.54 32.972 0.166 7.18 1.63 13.14
12/16/2020 10:15:00 PM 0.53 32.954 0.166 7.17 1.69 13.11
12/16/2020 10:30:00 PM 0.52 32.936 0.166 7.18 1.62 13.11
12/16/2020 10:45:00 PM 0.51 32.918 0.167 7.18 1.82 13.09
12/16/2020 11:00:00 PM 0.51 32.918 0.167 7.18 1.63 13.09
12/16/2020 11:15:00 PM 0.5 32.9 0.167 7.16 1.71 13.02
12/16/2020 11:30:00 PM 0.42 32.756 0.167 7.17 1.81 13.01
12/16/2020 11:45:00 PM 0.29 32.522 0.167 7.17 1.82 13.04
12/17/2020 12:00:00 AM 0.2 32.36 0.167 7.16 1.88 12.99
12/17/2020 12:15:00 AM 0.1 32.18 0.167 7.15 1.78 12.97
12/17/2020 12:30:00 AM 0.04 32.072 0.167 7.14 1.77 12.94
12/17/2020 12:45:00 AM 0.03 32.054 0.168 7.13 1.72 12.91
12/17/2020 1:00:00 AM 0.04 32.072 0.168 7.13 1.63 12.88
12/17/2020 1:15:00 AM 0.04 32.072 0.168 7.12 1.58 12.81
12/17/2020 1:30:00 AM 0.04 32.072 0.168 7.11 1.54 12.74
12/17/2020 1:45:00 AM 0.05 32.09 0.169 7.11 1.62 12.71
12/17/2020 2:00:00 AM 0.06 32.108 0.169 7.09 1.61 12.66
12/17/2020 2:15:00 AM 0.07 32.126 0.17 7.09 1.56 12.62
12/17/2020 2:30:00 AM 0.07 32.126 0.17 7.08 1.65 12.55
12/17/2020 2:45:00 AM 0.07 32.126 0.17 7.08 1.54 12.48
12/17/2020 3:00:00 AM 0.06 32.108 0.17 7.07 1.54 12.4
12/17/2020 3:15:00 AM 0.06 32.108 0.17 7.06 1.7 12.37
12/17/2020 3:30:00 AM 0.07 32.126 0.17 7.06 1.67 12.3
12/17/2020 3:45:00 AM 0.09 32.162 0.17 7.04 1.58 12.18
12/17/2020 4:00:00 AM 0.14 32.252 0.17 7.03 1.49 12.1
12/17/2020 4:15:00 AM 0.23 32.414 0.171 7.02 1.54 11.98
12/17/2020 4:30:00 AM 0.32 32.576 0.171 7.01 1.52 11.89
12/17/2020 4:45:00 AM 0.39 32.702 0.171 7.01 1.48 11.82
12/17/2020 5:00:00 AM 0.46 32.828 0.172 7.01 1.47 11.77
12/17/2020 5:15:00 AM 0.54 32.972 0.172 6.99 1.44 11.72
12/17/2020 5:30:00 AM 0.6 33.08 0.172 7 1.45 11.67
12/17/2020 5:45:00 AM 0.68 33.224 0.172 7 1.44 11.65
12/17/2020 6:00:00 AM 0.81 33.458 0.173 7 1.37 11.61
12/17/2020 6:15:00 AM 0.93 33.674 0.173 7 1.45 11.56
12/17/2020 6:30:00 AM 1 33.8 0.173 7 1.41 11.53
12/17/2020 6:45:00 AM 1.05 33.89 0.173 6.99 1.37 11.49
12/17/2020 7:00:00 AM 1.08 33.944 0.173 7 1.44 11.45
12/17/2020 7:15:00 AM 1.15 34.07 0.173 7 1.35 11.47
12/17/2020 7:30:00 AM 1.21 34.178 0.173 7 1.43 11.45
12/17/2020 7:45:00 AM 1.3 34.34 0.173 6.99 1.48 11.45
12/17/2020 8:00:00 AM 1.36 34.448 0.173 6.99 1.54 11.45
12/17/2020 8:15:00 AM 1.4 34.52 0.173 7 1.52 11.44
12/17/2020 8:30:00 AM 1.44 34.592 0.172 7 1.45 11.48
12/17/2020 8:45:00 AM 1.48 34.664 0.172 6.99 1.48 11.5
12/17/2020 9:00:00 AM 1.5 34.7 0.173 7.02 1.56 11.66
12/17/2020 9:15:00 AM 1.51 34.718 0.174 7.02 6.81 11.74
12/17/2020 9:30:00 AM 1.57 34.826 0.177 7.03 1.84 11.96
12/17/2020 9:45:00 AM 1.61 34.898 0.178 7.04 1.75 12.17
12/17/2020 10:00:00 AM 1.65 34.97 0.181 7.05 1.65 12.28
12/17/2020 10:15:00 AM 1.66 34.988 0.183 7.06 1.59 12.37
12/17/2020 10:30:00 AM 1.7 35.06 0.185 7.08 1.67 12.53
12/17/2020 10:45:00 AM 1.72 35.096 0.186 7.08 1.56 12.6
12/17/2020 11:00:00 AM 1.71 35.078 0.187 7.08 1.57 12.63
12/17/2020 11:15:00 AM 1.62 34.916 0.189 7.09 1.84 12.57
12/17/2020 11:30:00 AM 1.54 34.772 0.19 7.1 1.53 12.67
12/17/2020 11:45:00 AM 1.5 34.7 0.189 7.12 1.56 12.75
12/17/2020 12:00:00 PM 1.47 34.646 0.188 7.12 1.54 12.87
12/17/2020 12:15:00 PM 1.48 34.664 0.187 7.13 1.57 12.94
12/17/2020 12:30:00 PM 1.49 34.682 0.186 7.14 1.74 13.02
12/17/2020 12:45:00 PM 1.49 34.682 0.186 7.15 1.71 13.11
12/17/2020 1:00:00 PM 1.48 34.664 0.185 7.16 1.61 13.17
12/17/2020 1:15:00 PM 1.49 34.682 0.185 7.16 1.69 13.21
12/17/2020 1:30:00 PM 1.49 34.682 0.185 7.17 1.58 13.28
12/17/2020 1:45:00 PM 1.46 34.628 0.184 7.17 1.56 13.28
12/17/2020 2:00:00 PM 1.47 34.646 0.184 7.18 1.58 13.34
12/17/2020 2:15:00 PM 1.42 34.556 0.184 7.19 1.47 13.35
12/17/2020 2:30:00 PM 1.35 34.43 0.183 7.2 1.73 13.42
12/17/2020 2:45:00 PM 1.28 34.304 0.182 7.2 1.56 13.47
12/17/2020 3:00:00 PM 1.2 34.16 0.182 7.22 1.49 13.55
12/17/2020 3:15:00 PM 1.12 34.016 0.18 7.22 1.67 13.62
12/17/2020 3:30:00 PM 1.05 33.89 0.179 7.23 1.65 13.66
12/17/2020 3:45:00 PM 0.99 33.782 0.179 7.24 1.79 13.69
12/17/2020 4:00:00 PM 0.96 33.728 0.178 7.24 1.65 13.68
12/17/2020 4:15:00 PM 0.93 33.674 0.177 7.24 1.61 13.64
12/17/2020 4:30:00 PM 0.89 33.602 0.176 7.24 1.75 13.58
12/17/2020 4:45:00 PM 0.86 33.548 0.176 7.24 1.85 13.52
12/17/2020 5:00:00 PM 0.84 33.512 0.175 7.23 1.83 13.48
12/17/2020 5:15:00 PM 0.83 33.494 0.175 7.21 1.95 13.4
12/17/2020 5:30:00 PM 0.82 33.476 0.174 7.22 1.68 13.34
12/17/2020 5:45:00 PM 0.82 33.476 0.174 7.21 1.62 13.31
12/17/2020 6:00:00 PM 0.82 33.476 0.174 7.21 1.64 13.25
12/17/2020 6:15:00 PM 0.81 33.458 0.173 7.2 1.63 13.21
12/17/2020 6:30:00 PM 0.8 33.44 0.173 7.2 1.7 13.17
12/17/2020 6:45:00 PM 0.79 33.422 0.173 7.18 1.69 13.14
12/17/2020 7:00:00 PM 0.78 33.404 0.172 7.19 1.67 13.11
12/17/2020 7:15:00 PM 0.75 33.35 0.172 7.18 1.62 13.09
12/17/2020 7:30:00 PM 0.72 33.296 0.171 7.18 1.65 13.11
12/17/2020 7:45:00 PM 0.67 33.206 0.17 7.18 1.59 13.14
12/17/2020 8:00:00 PM 0.62 33.116 0.169 7.19 1.79 13.17
12/17/2020 8:15:00 PM 0.59 33.062 0.167 7.19 1.87 13.19
12/17/2020 8:30:00 PM 0.55 32.99 0.166 7.19 2.02 13.22
12/17/2020 8:45:00 PM 0.47 32.846 0.164 7.19 2.19 13.25
12/17/2020 9:00:00 PM 0.44 32.792 0.163 7.2 2.24 13.28
12/17/2020 9:15:00 PM 0.46 32.828 0.162 7.19 2.41 13.3
12/17/2020 9:30:00 PM 0.48 32.864 0.162 7.19 2.25 13.27
12/17/2020 9:45:00 PM 0.53 32.954 0.163 7.19 2.26 13.24
12/17/2020 10:00:00 PM 0.59 33.062 0.164 7.18 2.43 13.18
12/17/2020 10:15:00 PM 0.64 33.152 0.164 7.18 2.11 13.14
12/17/2020 10:30:00 PM 0.63 33.134 0.163 7.18 2.06 13.17
12/17/2020 10:45:00 PM 0.61 33.098 0.162 7.17 2.47 13.18
12/17/2020 11:00:00 PM 0.58 33.044 0.161 7.19 2.52 13.21
12/17/2020 11:15:00 PM 0.56 33.008 0.161 7.19 2.5 13.22
12/17/2020 11:30:00 PM 0.53 32.954 0.16 7.19 2.39 13.25
12/17/2020 11:45:00 PM 0.51 32.918 0.16 7.19 2.73 13.26
12/18/2020 12:00:00 AM 0.51 32.918 0.16 7.19 2.38 13.27
12/18/2020 12:15:00 AM 0.5 32.9 0.16 7.19 2.49 13.29
12/18/2020 12:30:00 AM 0.49 32.882 0.16 7.19 2.56 13.3
12/18/2020 12:45:00 AM 0.5 32.9 0.16 7.19 2.57 13.3
12/18/2020 1:00:00 AM 0.49 32.882 0.159 7.2 2.64 13.31
12/18/2020 1:15:00 AM 0.49 32.882 0.159 7.19 2.64 13.33
12/18/2020 1:30:00 AM 0.49 32.882 0.159 7.19 2.45 13.32
12/18/2020 1:45:00 AM 0.49 32.882 0.159 7.18 2.35 13.33
12/18/2020 2:00:00 AM 0.5 32.9 0.159 7.19 2.45 13.32
12/18/2020 2:15:00 AM 0.5 32.9 0.159 7.19 2.73 13.31
12/18/2020 2:30:00 AM 0.5 32.9 0.159 7.18 2.82 13.32
12/18/2020 2:45:00 AM 0.5 32.9 0.158 7.19 2.64 13.32
12/18/2020 3:00:00 AM 0.5 32.9 0.158 7.18 2.67 13.32
12/18/2020 3:15:00 AM 0.5 32.9 0.158 7.17 2.59 13.32
12/18/2020 3:30:00 AM 0.51 32.918 0.158 7.19 2.45 13.33
12/18/2020 3:45:00 AM 0.51 32.918 0.158 7.18 2.53 13.33
12/18/2020 4:00:00 AM 0.51 32.918 0.158 7.18 2.66 13.33
12/18/2020 4:15:00 AM 0.51 32.918 0.158 7.19 2.58 13.33
12/18/2020 4:30:00 AM 0.51 32.918 0.158 7.17 2.7 13.34
12/18/2020 4:45:00 AM 0.51 32.918 0.158 7.19 2.45 13.33
12/18/2020 5:00:00 AM 0.5 32.9 0.158 7.19 2.61 13.34
12/18/2020 5:15:00 AM 0.5 32.9 0.157 7.18 2.47 13.35
12/18/2020 5:30:00 AM 0.49 32.882 0.157 7.19 2.54 13.36
12/18/2020 5:45:00 AM 0.49 32.882 0.157 7.18 2.55 13.37
12/18/2020 6:00:00 AM 0.49 32.882 0.157 7.18 2.41 13.36
12/18/2020 6:15:00 AM 0.49 32.882 0.157 7.18 2.44 13.37
12/18/2020 6:30:00 AM 0.5 32.9 0.156 7.17 2.43 13.39
12/18/2020 6:45:00 AM 0.5 32.9 0.156 7.18 2.46 13.39
12/18/2020 7:00:00 AM 0.5 32.9 0.156 7.18 2.4 13.39
12/18/2020 7:15:00 AM 0.49 32.882 0.156 7.18 2.4 13.39
12/18/2020 7:30:00 AM 0.49 32.882 0.156 7.19 2.38 13.41
12/18/2020 7:45:00 AM 0.49 32.882 0.156 7.19 2.43 13.39
12/18/2020 8:00:00 AM 0.49 32.882 0.156 7.19 2.64 13.43
12/18/2020 8:15:00 AM 0.49 32.882 0.155 7.2 2.45 13.47
12/18/2020 8:30:00 AM 0.5 32.9 0.155 7.2 2.53 13.52
12/18/2020 8:45:00 AM 0.5 32.9 0.155 7.2 2.56 13.6
12/18/2020 9:00:00 AM 0.5 32.9 0.154 7.22 2.62 13.68
12/18/2020 9:15:00 AM 0.51 32.918 0.154 7.23 2.7 13.76
12/18/2020 9:30:00 AM 0.51 32.918 0.154 7.23 2.66 13.86
12/18/2020 9:45:00 AM 0.52 32.936 0.153 7.25 2.61 13.96
12/18/2020 10:00:00 AM 0.52 32.936 0.153 7.26 2.64 14.01
12/18/2020 10:15:00 AM 0.52 32.936 0.153 7.27 2.65 14.07
12/18/2020 10:30:00 AM 0.52 32.936 0.153 7.29 2.76 14.12
12/18/2020 10:45:00 AM 0.53 32.954 0.153 7.3 2.54 14.16
12/18/2020 11:00:00 AM 0.53 32.954 0.153 7.3 2.56 14.21
12/18/2020 11:15:00 AM 0.54 32.972 0.154 7.31 2.85 14.23
12/18/2020 11:30:00 AM 0.55 32.99 0.154 7.32 2.8 14.25
12/18/2020 11:45:00 AM 0.56 33.008 0.154 7.33 2.8 14.28
12/18/2020 12:00:00 PM 0.56 33.008 0.154 7.33 2.63 14.3
12/18/2020 12:15:00 PM 0.56 33.008 0.154 7.33 2.58 14.34
12/18/2020 12:30:00 PM 0.55 32.99 0.154 7.35 2.9 14.35
12/18/2020 12:45:00 PM 0.55 32.99 0.154 7.35 2.92 14.38
12/18/2020 1:00:00 PM 0.55 32.99 0.154 7.36 3.7 14.39
12/18/2020 1:15:00 PM 0.55 32.99 0.154 7.37 2.93 14.4
12/18/2020 1:30:00 PM 0.57 33.026 0.154 7.37 2.6 14.42
12/18/2020 1:45:00 PM 0.58 33.044 0.154 7.37 2.55 14.41
12/18/2020 2:00:00 PM 0.59 33.062 0.154 7.37 2.68 14.45
12/18/2020 2:15:00 PM 0.61 33.098 0.154 7.37 2.79 14.49
12/18/2020 2:30:00 PM 0.59 33.062 0.154 7.39 2.72 14.47
12/18/2020 2:45:00 PM 0.6 33.08 0.153 7.39 2.64 14.5
12/18/2020 3:00:00 PM 0.61 33.098 0.153 7.4 2.66 14.53
12/18/2020 3:15:00 PM 0.6 33.08 0.153 7.4 2.78 14.51
12/18/2020 3:30:00 PM 0.56 33.008 0.153 7.39 2.71 14.48
12/18/2020 3:45:00 PM 0.52 32.936 0.153 7.39 2.83 14.44
12/18/2020 4:00:00 PM 0.5 32.9 0.153 7.38 2.74 14.4
12/18/2020 4:15:00 PM 0.48 32.864 0.153 7.37 2.77 14.34
12/18/2020 4:30:00 PM 0.45 32.81 0.153 7.37 2.73 14.27
12/18/2020 4:45:00 PM 0.43 32.774 0.153 7.34 2.96 14.21
12/18/2020 5:00:00 PM 0.41 32.738 0.153 7.33 3.02 14.14
12/18/2020 5:15:00 PM 0.39 32.702 0.153 7.31 2.6 14.08
12/18/2020 5:30:00 PM 0.37 32.666 0.154 7.3 2.75 14.03
12/18/2020 5:45:00 PM 0.36 32.648 0.154 7.29 2.89 13.97
12/18/2020 6:00:00 PM 0.34 32.612 0.154 7.28 2.77 13.93
12/18/2020 6:15:00 PM 0.33 32.594 0.154 7.27 2.75 13.9
12/18/2020 6:30:00 PM 0.32 32.576 0.154 7.26 2.6 13.88
12/18/2020 6:45:00 PM 0.31 32.558 0.154 7.25 2.57 13.85
12/18/2020 7:00:00 PM 0.3 32.54 0.155 7.24 2.62 13.84
12/18/2020 7:15:00 PM 0.29 32.522 0.155 7.24 2.81 13.83
12/18/2020 7:30:00 PM 0.28 32.504 0.155 7.24 2.62 13.84
12/18/2020 7:45:00 PM 0.27 32.486 0.155 7.24 2.54 13.83
12/18/2020 8:00:00 PM 0.27 32.486 0.155 7.23 2.59 13.82
12/18/2020 8:15:00 PM 0.27 32.486 0.155 7.22 2.53 13.82
12/18/2020 8:30:00 PM 0.26 32.468 0.155 7.22 2.52 13.82
12/18/2020 8:45:00 PM 0.26 32.468 0.155 7.22 2.54 13.8
12/18/2020 9:00:00 PM 0.26 32.468 0.156 7.22 2.48 13.8
12/18/2020 9:15:00 PM 0.26 32.468 0.156 7.21 2.51 13.8
12/18/2020 9:30:00 PM 0.26 32.468 0.156 7.22 2.51 13.8
12/18/2020 9:45:00 PM 0.25 32.45 0.156 7.22 2.47 13.79
12/18/2020 10:00:00 PM 0.25 32.45 0.156 7.21 2.55 13.79
12/18/2020 10:15:00 PM 0.26 32.468 0.157 7.21 2.7 13.79
12/18/2020 10:30:00 PM 0.25 32.45 0.157 7.21 2.44 13.79
12/18/2020 10:45:00 PM 0.25 32.45 0.157 7.22 2.64 13.78
12/18/2020 11:00:00 PM 0.25 32.45 0.157 7.21 2.45 13.79
12/18/2020 11:15:00 PM 0.25 32.45 0.158 7.21 2.48 13.77
12/18/2020 11:30:00 PM 0.25 32.45 0.158 7.2 2.49 13.77
12/18/2020 11:45:00 PM 0.25 32.45 0.158 7.21 2.49 13.77
12/19/2020 12:00:00 AM 0.25 32.45 0.158 7.19 2.51 13.76
12/19/2020 12:15:00 AM 0.25 32.45 0.158 7.19 2.34 13.76
12/19/2020 12:30:00 AM 0.26 32.468 0.158 7.2 2.43 13.74
12/19/2020 12:45:00 AM 0.26 32.468 0.159 7.2 2.34 13.75
12/19/2020 1:00:00 AM 0.26 32.468 0.159 7.19 2.4 13.74
12/19/2020 1:15:00 AM 0.26 32.468 0.159 7.19 2.27 13.74
12/19/2020 1:30:00 AM 0.26 32.468 0.159 7.19 2.5 13.74
12/19/2020 1:45:00 AM 0.26 32.468 0.159 7.19 2.54 13.74
12/19/2020 2:00:00 AM 0.26 32.468 0.16 7.2 2.45 13.74
12/19/2020 2:15:00 AM 0.26 32.468 0.16 7.19 2.39 13.74
12/19/2020 2:30:00 AM 0.26 32.468 0.16 7.2 2.33 13.73
12/19/2020 2:45:00 AM 0.26 32.468 0.16 7.2 2.41 13.73
12/19/2020 3:00:00 AM 0.26 32.468 0.16 7.19 2.36 13.72
12/19/2020 3:15:00 AM 0.26 32.468 0.161 7.19 2.28 13.73
12/19/2020 3:30:00 AM 0.27 32.486 0.161 7.19 2.23 13.7
12/19/2020 3:45:00 AM 0.28 32.504 0.161 7.18 2.37 13.71
12/19/2020 4:00:00 AM 0.28 32.504 0.161 7.19 2.35 13.71
12/19/2020 4:15:00 AM 0.28 32.504 0.161 7.19 2.4 13.71
12/19/2020 4:30:00 AM 0.28 32.504 0.161 7.18 2.25 13.71
12/19/2020 4:45:00 AM 0.29 32.522 0.162 7.19 2.32 13.7
12/19/2020 5:00:00 AM 0.3 32.54 0.162 7.19 2.27 13.7
12/19/2020 5:15:00 AM 0.3 32.54 0.162 7.18 2.32 13.7
12/19/2020 5:30:00 AM 0.29 32.522 0.162 7.19 2.11 13.68
12/19/2020 5:45:00 AM 0.28 32.504 0.162 7.19 2.29 13.69
12/19/2020 6:00:00 AM 0.28 32.504 0.162 7.18 2.23 13.7
12/19/2020 6:15:00 AM 0.27 32.486 0.162 7.19 2.18 13.71
12/19/2020 6:30:00 AM 0.27 32.486 0.163 7.18 2.17 13.7
12/19/2020 6:45:00 AM 0.27 32.486 0.163 7.18 2.14 13.68
12/19/2020 7:00:00 AM 0.26 32.468 0.163 7.17 2.19 13.68
12/19/2020 7:15:00 AM 0.26 32.468 0.163 7.18 2.1 13.69
12/19/2020 7:30:00 AM 0.26 32.468 0.163 7.18 2.17 13.69
12/19/2020 7:45:00 AM 0.27 32.486 0.164 7.18 2.3 13.69
12/19/2020 8:00:00 AM 0.28 32.504 0.164 7.18 2.19 13.72
12/19/2020 8:15:00 AM 0.29 32.522 0.164 7.19 2.15 13.77
12/19/2020 8:30:00 AM 0.31 32.558 0.164 7.19 2.14 13.81
12/19/2020 8:45:00 AM 0.33 32.594 0.164 7.19 2.2 13.88
12/19/2020 9:00:00 AM 0.35 32.63 0.164 7.21 2.09 13.99
12/19/2020 9:15:00 AM 0.38 32.684 0.164 7.22 2.07 14.08
12/19/2020 9:30:00 AM 0.41 32.738 0.164 7.23 2.3 14.15
12/19/2020 9:45:00 AM 0.46 32.828 0.163 7.25 2.1 14.26
12/19/2020 10:00:00 AM 0.5 32.9 0.163 7.26 2.08 14.31
12/19/2020 10:15:00 AM 0.51 32.918 0.163 7.27 2.25 14.37
12/19/2020 10:30:00 AM 0.53 32.954 0.163 7.28 2.12 14.42
12/19/2020 10:45:00 AM 0.56 33.008 0.162 7.29 2.16 14.49
12/19/2020 11:00:00 AM 0.58 33.044 0.162 7.3 2.21 14.54
12/19/2020 11:15:00 AM 0.61 33.098 0.161 7.31 2.05 14.57
12/19/2020 11:30:00 AM 0.63 33.134 0.161 7.32 2.08 14.6
12/19/2020 11:45:00 AM 0.63 33.134 0.161 7.33 2.11 14.62
12/19/2020 12:00:00 PM 0.65 33.17 0.16 7.35 2.38 14.65
12/19/2020 12:15:00 PM 0.65 33.17 0.16 7.35 2.14 14.65
12/19/2020 12:30:00 PM 0.65 33.17 0.159 7.37 2.84 14.66
12/19/2020 12:45:00 PM 0.65 33.17 0.159 7.36 2.32 14.65
12/19/2020 1:00:00 PM 0.67 33.206 0.159 7.36 2.24 14.63
12/19/2020 1:15:00 PM 0.7 33.26 0.159 7.36 2.36 14.64
12/19/2020 1:30:00 PM 0.73 33.314 0.158 7.37 2.27 14.63
12/19/2020 1:45:00 PM 0.71 33.278 0.158 7.38 2.22 14.63
12/19/2020 2:00:00 PM 0.73 33.314 0.158 7.38 2.17 14.62
12/19/2020 2:15:00 PM 0.75 33.35 0.158 7.38 2.19 14.61
12/19/2020 2:30:00 PM 0.75 33.35 0.158 7.39 2.19 14.6
12/19/2020 2:45:00 PM 0.74 33.332 0.158 7.38 2.11 14.57
12/19/2020 3:00:00 PM 0.75 33.35 0.158 7.38 2.05 14.53
12/19/2020 3:15:00 PM 0.74 33.332 0.157 7.39 2.05 14.53
12/19/2020 3:30:00 PM 0.72 33.296 0.157 7.38 2.06 14.49
12/19/2020 3:45:00 PM 0.71 33.278 0.157 7.38 2.04 14.41
12/19/2020 4:00:00 PM 0.69 33.242 0.157 7.37 2.18 14.41
12/19/2020 4:15:00 PM 0.66 33.188 0.157 7.36 2.05 14.36
12/19/2020 4:30:00 PM 0.63 33.134 0.157 7.35 2.11 14.29
12/19/2020 4:45:00 PM 0.61 33.098 0.158 7.34 2.05 14.21
12/19/2020 5:00:00 PM 0.58 33.044 0.158 7.33 2.03 14.11
12/19/2020 5:15:00 PM 0.56 33.008 0.158 7.31 2.14 14.04
12/19/2020 5:30:00 PM 0.55 32.99 0.158 7.3 2.04 13.98
12/19/2020 5:45:00 PM 0.54 32.972 0.158 7.28 2.07 13.9
12/19/2020 6:00:00 PM 0.53 32.954 0.158 7.27 2.07 13.87
12/19/2020 6:15:00 PM 0.52 32.936 0.158 7.26 2.09 13.83
12/19/2020 6:30:00 PM 0.52 32.936 0.158 7.26 2.03 13.79
12/19/2020 6:45:00 PM 0.52 32.936 0.158 7.24 2.11 13.76
12/19/2020 7:00:00 PM 0.52 32.936 0.158 7.24 2.09 13.74
12/19/2020 7:15:00 PM 0.53 32.954 0.158 7.23 2.03 13.72
12/19/2020 7:30:00 PM 0.53 32.954 0.158 7.23 2.61 13.71
12/19/2020 7:45:00 PM 0.54 32.972 0.158 7.23 2.07 13.69
12/19/2020 8:00:00 PM 0.54 32.972 0.158 7.22 2.1 13.67
12/19/2020 8:15:00 PM 0.55 32.99 0.158 7.22 1.99 13.67
12/19/2020 8:30:00 PM 0.55 32.99 0.158 7.22 2.14 13.66
12/19/2020 8:45:00 PM 0.56 33.008 0.158 7.21 2.12 13.64
12/19/2020 9:00:00 PM 0.56 33.008 0.158 7.22 2.03 13.64
12/19/2020 9:15:00 PM 0.57 33.026 0.158 7.21 2.07 13.62
12/19/2020 9:30:00 PM 0.57 33.026 0.158 7.21 2.07 13.62
12/19/2020 9:45:00 PM 0.56 33.008 0.158 7.21 2.02 13.61
12/19/2020 10:00:00 PM 0.56 33.008 0.158 7.21 2 13.61
12/19/2020 10:15:00 PM 0.56 33.008 0.158 7.21 2.03 13.61
12/19/2020 10:30:00 PM 0.57 33.026 0.158 7.19 1.99 13.58
12/19/2020 10:45:00 PM 0.57 33.026 0.158 7.2 2.02 13.59
12/19/2020 11:00:00 PM 0.57 33.026 0.158 7.2 1.98 13.58
12/19/2020 11:15:00 PM 0.57 33.026 0.158 7.19 2.03 13.59
12/19/2020 11:30:00 PM 0.59 33.062 0.159 7.2 2.15 13.57
12/19/2020 11:45:00 PM 0.59 33.062 0.158 7.2 1.94 13.57
12/20/2020 12:00:00 AM 0.6 33.08 0.159 7.19 1.99 13.55
12/20/2020 12:15:00 AM 0.61 33.098 0.158 7.2 2.02 13.56
12/20/2020 12:30:00 AM 0.61 33.098 0.158 7.2 1.98 13.55
12/20/2020 12:45:00 AM 0.61 33.098 0.158 7.2 2.11 13.54
12/20/2020 1:00:00 AM 0.62 33.116 0.158 7.2 2.11 13.55
12/20/2020 1:15:00 AM 0.62 33.116 0.158 7.19 2.01 13.54
12/20/2020 1:30:00 AM 0.61 33.098 0.158 7.19 2.04 13.53
12/20/2020 1:45:00 AM 0.62 33.116 0.158 7.19 2.01 13.52
12/20/2020 2:00:00 AM 0.63 33.134 0.159 7.2 1.99 13.54
12/20/2020 2:15:00 AM 0.64 33.152 0.159 7.2 2.01 13.52
12/20/2020 2:30:00 AM 0.64 33.152 0.159 7.2 1.93 13.52
12/20/2020 2:45:00 AM 0.64 33.152 0.159 7.2 2.02 13.52
12/20/2020 3:00:00 AM 0.64 33.152 0.159 7.19 1.97 13.51
12/20/2020 3:15:00 AM 0.65 33.17 0.159 7.19 2.07 13.52
12/20/2020 3:30:00 AM 0.64 33.152 0.159 7.2 2.06 13.52
12/20/2020 3:45:00 AM 0.65 33.17 0.159 7.21 2.01 13.51
12/20/2020 4:00:00 AM 0.65 33.17 0.159 7.19 2.08 13.51
12/20/2020 4:15:00 AM 0.66 33.188 0.159 7.2 1.96 13.5
12/20/2020 4:30:00 AM 0.66 33.188 0.159 7.19 2.06 13.49
12/20/2020 4:45:00 AM 0.66 33.188 0.159 7.19 2.02 13.5
12/20/2020 5:00:00 AM 0.66 33.188 0.159 7.2 2.02 13.5
12/20/2020 5:15:00 AM 0.67 33.206 0.159 7.19 1.93 13.51
12/20/2020 5:30:00 AM 0.67 33.206 0.159 7.19 2.04 13.48
12/20/2020 5:45:00 AM 0.67 33.206 0.159 7.19 2 13.5
12/20/2020 6:00:00 AM 0.68 33.224 0.159 7.19 1.91 13.48
12/20/2020 6:15:00 AM 0.68 33.224 0.159 7.19 1.91 13.49
12/20/2020 6:30:00 AM 0.69 33.242 0.159 7.2 1.9 13.49
12/20/2020 6:45:00 AM 0.7 33.26 0.159 7.19 1.91 13.47
12/20/2020 7:00:00 AM 0.7 33.26 0.159 7.2 1.99 13.46
12/20/2020 7:15:00 AM 0.71 33.278 0.159 7.2 1.88 13.47
12/20/2020 7:30:00 AM 0.71 33.278 0.159 7.18 1.92 13.47
12/20/2020 7:45:00 AM 0.72 33.296 0.159 7.2 1.97 13.48
12/20/2020 8:00:00 AM 0.72 33.296 0.159 7.19 1.97 13.48
12/20/2020 8:15:00 AM 0.73 33.314 0.159 7.2 1.98 13.47
12/20/2020 8:30:00 AM 0.75 33.35 0.159 7.2 1.98 13.53
12/20/2020 8:45:00 AM 0.76 33.368 0.159 7.21 1.92 13.59
12/20/2020 9:00:00 AM 0.79 33.422 0.159 7.22 2.05 13.65
12/20/2020 9:15:00 AM 0.82 33.476 0.158 7.23 1.99 13.76
12/20/2020 9:30:00 AM 0.84 33.512 0.158 7.25 1.87 13.84
12/20/2020 9:45:00 AM 0.86 33.548 0.158 7.25 1.94 13.89
12/20/2020 10:00:00 AM 0.89 33.602 0.158 7.26 2.04 13.96
12/20/2020 10:15:00 AM 0.92 33.656 0.158 7.28 1.95 14.02
12/20/2020 10:30:00 AM 0.94 33.692 0.158 7.29 1.97 14.08
12/20/2020 10:45:00 AM 0.96 33.728 0.157 7.3 2.26 14.1
12/20/2020 11:00:00 AM 0.96 33.728 0.157 7.3 2 14.1
12/20/2020 11:15:00 AM 0.95 33.71 0.157 7.32 2 14.11
12/20/2020 11:30:00 AM 0.95 33.71 0.157 7.32 2.27 14.11
12/20/2020 11:45:00 AM 0.94 33.692 0.157 7.33 1.96 14.15
12/20/2020 12:00:00 PM 0.96 33.728 0.157 7.33 1.88 14.18
12/20/2020 12:15:00 PM 0.98 33.764 0.157 7.34 1.9 14.2
12/20/2020 12:30:00 PM 1.01 33.818 0.157 7.34 1.85 14.21
12/20/2020 12:45:00 PM 1.02 33.836 0.157 7.35 1.93 14.23
12/20/2020 1:00:00 PM 1.05 33.89 0.157 7.36 1.99 14.25
12/20/2020 1:15:00 PM 1.1 33.98 0.156 7.37 1.91 14.29
12/20/2020 1:30:00 PM 1.13 34.034 0.156 7.36 1.94 14.28
12/20/2020 1:45:00 PM 1.15 34.07 0.156 7.38 1.89 14.28
12/20/2020 2:00:00 PM 1.13 34.034 0.156 7.38 1.93 14.25
12/20/2020 2:15:00 PM 1.11 33.998 0.156 7.37 1.95 14.23
12/20/2020 2:30:00 PM 1.11 33.998 0.156 7.38 1.94 14.23
12/20/2020 2:45:00 PM 1.11 33.998 0.156 7.38 2.1 14.2
12/20/2020 3:00:00 PM 1.11 33.998 0.156 7.38 1.94 14.2
12/20/2020 3:15:00 PM 1.12 34.016 0.156 7.39 2 14.16
12/20/2020 3:30:00 PM 1.12 34.016 0.156 7.37 1.99 14.12
12/20/2020 3:45:00 PM 1.12 34.016 0.156 7.36 1.93 14.07
12/20/2020 4:00:00 PM 1.11 33.998 0.156 7.36 1.93 14.03
12/20/2020 4:15:00 PM 1.1 33.98 0.156 7.35 1.99 13.96
12/20/2020 4:30:00 PM 1.09 33.962 0.156 7.33 2.18 13.88
12/20/2020 4:45:00 PM 1.08 33.944 0.156 7.3 2.04 13.79
12/20/2020 5:00:00 PM 1.07 33.926 0.156 7.32 2.01 13.72
12/20/2020 5:15:00 PM 1.06 33.908 0.156 7.3 2.11 13.66
12/20/2020 5:30:00 PM 1.05 33.89 0.156 7.28 2.05 13.6
12/20/2020 5:45:00 PM 1.04 33.872 0.157 7.28 2 13.57
12/20/2020 6:00:00 PM 1.03 33.854 0.157 7.27 1.94 13.52
12/20/2020 6:15:00 PM 1.03 33.854 0.157 7.26 1.95 13.5
12/20/2020 6:30:00 PM 1.04 33.872 0.157 7.26 1.95 13.47
12/20/2020 6:45:00 PM 1.04 33.872 0.157 7.24 1.99 13.45
12/20/2020 7:00:00 PM 1.05 33.89 0.157 7.24 1.98 13.43
12/20/2020 7:15:00 PM 1.05 33.89 0.157 7.24 2.13 13.41
12/20/2020 7:30:00 PM 1.05 33.89 0.157 7.24 2.06 13.4
12/20/2020 7:45:00 PM 1.04 33.872 0.157 7.23 1.98 13.4
12/20/2020 8:00:00 PM 1.04 33.872 0.157 7.23 1.9 13.39
12/20/2020 8:15:00 PM 1.03 33.854 0.157 7.23 1.91 13.38
12/20/2020 8:30:00 PM 1.03 33.854 0.157 7.23 1.95 13.38
12/20/2020 8:45:00 PM 1.02 33.836 0.157 7.23 1.97 13.38
12/20/2020 9:00:00 PM 1.02 33.836 0.157 7.23 2.01 13.38
12/20/2020 9:15:00 PM 1.02 33.836 0.157 7.22 1.97 13.38
12/20/2020 9:30:00 PM 1.01 33.818 0.157 7.22 1.97 13.38
12/20/2020 9:45:00 PM 1.01 33.818 0.157 7.22 2.01 13.4
12/20/2020 10:00:00 PM 1.01 33.818 0.157 7.22 2.03 13.38
12/20/2020 10:15:00 PM 0.98 33.764 0.157 7.22 2.06 13.38
12/20/2020 10:30:00 PM 0.95 33.71 0.157 7.21 2.04 13.39
12/20/2020 10:45:00 PM 0.94 33.692 0.157 7.21 2.07 13.4
12/20/2020 11:00:00 PM 0.93 33.674 0.156 7.22 2.07 13.41
12/20/2020 11:15:00 PM 0.92 33.656 0.157 7.21 2.07 13.4
12/20/2020 11:30:00 PM 0.9 33.62 0.157 7.21 2.04 13.39
12/20/2020 11:45:00 PM 0.88 33.584 0.156 7.21 2.04 13.41
12/21/2020 12:00:00 AM 0.85 33.53 0.156 7.21 2.05 13.42
12/21/2020 12:15:00 AM 0.83 33.494 0.156 7.21 2.02 13.43
12/21/2020 12:30:00 AM 0.83 33.494 0.156 7.2 2.04 13.44
12/21/2020 12:45:00 AM 0.83 33.494 0.156 7.2 2.05 13.44
12/21/2020 1:00:00 AM 0.83 33.494 0.156 7.21 2.15 13.44
12/21/2020 1:15:00 AM 0.83 33.494 0.156 7.2 2.13 13.44
12/21/2020 1:30:00 AM 0.84 33.512 0.156 7.21 2.19 13.44
12/21/2020 1:45:00 AM 0.85 33.53 0.156 7.2 2.09 13.43
12/21/2020 2:00:00 AM 0.86 33.548 0.156 7.2 2.22 13.42
12/21/2020 2:15:00 AM 0.87 33.566 0.156 7.2 2.09 13.43
12/21/2020 2:30:00 AM 0.89 33.602 0.156 7.2 2.25 13.42
12/21/2020 2:45:00 AM 0.9 33.62 0.156 7.2 2.08 13.41
12/21/2020 3:00:00 AM 0.91 33.638 0.156 7.2 2.09 13.41
12/21/2020 3:15:00 AM 0.92 33.656 0.156 7.2 2.08 13.4
12/21/2020 3:30:00 AM 0.92 33.656 0.157 7.2 2.15 13.4
12/21/2020 3:45:00 AM 0.93 33.674 0.157 7.2 2.17 13.38
12/21/2020 4:00:00 AM 0.94 33.692 0.157 7.21 2.09 13.39
12/21/2020 4:15:00 AM 0.93 33.674 0.157 7.2 2.07 13.39
12/21/2020 4:30:00 AM 0.94 33.692 0.157 7.2 2 13.38
12/21/2020 4:45:00 AM 0.94 33.692 0.157 7.2 2.03 13.38
12/21/2020 5:00:00 AM 0.94 33.692 0.157 7.21 2.02 13.38
12/21/2020 5:15:00 AM 0.95 33.71 0.157 7.21 2.14 13.37
12/21/2020 5:30:00 AM 0.94 33.692 0.157 7.2 2.34 13.37
12/21/2020 5:45:00 AM 0.95 33.71 0.157 7.21 2.07 13.37
12/21/2020 6:00:00 AM -99999.99 -179968 -99999.99 -99999.99 -99999.99 -99999.99
12/21/2020 6:15:00 AM -99999.99 -179968 -99999.99 -99999.99 -99999.99 -99999.99
12/21/2020 6:30:00 AM -99999.99 -179968 -99999.99 -99999.99 -99999.99 -99999.99
12/21/2020 6:45:00 AM -99999.99 -179968 -99999.99 -99999.99 -99999.99 -99999.99
12/21/2020 7:00:00 AM -99999.99 -179968 -99999.99 -99999.99 -99999.99 -99999.99
12/21/2020 7:15:00 AM -99999.99 -179968 -99999.99 -99999.99 -99999.99 -99999.99
12/21/2020 7:30:00 AM -99999.99 -179968 -99999.99 -99999.99 -99999.99 -99999.99
12/21/2020 7:45:00 AM -99999.99 -179968 -99999.99 -99999.99 -99999.99 -99999.99
12/21/2020 8:00:00 AM -99999.99 -179968 -99999.99 -99999.99 -99999.99 -99999.99
12/21/2020 8:15:00 AM -99999.99 -179968 -99999.99 -99999.99 -99999.99 -99999.99
12/21/2020 8:30:00 AM -99999.99 -179968 -99999.99 -99999.99 -99999.99 -99999.99
12/21/2020 8:45:00 AM 0.94 33.692 0.157 7.24 2.2 13.64
12/21/2020 9:00:00 AM 0.97 33.746 0.156 7.24 2.03 13.77
12/21/2020 9:15:00 AM 1.01 33.818 0.156 7.24 2.09 13.85
12/21/2020 9:30:00 AM 1.05 33.89 0.156 7.28 2.16 13.94
12/21/2020 9:45:00 AM 1.12 34.016 0.156 7.28 2.07 14
12/21/2020 10:00:00 AM 1.18 34.124 0.156 7.29 1.97 14.06
12/21/2020 10:15:00 AM 1.26 34.268 0.155 7.3 2 14.12
12/21/2020 10:30:00 AM 1.31 34.358 0.155 7.33 2.07 14.15
12/21/2020 10:45:00 AM 1.39 34.502 0.155 7.33 2.1 14.17
12/21/2020 11:00:00 AM 1.46 34.628 0.155 7.35 1.95 14.19
12/21/2020 11:15:00 AM 1.52 34.736 0.155 7.35 2.03 14.16
12/21/2020 11:30:00 AM 1.6 34.88 0.155 7.34 2.05 14.17
12/21/2020 11:45:00 AM 1.67 35.006 0.155 7.37 2.02 14.15
12/21/2020 12:00:00 PM 1.75 35.15 0.154 7.38 1.99 14.16
12/21/2020 12:15:00 PM 1.81 35.258 0.154 7.4 2.04 14.16
12/21/2020 12:30:00 PM 1.86 35.348 0.154 7.39 1.99 14.12
12/21/2020 12:45:00 PM 1.9 35.42 0.154 7.41 2.03 14.11
12/21/2020 1:00:00 PM 1.92 35.456 0.154 7.41 2 14.1
12/21/2020 1:15:00 PM 1.94 35.492 0.154 7.41 2.17 14.07
12/21/2020 1:30:00 PM 1.94 35.492 0.154 7.41 2.09 14.05
12/21/2020 1:45:00 PM 1.94 35.492 0.154 7.42 2.15 14.06
12/21/2020 2:00:00 PM 1.92 35.456 0.153 7.42 2.01 14.04
12/21/2020 2:15:00 PM 1.9 35.42 0.153 7.42 2.09 14.02
12/21/2020 2:30:00 PM 1.87 35.366 0.153 7.41 2.13 14
12/21/2020 2:45:00 PM 1.85 35.33 0.153 7.41 2.02 14
12/21/2020 3:00:00 PM 1.82 35.276 0.153 7.42 2.11 13.98
12/21/2020 3:15:00 PM 1.79 35.222 0.153 7.4 2.08 13.95
12/21/2020 3:30:00 PM 1.75 35.15 0.153 7.4 2.05 13.92
12/21/2020 3:45:00 PM 1.71 35.078 0.153 7.4 2.09 13.87
12/21/2020 4:00:00 PM 1.66 34.988 0.153 7.38 2.09 13.82
12/21/2020 4:15:00 PM 1.61 34.898 0.153 7.37 2.08 13.76
12/21/2020 4:30:00 PM 1.56 34.808 0.153 7.36 2.14 13.71
12/21/2020 4:45:00 PM 1.51 34.718 0.153 7.34 2.16 13.63
12/21/2020 5:00:00 PM 1.48 34.664 0.154 7.32 2.13 13.57
12/21/2020 5:15:00 PM 1.44 34.592 0.154 7.31 2.33 13.5
12/21/2020 5:30:00 PM 1.41 34.538 0.154 7.29 2.25 13.46
12/21/2020 5:45:00 PM 1.37 34.466 0.154 7.28 2.41 13.4
12/21/2020 6:00:00 PM 1.35 34.43 0.154 7.27 2.17 13.38
12/21/2020 6:15:00 PM 1.33 34.394 0.154 7.26 2.31 13.34
12/21/2020 6:30:00 PM 1.32 34.376 0.154 7.26 2.34 13.33
12/21/2020 6:45:00 PM 1.3 34.34 0.154 7.25 2.42 13.32
12/21/2020 7:00:00 PM 1.28 34.304 0.154 7.24 2.39 13.31
12/21/2020 7:15:00 PM 1.27 34.286 0.154 7.24 2.42 13.31
12/21/2020 7:30:00 PM 1.26 34.268 0.154 7.24 2.46 13.3
12/21/2020 7:45:00 PM 1.26 34.268 0.155 7.22 2.58 13.29
12/21/2020 8:00:00 PM 1.25 34.25 0.154 7.22 2.65 13.28
12/21/2020 8:15:00 PM 1.24 34.232 0.154 7.22 2.42 13.29
12/21/2020 8:30:00 PM 1.24 34.232 0.154 7.23 2.45 13.28
12/21/2020 8:45:00 PM 1.24 34.232 0.154 7.23 2.52 13.28
12/21/2020 9:00:00 PM 1.24 34.232 0.154 7.23 2.29 13.27
12/21/2020 9:15:00 PM 1.23 34.214 0.154 7.22 2.35 13.28
12/21/2020 9:30:00 PM 1.23 34.214 0.154 7.22 2.35 13.27
12/21/2020 9:45:00 PM 1.23 34.214 0.154 7.22 2.41 13.27
12/21/2020 10:00:00 PM 1.23 34.214 0.154 7.22 2.37 13.26
12/21/2020 10:15:00 PM 1.23 34.214 0.154 7.22 2.28 13.27
12/21/2020 10:30:00 PM 1.23 34.214 0.154 7.21 2.36 13.27
12/21/2020 10:45:00 PM 1.22 34.196 0.154 7.22 2.27 13.26
12/21/2020 11:00:00 PM 1.21 34.178 0.154 7.21 2.3 13.28
12/21/2020 11:15:00 PM 1.2 34.16 0.154 7.22 2.29 13.26
12/21/2020 11:30:00 PM 1.2 34.16 0.154 7.21 2.24 13.27
12/21/2020 11:45:00 PM 1.2 34.16 0.154 7.21 2.27 13.27
12/22/2020 12:00:00 AM 1.2 34.16 0.154 7.21 2.49 13.26
12/22/2020 12:15:00 AM 1.2 34.16 0.154 7.21 2.3 13.27
12/22/2020 12:30:00 AM 1.19 34.142 0.154 7.21 2.25 13.28
12/22/2020 12:45:00 AM 1.19 34.142 0.154 7.21 2.34 13.27
12/22/2020 1:00:00 AM 1.19 34.142 0.154 7.21 2.22 13.26
12/22/2020 1:15:00 AM 1.19 34.142 0.154 7.21 2.24 13.26
12/22/2020 1:30:00 AM 1.18 34.124 0.154 7.21 2.3 13.26
12/22/2020 1:45:00 AM 1.17 34.106 0.154 7.21 2.29 13.27
12/22/2020 2:00:00 AM 1.17 34.106 0.154 7.21 2.29 13.26
12/22/2020 2:15:00 AM 1.16 34.088 0.154 7.21 2.37 13.28
12/22/2020 2:30:00 AM 1.15 34.07 0.154 7.21 2.38 13.27
12/22/2020 2:45:00 AM 1.14 34.052 0.154 7.21 2.28 13.28
12/22/2020 3:00:00 AM 1.12 34.016 0.154 7.21 2.59 13.25
12/22/2020 3:15:00 AM 1.1 33.98 0.154 7.21 2.45 13.29
12/22/2020 3:30:00 AM 1.07 33.926 0.154 7.22 2.32 13.28
12/22/2020 3:45:00 AM 1.05 33.89 0.154 7.2 2.39 13.3
12/22/2020 4:00:00 AM 1.02 33.836 0.155 7.21 2.58 13.3
12/22/2020 4:15:00 AM 0.99 33.782 0.155 7.21 2.42 13.32
12/22/2020 4:30:00 AM 0.96 33.728 0.155 7.21 2.47 13.31
12/22/2020 4:45:00 AM 0.96 33.728 0.155 7.21 2.47 13.33
12/22/2020 5:00:00 AM 0.95 33.71 0.155 7.21 2.33 13.34
12/22/2020 5:15:00 AM 0.95 33.71 0.155 7.21 2.5 13.34
12/22/2020 5:30:00 AM 0.96 33.728 0.155 7.21 2.38 13.35
12/22/2020 5:45:00 AM 0.97 33.746 0.155 7.21 2.36 13.34
12/22/2020 6:00:00 AM 0.98 33.764 0.155 7.21 2.45 13.34
12/22/2020 6:15:00 AM 1 33.8 0.155 7.2 2.42 13.34
12/22/2020 6:30:00 AM 1.01 33.818 0.155 7.21 2.34 13.34
12/22/2020 6:45:00 AM 1.02 33.836 0.155 7.21 2.35 13.33
12/22/2020 7:00:00 AM 1.04 33.872 0.155 7.21 2.35 13.33
12/22/2020 7:15:00 AM 1.05 33.89 0.155 7.21 2.39 13.33
12/22/2020 7:30:00 AM 1.06 33.908 0.155 7.22 2.51 13.33
12/22/2020 7:45:00 AM 1.07 33.926 0.155 7.22 2.48 13.33
12/22/2020 8:00:00 AM 1.08 33.944 0.155 7.22 2.45 13.35
12/22/2020 8:15:00 AM 1.09 33.962 0.155 7.21 2.43 13.37
12/22/2020 8:30:00 AM 1.11 33.998 0.155 7.23 2.42 13.43
12/22/2020 8:45:00 AM 1.12 34.016 0.155 7.23 2.26 13.48
12/22/2020 9:00:00 AM 1.14 34.052 0.154 7.24 2.35 13.54
12/22/2020 9:15:00 AM 1.17 34.106 0.154 7.25 2.43 13.61
12/22/2020 9:30:00 AM 1.2 34.16 0.154 7.26 2.46 13.68
12/22/2020 9:45:00 AM 1.23 34.214 0.154 7.28 2.35 13.75
12/22/2020 10:00:00 AM 1.26 34.268 0.154 7.28 2.43 13.82
12/22/2020 10:15:00 AM 1.32 34.376 0.154 7.3 2.41 13.9
12/22/2020 10:30:00 AM 1.39 34.502 0.154 7.31 2.52 13.97
12/22/2020 10:45:00 AM 1.44 34.592 0.153 7.33 2.4 13.99
12/22/2020 11:00:00 AM 1.49 34.682 0.153 7.34 2.44 14.03
12/22/2020 11:15:00 AM 1.58 34.844 0.153 7.35 2.54 14.09
12/22/2020 11:30:00 AM 1.66 34.988 0.153 7.37 2.37 14.1
12/22/2020 11:45:00 AM 1.7 35.06 0.153 7.38 2.35 14.08
12/22/2020 12:00:00 PM 1.76 35.168 0.153 7.4 2.46 14.09
12/22/2020 12:15:00 PM 1.79 35.222 0.152 7.4 2.59 14.09
12/22/2020 12:30:00 PM 1.82 35.276 0.152 7.41 2.48 14.11
12/22/2020 12:45:00 PM 1.87 35.366 0.152 7.42 2.34 14.1
12/22/2020 1:00:00 PM 1.87 35.366 0.152 7.41 2.39 14.07
12/22/2020 1:15:00 PM 1.87 35.366 0.152 7.42 2.42 14.06
12/22/2020 1:30:00 PM 1.86 35.348 0.152 7.42 2.29 14.03
12/22/2020 1:45:00 PM 1.84 35.312 0.152 7.42 2.53 14.02
12/22/2020 2:00:00 PM 1.84 35.312 0.152 7.42 2.39 14.02
12/22/2020 2:15:00 PM 1.86 35.348 0.152 7.42 2.45 14.05
12/22/2020 2:30:00 PM 1.85 35.33 0.152 7.42 2.46 14.06
12/22/2020 2:45:00 PM 1.85 35.33 0.152 7.42 2.69 14.05
12/22/2020 3:00:00 PM 1.84 35.312 0.152 7.42 2.43 14.05
12/22/2020 3:15:00 PM 1.82 35.276 0.152 7.43 2.51 14.05
12/22/2020 3:30:00 PM 1.77 35.186 0.152 7.42 2.52 14
12/22/2020 3:45:00 PM 1.72 35.096 0.152 7.4 2.53 13.94
12/22/2020 4:00:00 PM 1.67 35.006 0.152 7.4 2.44 13.9
12/22/2020 4:15:00 PM 1.62 34.916 0.152 7.39 2.44 13.84
12/22/2020 4:30:00 PM 1.58 34.844 0.152 7.36 2.63 13.76
12/22/2020 4:45:00 PM 1.52 34.736 0.152 7.35 2.45 13.7
12/22/2020 5:00:00 PM 1.48 34.664 0.152 7.34 2.46 13.65
12/22/2020 5:15:00 PM 1.44 34.592 0.152 7.32 2.37 13.6
12/22/2020 5:30:00 PM 1.4 34.52 0.152 7.3 2.47 13.56
12/22/2020 5:45:00 PM 1.37 34.466 0.152 7.3 2.72 13.52
12/22/2020 6:00:00 PM 1.35 34.43 0.152 7.28 2.52 13.51
12/22/2020 6:15:00 PM 1.32 34.376 0.152 7.27 2.6 13.49
12/22/2020 6:30:00 PM 1.3 34.34 0.153 7.27 2.41 13.47
12/22/2020 6:45:00 PM 1.29 34.322 0.153 7.27 2.42 13.47
12/22/2020 7:00:00 PM 1.28 34.304 0.153 7.25 2.49 13.46
12/22/2020 7:15:00 PM 1.26 34.268 0.153 7.25 2.38 13.46
12/22/2020 7:30:00 PM 1.25 34.25 0.153 7.25 2.36 13.47
12/22/2020 7:45:00 PM 1.24 34.232 0.153 7.25 2.46 13.47
12/22/2020 8:00:00 PM 1.23 34.214 0.153 7.25 2.61 13.48
12/22/2020 8:15:00 PM 1.21 34.178 0.153 7.25 2.56 13.48
12/22/2020 8:30:00 PM 1.2 34.16 0.153 7.25 2.43 13.48
12/22/2020 8:45:00 PM 1.19 34.142 0.153 7.24 2.59 13.48
12/22/2020 9:00:00 PM 1.19 34.142 0.153 7.24 2.47 13.48
12/22/2020 9:15:00 PM 1.18 34.124 0.153 7.25 2.61 13.5
12/22/2020 9:30:00 PM 1.17 34.106 0.153 7.24 2.47 13.49
12/22/2020 9:45:00 PM 1.16 34.088 0.153 7.24 2.5 13.49
12/22/2020 10:00:00 PM 1.16 34.088 0.153 7.24 2.45 13.49
12/22/2020 10:15:00 PM 1.15 34.07 0.153 7.24 2.48 13.51
12/22/2020 10:30:00 PM 1.15 34.07 0.153 7.23 2.5 13.49
12/22/2020 10:45:00 PM 1.14 34.052 0.153 7.23 2.56 13.51
12/22/2020 11:00:00 PM 1.14 34.052 0.153 7.24 2.42 13.52
12/22/2020 11:15:00 PM 1.14 34.052 0.153 7.24 2.54 13.52
12/22/2020 11:30:00 PM 1.13 34.034 0.153 7.24 2.61 13.52
12/22/2020 11:45:00 PM 1.13 34.034 0.153 7.24 2.52 13.52
12/23/2020 12:00:00 AM 1.13 34.034 0.153 7.23 2.59 13.54
12/23/2020 12:15:00 AM 1.13 34.034 0.153 7.23 2.79 13.53
12/23/2020 12:30:00 AM 1.13 34.034 0.153 7.24 2.63 13.52
12/23/2020 12:45:00 AM 1.12 34.016 0.153 7.23 2.6 13.53
12/23/2020 1:00:00 AM 1.12 34.016 0.153 7.24 2.69 13.52
12/23/2020 1:15:00 AM 1.11 33.998 0.153 7.23 2.59 13.53
12/23/2020 1:30:00 AM 1.1 33.98 0.153 7.23 2.58 13.54
12/23/2020 1:45:00 AM 1.08 33.944 0.153 7.24 2.53 13.53
12/23/2020 2:00:00 AM 1.07 33.926 0.153 7.23 2.56 13.54
12/23/2020 2:15:00 AM 1.05 33.89 0.154 7.23 2.56 13.55
12/23/2020 2:30:00 AM 1.03 33.854 0.154 7.24 2.54 13.55
12/23/2020 2:45:00 AM 1.01 33.818 0.154 7.23 2.46 13.55
12/23/2020 3:00:00 AM 1.01 33.818 0.154 7.23 2.66 13.56
12/23/2020 3:15:00 AM 0.99 33.782 0.154 7.23 2.45 13.56
12/23/2020 3:30:00 AM 0.97 33.746 0.154 7.22 2.61 13.57
12/23/2020 3:45:00 AM 0.96 33.728 0.154 7.23 2.64 13.6
12/23/2020 4:00:00 AM 0.94 33.692 0.154 7.23 2.72 13.6
12/23/2020 4:15:00 AM 0.94 33.692 0.154 7.23 2.64 13.6
12/23/2020 4:30:00 AM 0.93 33.674 0.154 7.23 2.46 13.6
12/23/2020 4:45:00 AM 0.91 33.638 0.154 7.23 2.44 13.62
12/23/2020 5:00:00 AM 0.89 33.602 0.154 7.23 2.42 13.63
12/23/2020 5:15:00 AM 0.87 33.566 0.154 7.23 2.42 13.63
12/23/2020 5:30:00 AM 0.85 33.53 0.154 7.22 3.06 13.63
12/23/2020 5:45:00 AM 0.83 33.494 0.154 7.22 2.41 13.65
12/23/2020 6:00:00 AM 0.81 33.458 0.154 7.22 2.7 13.65
12/23/2020 6:15:00 AM 0.78 33.404 0.154 7.23 2.7 13.67
12/23/2020 6:30:00 AM 0.76 33.368 0.154 7.21 2.39 13.67
12/23/2020 6:45:00 AM 0.74 33.332 0.154 7.23 2.74 13.65
12/23/2020 7:00:00 AM 0.73 33.314 0.154 7.22 2.43 13.68
12/23/2020 7:15:00 AM 0.71 33.278 0.154 7.22 2.41 13.69
12/23/2020 7:30:00 AM 0.68 33.224 0.154 7.22 2.45 13.7
12/23/2020 7:45:00 AM 0.66 33.188 0.154 7.22 2.54 13.72
12/23/2020 8:00:00 AM 0.67 33.206 0.154 7.23 2.54 13.76
12/23/2020 8:15:00 AM 0.68 33.224 0.154 7.24 2.44 13.84
12/23/2020 8:30:00 AM 0.71 33.278 0.154 7.25 2.48 13.91
12/23/2020 8:45:00 AM 0.74 33.332 0.154 7.26 2.47 14.02
12/23/2020 9:00:00 AM 0.79 33.422 0.154 7.27 2.46 14.11
12/23/2020 9:15:00 AM 0.84 33.512 0.154 7.29 2.52 14.19
12/23/2020 9:30:00 AM 0.91 33.638 0.154 7.31 2.54 14.25
12/23/2020 9:45:00 AM 1 33.8 0.154 7.32 2.45 14.3
12/23/2020 10:00:00 AM 1.1 33.98 0.154 7.34 2.39 14.35
12/23/2020 10:15:00 AM 1.17 34.106 0.154 7.35 2.5 14.39
12/23/2020 10:30:00 AM 1.25 34.25 0.153 7.36 2.4 14.4
12/23/2020 10:45:00 AM 1.34 34.412 0.153 7.37 2.43 14.39
12/23/2020 11:00:00 AM 1.43 34.574 0.153 7.38 2.53 14.42
12/23/2020 11:15:00 AM 1.52 34.736 0.153 7.4 2.38 14.42
12/23/2020 11:30:00 AM 1.59 34.862 0.153 7.41 2.45 14.41
12/23/2020 11:45:00 AM 1.66 34.988 0.153 7.41 2.41 14.39
12/23/2020 12:00:00 PM 1.73 35.114 0.153 7.43 2.4 14.37
12/23/2020 12:15:00 PM 1.83 35.294 0.153 7.43 2.47 14.35
12/23/2020 12:30:00 PM 1.9 35.42 0.153 7.42 2.44 14.36
12/23/2020 12:45:00 PM 1.98 35.564 0.153 7.44 2.52 14.32
12/23/2020 1:00:00 PM 2.06 35.708 0.153 7.45 2.48 14.32
12/23/2020 1:15:00 PM 2.13 35.834 0.152 7.44 2.55 14.29
12/23/2020 1:30:00 PM 2.18 35.924 0.152 7.45 2.43 14.24
12/23/2020 1:45:00 PM 2.23 36.014 0.152 7.45 2.49 14.23
12/23/2020 2:00:00 PM 2.27 36.086 0.152 7.46 2.4 14.2
12/23/2020 2:15:00 PM 2.3 36.14 0.152 7.45 2.44 14.19
12/23/2020 2:30:00 PM 2.32 36.176 0.152 7.46 2.5 14.18
12/23/2020 2:45:00 PM 2.32 36.176 0.152 7.46 2.38 14.16
12/23/2020 3:00:00 PM 2.31 36.158 0.152 7.45 2.47 14.14
12/23/2020 3:15:00 PM 2.28 36.104 0.152 7.46 2.39 14.13
12/23/2020 3:30:00 PM 2.24 36.032 0.152 7.45 2.39 14.09
12/23/2020 3:45:00 PM 2.18 35.924 0.152 7.45 2.44 14.06
12/23/2020 4:00:00 PM 2.12 35.816 0.152 7.44 2.39 14.01
12/23/2020 4:15:00 PM 2.06 35.708 0.152 7.43 2.36 13.95
12/23/2020 4:30:00 PM 1.99 35.582 0.152 7.41 2.49 13.91
12/23/2020 4:45:00 PM 1.91 35.438 0.152 7.39 2.41 13.81
12/23/2020 5:00:00 PM 1.82 35.276 0.152 7.37 2.41 13.75
12/23/2020 5:15:00 PM 1.76 35.168 0.153 7.35 2.45 13.68
12/23/2020 5:30:00 PM 1.7 35.06 0.153 7.34 2.6 13.62
12/23/2020 5:45:00 PM 1.64 34.952 0.153 7.32 2.48 13.57
12/23/2020 6:00:00 PM 1.59 34.862 0.153 7.3 2.42 13.53
12/23/2020 6:15:00 PM 1.55 34.79 0.153 7.28 2.59 13.48
12/23/2020 6:30:00 PM 1.52 34.736 0.153 7.28 2.55 13.47
12/23/2020 6:45:00 PM 1.49 34.682 0.153 7.27 2.43 13.46
12/23/2020 7:00:00 PM 1.46 34.628 0.153 7.26 2.7 13.43
12/23/2020 7:15:00 PM 1.43 34.574 0.153 7.25 2.51 13.43
12/23/2020 7:30:00 PM 1.41 34.538 0.153 7.25 2.44 13.41
12/23/2020 7:45:00 PM 1.39 34.502 0.153 7.25 2.57 13.42
12/23/2020 8:00:00 PM 1.38 34.484 0.153 7.25 2.51 13.43
12/23/2020 8:15:00 PM 1.37 34.466 0.153 7.24 2.57 13.45
12/23/2020 8:30:00 PM 1.36 34.448 0.153 7.24 2.63 13.44
12/23/2020 8:45:00 PM 1.36 34.448 0.153 7.24 2.62 13.43
12/23/2020 9:00:00 PM 1.35 34.43 0.153 7.24 2.52 13.43
12/23/2020 9:15:00 PM 1.35 34.43 0.153 7.23 2.57 13.42
12/23/2020 9:30:00 PM 1.35 34.43 0.153 7.24 2.78 13.42
12/23/2020 9:45:00 PM 1.35 34.43 0.153 7.24 2.85 13.4
12/23/2020 10:00:00 PM 1.35 34.43 0.153 7.24 2.57 13.42
12/23/2020 10:15:00 PM 1.35 34.43 0.153 7.24 2.71 13.41
12/23/2020 10:30:00 PM 1.35 34.43 0.153 7.24 2.62 13.43
12/23/2020 10:45:00 PM 1.35 34.43 0.153 7.24 2.59 13.43
12/23/2020 11:00:00 PM 1.36 34.448 0.153 7.23 2.56 13.43
12/23/2020 11:15:00 PM 1.36 34.448 0.153 7.23 2.91 13.41
12/23/2020 11:30:00 PM 1.36 34.448 0.153 7.23 2.75 13.41
12/23/2020 11:45:00 PM 1.37 34.466 0.153 7.24 2.79 13.4
12/24/2020 12:00:00 AM 1.38 34.484 0.153 7.24 2.73 13.39
12/24/2020 12:15:00 AM 1.39 34.502 0.153 7.24 2.65 13.37
12/24/2020 12:30:00 AM 1.4 34.52 0.153 7.23 2.81 13.39
12/24/2020 12:45:00 AM 1.4 34.52 0.153 7.23 2.76 13.38
12/24/2020 1:00:00 AM 1.4 34.52 0.153 7.23 2.67 13.37
12/24/2020 1:15:00 AM 1.4 34.52 0.153 7.23 2.85 13.36
12/24/2020 1:30:00 AM 1.4 34.52 0.153 7.23 2.67 13.38
12/24/2020 1:45:00 AM 1.39 34.502 0.153 7.24 2.9 13.37
12/24/2020 2:00:00 AM 1.37 34.466 0.153 7.24 2.96 13.38
12/24/2020 2:15:00 AM 1.36 34.448 0.153 7.24 2.78 13.38
12/24/2020 2:30:00 AM 1.35 34.43 0.153 7.24 2.74 13.37
12/24/2020 2:45:00 AM 1.34 34.412 0.153 7.24 2.98 13.37
12/24/2020 3:00:00 AM 1.33 34.394 0.153 7.24 2.77 13.39
12/24/2020 3:15:00 AM 1.33 34.394 0.153 7.24 3.01 13.39
12/24/2020 3:30:00 AM 1.33 34.394 0.153 7.23 2.63 13.38
12/24/2020 3:45:00 AM 1.34 34.412 0.153 7.23 2.94 13.37
12/24/2020 4:00:00 AM 1.35 34.43 0.153 7.24 2.84 13.39
12/24/2020 4:15:00 AM 1.36 34.448 0.153 7.24 3.18 13.38
12/24/2020 4:30:00 AM 1.38 34.484 0.153 7.24 2.66 13.38
12/24/2020 4:45:00 AM 1.41 34.538 0.153 7.24 2.85 13.36
12/24/2020 5:00:00 AM 1.43 34.574 0.153 7.24 2.89 13.36
12/24/2020 5:15:00 AM 1.46 34.628 0.153 7.24 2.74 13.35
12/24/2020 5:30:00 AM 1.49 34.682 0.153 7.23 2.68 13.33
12/24/2020 5:45:00 AM 1.52 34.736 0.153 7.24 2.74 13.33
12/24/2020 6:00:00 AM 1.55 34.79 0.153 7.25 2.64 13.31
12/24/2020 6:15:00 AM 1.58 34.844 0.153 7.24 2.63 13.3
12/24/2020 6:30:00 AM 1.6 34.88 0.153 7.24 2.73 13.29
12/24/2020 6:45:00 AM 1.64 34.952 0.153 7.24 2.63 13.28
12/24/2020 7:00:00 AM 1.66 34.988 0.153 7.24 2.62 13.25
12/24/2020 7:15:00 AM 1.7 35.06 0.153 7.24 2.65 13.24
12/24/2020 7:30:00 AM 1.73 35.114 0.153 7.24 2.88 13.23
12/24/2020 7:45:00 AM 1.76 35.168 0.153 7.24 2.79 13.22
12/24/2020 8:00:00 AM 1.79 35.222 0.153 7.24 2.73 13.22
12/24/2020 8:15:00 AM 1.81 35.258 0.153 7.24 2.82 13.21
12/24/2020 8:30:00 AM 1.84 35.312 0.152 7.25 2.9 13.23
12/24/2020 8:45:00 AM 1.86 35.348 0.152 7.25 2.89 13.29
12/24/2020 9:00:00 AM 1.88 35.384 0.152 7.26 3.55 13.34
12/24/2020 9:15:00 AM 1.92 35.456 0.152 7.27 2.75 13.44
12/24/2020 9:30:00 AM 1.96 35.528 0.152 7.29 2.8 13.52
12/24/2020 9:45:00 AM 2.01 35.618 0.151 7.3 3.17 13.6
12/24/2020 10:00:00 AM 2.05 35.69 0.151 7.32 2.95 13.65
12/24/2020 10:15:00 AM 2.1 35.78 0.151 7.34 2.87 13.7
12/24/2020 10:30:00 AM 2.15 35.87 0.15 7.35 3.32 13.74
12/24/2020 10:45:00 AM 2.19 35.942 0.15 7.36 3.36 13.78
12/24/2020 11:00:00 AM 2.23 36.014 0.15 7.37 3.01 13.82
12/24/2020 11:15:00 AM 2.27 36.086 0.149 7.39 3.11 13.83
12/24/2020 11:30:00 AM 2.31 36.158 0.148 7.4 3.21 13.83
12/24/2020 11:45:00 AM 2.33 36.194 0.148 7.4 3.41 13.82
12/24/2020 12:00:00 PM 2.35 36.23 0.147 7.41 3.25 13.84
12/24/2020 12:15:00 PM 2.35 36.23 0.147 7.42 3.91 13.82
12/24/2020 12:30:00 PM 2.35 36.23 0.146 7.42 3.87 13.83
12/24/2020 12:45:00 PM 2.35 36.23 0.145 7.42 4.07 13.8
12/24/2020 1:00:00 PM 2.33 36.194 0.145 7.42 4.42 13.79
12/24/2020 1:15:00 PM 2.3 36.14 0.144 7.43 5.13 13.79
12/24/2020 1:30:00 PM 2.26 36.068 0.143 7.42 5.15 13.78
12/24/2020 1:45:00 PM 2.21 35.978 0.143 7.42 5.91 13.76
12/24/2020 2:00:00 PM 2.12 35.816 0.142 7.41 7.87 13.76
12/24/2020 2:15:00 PM 2.02 35.636 0.141 7.42 9.2 13.74
12/24/2020 2:30:00 PM 1.89 35.402 0.14 7.41 10.82 13.74
12/24/2020 2:45:00 PM 1.7 35.06 0.139 7.41 15.63 13.74
12/24/2020 3:00:00 PM 1.44 34.592 0.137 7.39 24.92 13.76
12/24/2020 3:15:00 PM 1.16 34.088 0.136 7.35 38.87 13.77
12/24/2020 3:30:00 PM 0.88 33.584 0.136 7.3 39.99 13.79
12/24/2020 3:45:00 PM 0.63 33.134 0.141 7.26 71.31 13.81
12/24/2020 4:00:00 PM 0.34 32.612 0.141 7.16 141.93 13.85
12/24/2020 4:15:00 PM 0.08 32.144 0.137 7.07 310.08 13.93
12/24/2020 4:30:00 PM -0.05 31.91 0.131 7.03 390.31 14.03
12/24/2020 4:45:00 PM -0.05 31.91 0.123 6.99 764.32 14.08
12/24/2020 5:00:00 PM -0.05 31.91 0.113 7.07 784.94 14.11
12/24/2020 5:15:00 PM -0.05 31.91 0.108 7.01 696.78 14.15
12/24/2020 5:30:00 PM -0.05 31.91 0.102 6.98 808.69 14.17
12/24/2020 5:45:00 PM -0.05 31.91 0.098 6.96 978.94 14.2
12/24/2020 6:00:00 PM -0.05 31.91 0.094 6.93 1032.22 14.2
12/24/2020 6:15:00 PM -0.05 31.91 0.091 6.91 1052.15 14.16
12/24/2020 6:30:00 PM -0.05 31.91 0.088 6.87 1008.38 14.16
12/24/2020 6:45:00 PM -0.05 31.91 0.084 6.85 894.59 14.18
12/24/2020 7:00:00 PM -0.04 31.928 0.082 6.81 1036.92 14.19
12/24/2020 7:15:00 PM -0.05 31.91 0.079 6.66 1315.88 14.17
12/24/2020 7:30:00 PM -0.05 31.91 0.047 6.59 1052.24 14.17
12/24/2020 7:45:00 PM -0.01 31.982 0.074 6.66 999.47 14.16
12/24/2020 8:00:00 PM -0.01 31.982 0.072 6.63 1150.54 14.16
12/24/2020 8:15:00 PM -0.02 31.964 0.071 6.66 1159.78 14.17
12/24/2020 8:30:00 PM -0.01 31.982 0.038 6.56 1500.62 14.19
12/24/2020 8:45:00 PM -0.05 31.91 0.046 6.69 1236.34 14.17
12/24/2020 9:00:00 PM -0.02 31.964 0.046 6.59 1637.75 14.18
12/24/2020 9:15:00 PM 0.02 32.036 0.04 6.62 1235.41 14.17
12/24/2020 9:30:00 PM 0.05 32.09 0.034 6.6 1379.02 14.15
12/24/2020 9:45:00 PM 0.15 32.27 0.032 6.58 1325.81 14.13
12/24/2020 10:00:00 PM 0.22 32.396 0.038 6.58 1521.04 14.09
12/24/2020 10:15:00 PM 0.27 32.486 0.033 6.56 1247.85 14.04
12/24/2020 10:30:00 PM 0.34 32.612 0.039 6.59 1559.12 14.01
12/24/2020 10:45:00 PM 0.4 32.72 0.034 6.57 1028.64 13.98
12/24/2020 11:00:00 PM 0.45 32.81 0.041 6.56 1198.42 13.96
12/24/2020 11:15:00 PM 0.44 32.792 0.036 6.54 1108.68 13.95
12/24/2020 11:30:00 PM 0.49 32.882 0.033 6.56 912.07 13.92
12/24/2020 11:45:00 PM 0.52 32.936 0.031 6.56 1024.39 13.92
12/25/2020 12:00:00 AM 0.56 33.008 0.045 6.54 1086.35 13.89
12/25/2020 12:15:00 AM 0.55 32.99 0.04 6.53 1057.24 13.87
12/25/2020 12:30:00 AM 0.59 33.062 0.036 6.52 1077.95 13.85
12/25/2020 12:45:00 AM 0.62 33.116 0.033 6.66 1041.14 13.83
12/25/2020 1:00:00 AM 0.68 33.224 0.031 6.67 1330.36 13.79
12/25/2020 1:15:00 AM 0.74 33.332 0.031 6.69 1065.16 13.77
12/25/2020 1:30:00 AM 0.81 33.458 0.046 6.66 914.2 13.74
12/25/2020 1:45:00 AM 0.88 33.584 0.044 6.67 791.86 13.72
12/25/2020 2:00:00 AM 0.92 33.656 0.042 6.67 839.5 13.69
12/25/2020 2:15:00 AM 0.96 33.728 0.042 6.7 928.24 13.66
12/25/2020 2:30:00 AM 1 33.8 0.04 6.71 913.78 13.66
12/25/2020 2:45:00 AM 0.98 33.764 0.04 6.66 786.76 13.67
12/25/2020 3:00:00 AM 0.97 33.746 0.04 6.68 1064.17 13.68
12/25/2020 3:15:00 AM 0.93 33.674 0.039 6.66 914.04 13.68
12/25/2020 3:30:00 AM 0.87 33.566 0.038 6.65 1180.82 13.7
12/25/2020 3:45:00 AM 0.84 33.512 0.037 6.63 1039.54 13.71
12/25/2020 4:00:00 AM 0.85 33.53 0.036 6.62 1135.92 13.71
12/25/2020 4:15:00 AM 0.9 33.62 0.034 6.6 1294.51 13.71
12/25/2020 4:30:00 AM 0.93 33.674 0.034 6.6 1084.03 13.69
12/25/2020 4:45:00 AM 0.96 33.728 0.033 6.58 994.33 13.68
12/25/2020 5:00:00 AM 0.98 33.764 0.033 6.58 1286.38 13.67
12/25/2020 5:15:00 AM 0.97 33.746 0.032 6.59 1074.37 13.66
12/25/2020 5:30:00 AM 0.96 33.728 0.031 6.57 1119.29 13.68
12/25/2020 5:45:00 AM 0.93 33.674 0.03 6.55 1173.45 13.68
12/25/2020 6:00:00 AM 0.94 33.692 0.029 6.58 1456.59 13.68
12/25/2020 6:15:00 AM 0.99 33.782 0.028 6.66 1104.21 13.67
12/25/2020 6:30:00 AM 1.08 33.944 0.028 6.63 1427.18 13.64
12/25/2020 6:45:00 AM 1.19 34.142 0.027 6.67 934.75 13.6
12/25/2020 7:00:00 AM 1.3 34.34 0.04 6.66 855.87 13.58
12/25/2020 7:15:00 AM 1.39 34.502 0.039 6.64 908.17 13.54
12/25/2020 7:30:00 AM 1.49 34.682 0.039 6.64 866.78 13.5
12/25/2020 7:45:00 AM 1.56 34.808 0.039 6.65 644.9 13.48
12/25/2020 8:00:00 AM 1.63 34.934 0.039 6.66 752.14 13.46
12/25/2020 8:15:00 AM 1.69 35.042 0.039 6.68 937.92 13.43
12/25/2020 8:30:00 AM 1.75 35.15 0.038 6.68 1044.13 13.42
12/25/2020 8:45:00 AM 1.79 35.222 0.037 6.72 782.51 13.4
12/25/2020 9:00:00 AM 1.84 35.312 0.037 6.72 644.96 13.38
12/25/2020 9:15:00 AM 1.85 35.33 0.036 6.74 722.88 13.36
12/25/2020 9:30:00 AM 1.84 35.312 0.036 6.75 696.23 13.36
12/25/2020 9:45:00 AM 1.85 35.33 0.035 6.75 601.25 13.36
12/25/2020 10:00:00 AM 1.85 35.33 0.034 6.75 603.56 13.36
12/25/2020 10:15:00 AM 1.85 35.33 0.034 6.75 552.1 13.36
12/25/2020 10:30:00 AM 1.85 35.33 0.033 6.75 701.62 13.36
12/25/2020 10:45:00 AM 1.83 35.294 0.033 6.76 463.85 13.36
12/25/2020 11:00:00 AM 1.83 35.294 0.033 6.76 424.06 13.37
12/25/2020 11:15:00 AM 1.83 35.294 0.033 6.69 426.63 13.37
12/25/2020 11:30:00 AM 1.85 35.33 0.032 6.75 472.45 13.37
12/25/2020 11:45:00 AM 1.87 35.366 0.032 6.75 660.16 13.36
12/25/2020 12:00:00 PM 1.91 35.438 0.032 6.77 480.93 13.35
12/25/2020 12:15:00 PM 1.93 35.474 0.032 6.72 412.75 13.34
12/25/2020 12:30:00 PM 1.95 35.51 0.032 6.77 447.8 13.33
12/25/2020 12:45:00 PM 1.95 35.51 0.032 6.77 544.77 13.32
12/25/2020 1:00:00 PM 1.96 35.528 0.031 6.77 362.37 13.31
12/25/2020 1:15:00 PM 1.97 35.546 0.032 6.78 349.45 13.3
12/25/2020 1:30:00 PM 1.99 35.582 0.043 6.71 265.28 13.3
12/25/2020 1:45:00 PM 2.01 35.618 0.041 6.77 320.83 13.29
12/25/2020 2:00:00 PM 2.04 35.672 0.039 6.7 347.33 13.28
12/25/2020 2:15:00 PM 2.06 35.708 0.039 6.77 439.06 13.27
12/25/2020 2:30:00 PM 2.08 35.744 0.037 6.77 338.82 13.26
12/25/2020 2:45:00 PM 2.1 35.78 0.036 6.72 279.79 13.25
12/25/2020 3:00:00 PM 2.12 35.816 0.035 6.77 445.96 13.24
12/25/2020 3:15:00 PM 2.14 35.852 0.034 6.8 263.78 13.23
12/25/2020 3:30:00 PM 2.15 35.87 0.034 6.79 341.33 13.22
12/25/2020 3:45:00 PM 2.15 35.87 0.042 6.79 328.8 13.21
12/25/2020 4:00:00 PM 2.15 35.87 0.04 6.79 504.04 13.21
12/25/2020 4:15:00 PM 2.15 35.87 0.038 6.78 286.2 13.21
12/25/2020 4:30:00 PM 2.14 35.852 0.037 6.79 219.63 13.21
12/25/2020 4:45:00 PM 2.14 35.852 0.035 6.8 260.35 13.2
12/25/2020 5:00:00 PM 2.13 35.834 0.033 6.79 282.32 13.21
12/25/2020 5:15:00 PM 2.12 35.816 0.043 6.74 260.17 13.2
12/25/2020 5:30:00 PM 2.11 35.798 0.04 6.78 212.95 13.21
12/25/2020 5:45:00 PM 2.1 35.78 0.038 6.79 268.87 13.22
12/25/2020 6:00:00 PM 2.09 35.762 0.037 6.8 183.96 13.22
12/25/2020 6:15:00 PM 2.08 35.744 0.035 6.8 203.78 13.22
12/25/2020 6:30:00 PM 2.08 35.744 0.042 6.77 197.16 13.21
12/25/2020 6:45:00 PM 2.07 35.726 0.038 6.81 276.4 13.22
12/25/2020 7:00:00 PM 2.06 35.708 0.037 6.81 215.65 13.22
12/25/2020 7:15:00 PM 2.05 35.69 0.035 6.8 236.39 13.22
12/25/2020 7:30:00 PM 2.03 35.654 0.044 6.78 230.07 13.22
12/25/2020 7:45:00 PM 2 35.6 0.041 6.81 219.33 13.23
12/25/2020 8:00:00 PM 1.99 35.582 0.039 6.81 235.61 13.25
12/25/2020 8:15:00 PM 1.97 35.546 0.037 6.82 200.86 13.25
12/25/2020 8:30:00 PM 1.95 35.51 0.039 6.73 240.04 13.26
12/25/2020 8:45:00 PM 1.92 35.456 0.041 6.81 311.3 13.26
12/25/2020 9:00:00 PM 1.9 35.42 0.044 6.72 189.61 13.28
12/25/2020 9:15:00 PM 1.86 35.348 0.044 6.81 175.18 13.3
12/25/2020 9:30:00 PM 1.84 35.312 0.043 6.77 173.7 13.31
12/25/2020 9:45:00 PM 1.81 35.258 0.047 6.8 184.4 13.31
12/25/2020 10:00:00 PM 1.79 35.222 0.046 6.8 192.62 13.32
12/25/2020 10:15:00 PM 1.76 35.168 0.044 6.81 220.43 13.34
12/25/2020 10:30:00 PM 1.74 35.132 0.044 6.81 174.35 13.35
12/25/2020 10:45:00 PM 1.72 35.096 0.037 6.78 164.54 13.36
12/25/2020 11:00:00 PM 1.69 35.042 0.041 6.8 269.85 13.37
12/25/2020 11:15:00 PM 1.66 34.988 0.069 6.79 140.95 13.39
12/25/2020 11:30:00 PM 1.64 34.952 0.069 6.81 136.23 13.39
12/25/2020 11:45:00 PM 1.61 34.898 0.069 6.79 195.88 13.4
12/26/2020 12:00:00 AM 1.58 34.844 0.07 6.78 146.9 13.42
12/26/2020 12:15:00 AM 1.54 34.772 0.07 6.78 157.42 13.43
12/26/2020 12:30:00 AM 1.51 34.718 0.07 6.79 133.02 13.44
12/26/2020 12:45:00 AM 1.48 34.664 0.071 6.81 130.52 13.45
12/26/2020 1:00:00 AM 1.45 34.61 0.071 6.78 192.04 13.45
12/26/2020 1:15:00 AM 1.4 34.52 0.071 6.8 134.64 13.48
12/26/2020 1:30:00 AM 1.37 34.466 0.071 6.81 116.64 13.49
12/26/2020 1:45:00 AM 1.33 34.394 0.072 6.81 124.92 13.5
12/26/2020 2:00:00 AM 1.3 34.34 0.072 6.75 130.26 13.52
12/26/2020 2:15:00 AM 1.26 34.268 0.072 6.82 114.47 13.53
12/26/2020 2:30:00 AM 1.23 34.214 0.072 6.81 107.79 13.54
12/26/2020 2:45:00 AM 1.21 34.178 0.073 6.77 135.07 13.55
12/26/2020 3:00:00 AM 1.19 34.142 0.073 6.82 125.4 13.56
12/26/2020 3:15:00 AM 1.17 34.106 0.073 6.81 106.81 13.57
12/26/2020 3:30:00 AM 1.16 34.088 0.073 6.82 115.48 13.58
12/26/2020 3:45:00 AM 1.14 34.052 0.074 6.82 155.29 13.59
12/26/2020 4:00:00 AM 1.13 34.034 0.074 6.82 109.27 13.6
12/26/2020 4:15:00 AM 1.11 33.998 0.074 6.82 112.27 13.59
12/26/2020 4:30:00 AM 1.08 33.944 0.074 6.82 108.51 13.62
12/26/2020 4:45:00 AM 1.06 33.908 0.075 6.82 90.61 13.61
12/26/2020 5:00:00 AM 1.04 33.872 0.075 6.82 99.42 13.63
12/26/2020 5:15:00 AM 1.03 33.854 0.075 6.83 95.75 13.63
12/26/2020 5:30:00 AM 1 33.8 0.075 6.83 89.57 13.64
12/26/2020 5:45:00 AM 0.98 33.764 0.076 6.82 105.93 13.65
12/26/2020 6:00:00 AM 0.95 33.71 0.076 6.82 147.02 13.66
12/26/2020 6:15:00 AM 0.93 33.674 0.076 6.83 87.86 13.67
12/26/2020 6:30:00 AM 0.92 33.656 0.076 6.83 108.52 13.68
12/26/2020 6:45:00 AM 0.9 33.62 0.077 6.82 87.31 13.68
12/26/2020 7:00:00 AM 0.87 33.566 0.077 6.83 119.57 13.69
12/26/2020 7:15:00 AM 0.84 33.512 0.077 6.83 96.25 13.71
12/26/2020 7:30:00 AM 0.81 33.458 0.077 6.83 91.49 13.72
12/26/2020 7:45:00 AM 0.79 33.422 0.077 6.83 121.5 13.72
12/26/2020 8:00:00 AM 0.77 33.386 0.078 6.83 102.76 13.73
12/26/2020 8:15:00 AM 0.74 33.332 0.078 6.83 108.26 13.74
12/26/2020 8:30:00 AM 0.73 33.314 0.078 6.83 79.41 13.75
12/26/2020 8:45:00 AM 0.72 33.296 0.078 6.8 81.87 13.77
12/26/2020 9:00:00 AM 0.72 33.296 0.079 6.84 103.61 13.77
12/26/2020 9:15:00 AM 0.73 33.314 0.079 6.84 90.04 13.77
12/26/2020 9:30:00 AM 0.75 33.35 0.079 6.84 88.97 13.78
12/26/2020 9:45:00 AM 0.77 33.386 0.079 6.84 106.05 13.78
12/26/2020 10:00:00 AM 0.8 33.44 0.08 6.85 79.89 13.77
12/26/2020 10:15:00 AM 0.84 33.512 0.08 6.85 66 13.76
12/26/2020 10:30:00 AM 0.89 33.602 0.08 6.85 81.85 13.76
12/26/2020 10:45:00 AM 0.93 33.674 0.08 6.85 78.53 13.74
12/26/2020 11:00:00 AM 0.97 33.746 0.08 6.86 88.81 13.73
12/26/2020 11:15:00 AM 1.01 33.818 0.081 6.86 98.29 13.71
12/26/2020 11:30:00 AM 1.04 33.872 0.081 6.85 86.47 13.7
12/26/2020 11:45:00 AM 1.05 33.89 0.081 6.87 86.46 13.69
12/26/2020 12:00:00 PM 1.08 33.944 0.081 6.86 93.05 13.69
12/26/2020 12:15:00 PM 1.09 33.962 0.082 6.86 98.96 13.67
12/26/2020 12:30:00 PM 1.11 33.998 0.082 6.87 73.72 13.66
12/26/2020 12:45:00 PM 1.14 34.052 0.082 6.87 78.02 13.65
12/26/2020 1:00:00 PM 1.17 34.106 0.082 6.87 98.15 13.65
12/26/2020 1:15:00 PM 1.2 34.16 0.082 6.88 75.58 13.63
12/26/2020 1:30:00 PM 1.22 34.196 0.082 6.87 84.12 13.62
12/26/2020 1:45:00 PM 1.24 34.232 0.082 6.88 108.05 13.61
12/26/2020 2:00:00 PM 1.26 34.268 0.083 6.88 87.16 13.6
12/26/2020 2:15:00 PM 1.28 34.304 0.083 6.89 74.86 13.59
12/26/2020 2:30:00 PM 1.3 34.34 0.083 6.88 101.12 13.58
12/26/2020 2:45:00 PM 1.32 34.376 0.083 6.88 106.68 13.57
12/26/2020 3:00:00 PM 1.33 34.394 0.083 6.88 76.13 13.56
12/26/2020 3:15:00 PM 1.34 34.412 0.083 6.89 74.04 13.56
12/26/2020 3:30:00 PM 1.34 34.412 0.084 6.9 91.35 13.55
12/26/2020 3:45:00 PM 1.33 34.394 0.084 6.9 87.09 13.55
12/26/2020 4:00:00 PM 1.32 34.376 0.085 6.89 86.05 13.54
12/26/2020 4:15:00 PM 1.31 34.358 0.085 6.9 83.65 13.54
12/26/2020 4:30:00 PM 1.3 34.34 0.085 6.89 74.46 13.54
12/26/2020 4:45:00 PM 1.27 34.286 0.085 6.87 79.56 13.56
12/26/2020 5:00:00 PM 1.26 34.268 0.085 6.9 78.67 13.55
12/26/2020 5:15:00 PM 1.24 34.232 0.085 6.9 67.98 13.56
12/26/2020 5:30:00 PM 1.23 34.214 0.086 6.9 66.16 13.57
12/26/2020 5:45:00 PM 1.21 34.178 0.086 6.89 69.86 13.57
12/26/2020 6:00:00 PM 1.19 34.142 0.086 6.9 64.95 13.57
12/26/2020 6:15:00 PM 1.18 34.124 0.086 6.9 76.63 13.59
12/26/2020 6:30:00 PM 1.16 34.088 0.086 6.9 69.36 13.59
12/26/2020 6:45:00 PM 1.15 34.07 0.086 6.9 67.19 13.6
12/26/2020 7:00:00 PM 1.12 34.016 0.086 6.9 64.95 13.61
12/26/2020 7:15:00 PM 1.09 33.962 0.087 6.89 64.77 13.62
12/26/2020 7:30:00 PM 1.09 33.962 0.087 6.87 74.55 13.6
12/26/2020 7:45:00 PM 1.05 33.89 0.087 6.9 77.12 13.61
12/26/2020 8:00:00 PM 0.99 33.782 0.087 6.9 68.83 13.66
12/26/2020 8:15:00 PM 1.01 33.818 0.087 6.9 64.65 13.62
12/26/2020 8:30:00 PM 0.97 33.746 0.087 6.89 61.64 13.65
12/26/2020 8:45:00 PM 0.91 33.638 0.087 6.9 91.91 13.68
12/26/2020 9:00:00 PM 0.9 33.62 0.088 6.9 70.67 13.7
12/26/2020 9:15:00 PM 0.89 33.602 0.088 6.89 66.16 13.7
12/26/2020 9:30:00 PM 0.89 33.602 0.088 6.85 58.07 13.69
12/26/2020 9:45:00 PM 0.87 33.566 0.088 6.9 68.99 13.7
12/26/2020 10:00:00 PM 0.85 33.53 0.088 6.89 55.21 13.7
12/26/2020 10:15:00 PM 0.83 33.494 0.088 6.89 65.84 13.72
12/26/2020 10:30:00 PM 0.82 33.476 0.088 6.89 59.07 13.72
12/26/2020 10:45:00 PM 0.81 33.458 0.089 6.89 58.54 13.73
12/26/2020 11:00:00 PM 0.8 33.44 0.089 6.87 62.22 13.74
12/26/2020 11:15:00 PM 0.8 33.44 0.089 6.89 73.16 13.74
12/26/2020 11:30:00 PM 0.8 33.44 0.089 6.89 64.72 13.74
12/26/2020 11:45:00 PM 0.79 33.422 0.089 6.89 70.96 13.73
12/27/2020 12:00:00 AM 0.78 33.404 0.089 6.83 67.49 13.74
12/27/2020 12:15:00 AM 0.78 33.404 0.09 6.89 58.12 13.75
12/27/2020 12:30:00 AM 0.77 33.386 0.09 6.89 64.66 13.74
12/27/2020 12:45:00 AM 0.77 33.386 0.09 6.88 62.06 13.74
12/27/2020 1:00:00 AM 0.78 33.404 0.09 6.89 58.03 13.74
12/27/2020 1:15:00 AM 0.78 33.404 0.09 6.89 59.07 13.74
12/27/2020 1:30:00 AM 0.78 33.404 0.09 6.89 57.19 13.74
12/27/2020 1:45:00 AM 0.79 33.422 0.091 6.88 60.77 13.73
12/27/2020 2:00:00 AM 0.79 33.422 0.091 6.88 61.81 13.74
12/27/2020 2:15:00 AM 0.8 33.44 0.091 6.88 57.35 13.75
12/27/2020 2:30:00 AM 0.8 33.44 0.091 6.89 57.97 13.75
12/27/2020 2:45:00 AM 0.81 33.458 0.091 6.87 54.72 13.74
12/27/2020 3:00:00 AM 0.81 33.458 0.091 6.88 51.2 13.74
12/27/2020 3:15:00 AM 0.82 33.476 0.092 6.88 52.07 13.75
12/27/2020 3:30:00 AM 0.83 33.494 0.092 6.87 52.82 13.73
12/27/2020 3:45:00 AM 0.83 33.494 0.092 6.88 50.66 13.74
12/27/2020 4:00:00 AM 0.82 33.476 0.092 6.87 51.75 13.76
12/27/2020 4:15:00 AM 0.83 33.494 0.092 6.86 51.87 13.74
12/27/2020 4:30:00 AM 0.83 33.494 0.092 6.87 56.32 13.74
12/27/2020 4:45:00 AM 0.83 33.494 0.093 6.87 51.62 13.74
12/27/2020 5:00:00 AM 0.84 33.512 0.093 6.87 60.16 13.75
12/27/2020 5:15:00 AM 0.83 33.494 0.093 6.87 50.22 13.75
12/27/2020 5:30:00 AM 0.84 33.512 0.093 6.87 52.37 13.75
12/27/2020 5:45:00 AM 0.84 33.512 0.093 6.88 50.72 13.74
12/27/2020 6:00:00 AM 0.83 33.494 0.093 6.88 55.83 13.76
12/27/2020 6:15:00 AM 0.82 33.476 0.093 6.9 61.44 13.8
12/27/2020 6:30:00 AM 0.81 33.458 0.093 6.9 59.95 13.82
12/27/2020 6:45:00 AM 0.81 33.458 0.094 6.92 49.78 13.82
12/27/2020 7:00:00 AM 0.82 33.476 0.094 6.92 54.2 13.83
12/27/2020 7:15:00 AM 0.83 33.494 0.094 6.92 65.04 13.82
12/27/2020 7:30:00 AM 0.83 33.494 0.094 6.92 49.04 13.82
12/27/2020 7:45:00 AM 0.84 33.512 0.094 6.92 49.14 13.82
12/27/2020 8:00:00 AM 0.85 33.53 0.094 6.92 60.69 13.82
12/27/2020 8:15:00 AM 0.86 33.548 0.094 6.92 47.23 13.82
12/27/2020 8:30:00 AM 0.87 33.566 0.095 6.87 48.49 13.82
12/27/2020 8:45:00 AM 0.88 33.584 0.095 6.92 48.27 13.82
12/27/2020 9:00:00 AM 0.9 33.62 0.095 6.92 49.37 13.81
12/27/2020 9:15:00 AM 0.91 33.638 0.095 6.92 54.17 13.81
12/27/2020 9:30:00 AM 0.93 33.674 0.095 6.92 50.21 13.81
12/27/2020 9:45:00 AM 0.96 33.728 0.095 6.92 76.33 13.75
12/27/2020 10:00:00 AM 0.98 33.764 0.095 6.92 52.65 13.79
12/27/2020 10:15:00 AM 1.02 33.836 0.095 6.92 50.9 13.78
12/27/2020 10:30:00 AM 1.06 33.908 0.096 6.89 52.8 13.78
12/27/2020 10:45:00 AM 1.1 33.98 0.096 6.93 47.8 13.78
12/27/2020 11:00:00 AM 1.14 34.052 0.096 6.92 52.79 13.74
12/27/2020 11:15:00 AM 1.18 34.124 0.096 6.92 54.05 13.74
12/27/2020 11:30:00 AM 1.25 34.25 0.096 6.93 50.76 13.73
12/27/2020 11:45:00 AM 1.29 34.322 0.096 6.93 49.22 13.72
12/27/2020 12:00:00 PM 1.37 34.466 0.096 6.92 53.91 13.69
12/27/2020 12:15:00 PM 1.47 34.646 0.096 6.93 49.69 13.67
12/27/2020 12:30:00 PM 1.56 34.808 0.096 6.91 48.17 13.65
12/27/2020 12:45:00 PM 1.62 34.916 0.096 6.94 47.77 13.61
12/27/2020 1:00:00 PM 1.67 35.006 0.096 6.94 77.56 13.6
12/27/2020 1:15:00 PM 1.73 35.114 0.097 6.94 52.19 13.57
12/27/2020 1:30:00 PM 1.78 35.204 0.097 6.94 51.82 13.55
12/27/2020 1:45:00 PM 1.82 35.276 0.097 6.94 53.32 13.51
12/27/2020 2:00:00 PM 1.87 35.366 0.097 6.94 48.47 13.49
12/27/2020 2:15:00 PM 1.92 35.456 0.097 6.95 50.4 13.49
12/27/2020 2:30:00 PM 1.93 35.474 0.097 6.94 49.36 13.47
12/27/2020 2:45:00 PM 1.94 35.492 0.097 6.95 52.08 13.45
12/27/2020 3:00:00 PM 1.95 35.51 0.097 6.9 47.25 13.43
12/27/2020 3:15:00 PM 1.94 35.492 0.097 6.95 53.25 13.43
12/27/2020 3:30:00 PM 1.92 35.456 0.097 6.95 50.67 13.43
12/27/2020 3:45:00 PM 1.89 35.402 0.098 6.95 53.09 13.43
12/27/2020 4:00:00 PM 1.87 35.366 0.098 6.94 49.73 13.43
12/27/2020 4:15:00 PM 1.85 35.33 0.098 6.92 53.64 13.43
12/27/2020 4:30:00 PM 1.82 35.276 0.098 6.94 52.21 13.43
12/27/2020 4:45:00 PM 1.79 35.222 0.098 6.95 54.75 13.44
12/27/2020 5:00:00 PM 1.77 35.186 0.098 6.94 59.78 13.44
12/27/2020 5:15:00 PM 1.75 35.15 0.098 6.94 53.96 13.45
12/27/2020 5:30:00 PM 1.72 35.096 0.098 6.94 52.91 13.45
12/27/2020 5:45:00 PM 1.69 35.042 0.098 6.94 53.73 13.46
12/27/2020 6:00:00 PM 1.66 34.988 0.099 6.94 60.56 13.47
12/27/2020 6:15:00 PM 1.64 34.952 0.099 6.94 62.42 13.47
12/27/2020 6:30:00 PM 1.61 34.898 0.099 6.94 50.9 13.48
12/27/2020 6:45:00 PM 1.58 34.844 0.099 6.92 50.81 13.48
12/27/2020 7:00:00 PM 1.55 34.79 0.099 6.89 52.77 13.49
12/27/2020 7:15:00 PM 1.53 34.754 0.099 6.92 52.03 13.49
12/27/2020 7:30:00 PM 1.5 34.7 0.099 6.92 60.04 13.49
12/27/2020 7:45:00 PM 1.48 34.664 0.099 6.92 51.92 13.51
12/27/2020 8:00:00 PM 1.46 34.628 0.099 6.91 52.04 13.5
12/27/2020 8:15:00 PM 1.44 34.592 0.099 6.91 58.17 13.51
12/27/2020 8:30:00 PM 1.42 34.556 0.1 6.92 66.36 13.52
12/27/2020 8:45:00 PM 1.4 34.52 0.1 6.93 64.01 13.54
12/27/2020 9:00:00 PM 1.39 34.502 0.1 6.93 59.52 13.55
12/27/2020 9:15:00 PM 1.37 34.466 0.1 6.9 54.75 13.56
12/27/2020 9:30:00 PM 1.36 34.448 0.1 6.92 75.98 13.56
12/27/2020 9:45:00 PM 1.34 34.412 0.1 6.93 73.61 13.56
12/27/2020 10:00:00 PM 1.34 34.412 0.1 6.9 52.17 13.57
12/27/2020 10:15:00 PM 1.34 34.412 0.1 6.92 57.16 13.55
12/27/2020 10:30:00 PM 1.34 34.412 0.1 6.91 53.99 13.53
12/27/2020 10:45:00 PM 1.34 34.412 0.101 6.93 56.85 13.57
12/27/2020 11:00:00 PM 1.33 34.394 0.101 6.91 54.58 13.57
12/27/2020 11:15:00 PM 1.33 34.394 0.101 6.91 52.83 13.56
12/27/2020 11:30:00 PM 1.33 34.394 0.101 6.88 51.11 13.56
12/27/2020 11:45:00 PM 1.33 34.394 0.101 6.92 53.58 13.54
12/28/2020 12:00:00 AM 1.32 34.376 0.101 6.92 51.95 13.54
12/28/2020 12:15:00 AM 1.32 34.376 0.101 6.92 54.32 13.57
12/28/2020 12:30:00 AM 1.31 34.358 0.101 6.89 57.14 13.54
12/28/2020 12:45:00 AM 1.31 34.358 0.101 6.92 54.53 13.54
12/28/2020 1:00:00 AM 1.3 34.34 0.101 6.92 56.19 13.53
12/28/2020 1:15:00 AM 1.29 34.322 0.102 6.92 57.79 13.55
12/28/2020 1:30:00 AM 1.28 34.304 0.102 6.92 52.08 13.55
12/28/2020 1:45:00 AM 1.28 34.304 0.102 6.93 66.39 13.57
12/28/2020 2:00:00 AM 1.27 34.286 0.102 6.93 52.75 13.55
12/28/2020 2:15:00 AM 1.26 34.268 0.102 6.92 58.74 13.54
12/28/2020 2:30:00 AM 1.25 34.25 0.102 6.93 56.57 13.54
12/28/2020 2:45:00 AM 1.24 34.232 0.102 6.93 50.02 13.55
12/28/2020 3:00:00 AM 1.23 34.214 0.102 6.92 49.07 13.56
12/28/2020 3:15:00 AM 1.22 34.196 0.102 6.93 49.26 13.55
12/28/2020 3:30:00 AM 1.21 34.178 0.102 6.92 50.41 13.55
12/28/2020 3:45:00 AM 1.21 34.178 0.103 6.93 49.36 13.56
12/28/2020 4:00:00 AM 1.21 34.178 0.103 6.93 53.78 13.57
12/28/2020 4:15:00 AM 1.22 34.196 0.103 6.94 49.32 13.57
12/28/2020 4:30:00 AM 1.22 34.196 0.103 6.93 47.35 13.57
12/28/2020 4:45:00 AM 1.23 34.214 0.103 6.94 47.3 13.55
12/28/2020 5:00:00 AM 1.24 34.232 0.103 6.94 50.59 13.56
12/28/2020 5:15:00 AM 1.25 34.25 0.103 6.92 46.88 13.56
12/28/2020 5:30:00 AM 1.25 34.25 0.103 6.95 49.8 13.57
12/28/2020 5:45:00 AM 1.27 34.286 0.103 6.93 53.62 13.56
12/28/2020 6:00:00 AM 1.28 34.304 0.103 6.94 51.03 13.56
12/28/2020 6:15:00 AM 1.3 34.34 0.103 6.96 46.17 13.55
12/28/2020 6:30:00 AM 1.29 34.322 0.103 6.93 49.59 13.55
12/28/2020 6:45:00 AM 1.28 34.304 0.104 6.95 46.72 13.54
12/28/2020 7:00:00 AM 1.29 34.322 0.104 6.95 45.78 13.54
12/28/2020 7:15:00 AM 1.31 34.358 0.104 6.94 48.48 13.53
12/28/2020 7:30:00 AM 1.32 34.376 0.104 6.95 45.03 13.52
12/28/2020 7:45:00 AM 1.34 34.412 0.104 6.96 44.41 13.53
12/28/2020 8:00:00 AM 1.36 34.448 0.104 6.95 47.74 13.51
12/28/2020 8:15:00 AM 1.38 34.484 0.104 6.96 48.09 13.52
12/28/2020 8:30:00 AM 1.4 34.52 0.104 6.95 48.03 13.47
12/28/2020 8:45:00 AM 1.44 34.592 0.104 6.95 44.42 13.5
12/28/2020 9:00:00 AM 1.47 34.646